﻿<?xml version="1.0" encoding="utf-8"?><gpx creator="Garmin Desktop App" version="1.1" xsi:schemaLocation="http://www.topografix.com/GPX/1/1 http://www.topografix.com/GPX/1/1/gpx.xsd http://www.garmin.com/xmlschemas/WaypointExtension/v1 http://www8.garmin.com/xmlschemas/WaypointExtensionv1.xsd http://www.garmin.com/xmlschemas/TrackPointExtension/v1 http://www.garmin.com/xmlschemas/TrackPointExtensionv1.xsd http://www.garmin.com/xmlschemas/GpxExtensions/v3 http://www8.garmin.com/xmlschemas/GpxExtensionsv3.xsd http://www.garmin.com/xmlschemas/ActivityExtension/v1 http://www8.garmin.com/xmlschemas/ActivityExtensionv1.xsd http://www.garmin.com/xmlschemas/AdventuresExtensions/v1 http://www8.garmin.com/xmlschemas/AdventuresExtensionv1.xsd http://www.garmin.com/xmlschemas/PressureExtension/v1 http://www.garmin.com/xmlschemas/PressureExtensionv1.xsd http://www.garmin.com/xmlschemas/TripExtensions/v1 http://www.garmin.com/xmlschemas/TripExtensionsv1.xsd http://www.garmin.com/xmlschemas/TripMetaDataExtensions/v1 http://www.garmin.com/xmlschemas/TripMetaDataExtensionsv1.xsd http://www.garmin.com/xmlschemas/ViaPointTransportationModeExtensions/v1 http://www.garmin.com/xmlschemas/ViaPointTransportationModeExtensionsv1.xsd http://www.garmin.com/xmlschemas/CreationTimeExtension/v1 http://www.garmin.com/xmlschemas/CreationTimeExtensionsv1.xsd http://www.garmin.com/xmlschemas/AccelerationExtension/v1 http://www.garmin.com/xmlschemas/AccelerationExtensionv1.xsd http://www.garmin.com/xmlschemas/PowerExtension/v1 http://www.garmin.com/xmlschemas/PowerExtensionv1.xsd http://www.garmin.com/xmlschemas/VideoExtension/v1 http://www.garmin.com/xmlschemas/VideoExtensionv1.xsd" xmlns="http://www.topografix.com/GPX/1/1" xmlns:xsi="http://www.w3.org/2001/XMLSchema-instance" xmlns:wptx1="http://www.garmin.com/xmlschemas/WaypointExtension/v1" xmlns:gpxtrx="http://www.garmin.com/xmlschemas/GpxExtensions/v3" xmlns:gpxtpx="http://www.garmin.com/xmlschemas/TrackPointExtension/v1" xmlns:gpxx="http://www.garmin.com/xmlschemas/GpxExtensions/v3" xmlns:trp="http://www.garmin.com/xmlschemas/TripExtensions/v1" xmlns:adv="http://www.garmin.com/xmlschemas/AdventuresExtensions/v1" xmlns:prs="http://www.garmin.com/xmlschemas/PressureExtension/v1" xmlns:tmd="http://www.garmin.com/xmlschemas/TripMetaDataExtensions/v1" xmlns:vptm="http://www.garmin.com/xmlschemas/ViaPointTransportationModeExtensions/v1" xmlns:ctx="http://www.garmin.com/xmlschemas/CreationTimeExtension/v1" xmlns:gpxacc="http://www.garmin.com/xmlschemas/AccelerationExtension/v1" xmlns:gpxpx="http://www.garmin.com/xmlschemas/PowerExtension/v1" xmlns:vidx1="http://www.garmin.com/xmlschemas/VideoExtension/v1">

  <metadata>
    <link href="http://www.garmin.com">
      <text>Garmin International</text>
    </link>
    <time>2023-09-25T12:53:12Z</time>
    <bounds maxlat="46.251097787171602" maxlon="9.59719380363822" minlat="46.244727792218328" minlon="9.567533517256379" />
  </metadata>

  <trk>
    <name>rifugio omio2022-10-20</name>
    <extensions>
      <gpxx:TrackExtension>
        <gpxx:DisplayColor>Yellow</gpxx:DisplayColor>
      </gpxx:TrackExtension>
    </extensions>
    <trkseg>
      <trkpt lat="46.244738856330514" lon="9.597191708162427">
        <ele>1181.71</ele>
        <time>2022-10-20T05:56:41Z</time>
      </trkpt>
      <trkpt lat="46.244727792218328" lon="9.59719380363822">
        <ele>1182.23</ele>
        <time>2022-10-20T05:56:59Z</time>
      </trkpt>
      <trkpt lat="46.244727959856391" lon="9.597185086458921">
        <ele>1183.1900000000001</ele>
        <time>2022-10-20T05:57:05Z</time>
      </trkpt>
      <trkpt lat="46.244797864928842" lon="9.597079725936055">
        <ele>1182.6300000000001</ele>
        <time>2022-10-20T05:57:14Z</time>
      </trkpt>
      <trkpt lat="46.244833320379257" lon="9.596987022086978">
        <ele>1181.4300000000001</ele>
        <time>2022-10-20T05:57:21Z</time>
      </trkpt>
      <trkpt lat="46.244881683960557" lon="9.596911082044244">
        <ele>1180.21</ele>
        <time>2022-10-20T05:57:27Z</time>
      </trkpt>
      <trkpt lat="46.244977824389935" lon="9.596798764541745">
        <ele>1177.8699999999999</ele>
        <time>2022-10-20T05:57:38Z</time>
      </trkpt>
      <trkpt lat="46.245033647865057" lon="9.596747551113367">
        <ele>1176.3800000000001</ele>
        <time>2022-10-20T05:57:44Z</time>
      </trkpt>
      <trkpt lat="46.245077066123486" lon="9.596690302714706">
        <ele>1174.5999999999999</ele>
        <time>2022-10-20T05:57:51Z</time>
      </trkpt>
      <trkpt lat="46.245084190741181" lon="9.596624001860619">
        <ele>1173.6400000000001</ele>
        <time>2022-10-20T05:57:55Z</time>
      </trkpt>
      <trkpt lat="46.24513984657824" lon="9.596497351303697">
        <ele>1172.8800000000001</ele>
        <time>2022-10-20T05:58:03Z</time>
      </trkpt>
      <trkpt lat="46.245198855176568" lon="9.596356619149447">
        <ele>1171.8699999999999</ele>
        <time>2022-10-20T05:58:12Z</time>
      </trkpt>
      <trkpt lat="46.245259623974562" lon="9.596240781247616">
        <ele>1171.46</ele>
        <time>2022-10-20T05:58:23Z</time>
      </trkpt>
      <trkpt lat="46.245313351973891" lon="9.596124775707722">
        <ele>1170.0599999999999</ele>
        <time>2022-10-20T05:58:33Z</time>
      </trkpt>
      <trkpt lat="46.245337659493089" lon="9.596000304445624">
        <ele>1169.0699999999999</ele>
        <time>2022-10-20T05:58:42Z</time>
      </trkpt>
      <trkpt lat="46.245442517101765" lon="9.595839958637953">
        <ele>1166.76</ele>
        <time>2022-10-20T05:58:56Z</time>
      </trkpt>
      <trkpt lat="46.245561875402927" lon="9.595647174865007">
        <ele>1164.54</ele>
        <time>2022-10-20T05:59:10Z</time>
      </trkpt>
      <trkpt lat="46.245661620050669" lon="9.595507699996233">
        <ele>1163.04</ele>
        <time>2022-10-20T05:59:21Z</time>
      </trkpt>
      <trkpt lat="46.24577502720058" lon="9.595380881801248">
        <ele>1160.77</ele>
        <time>2022-10-20T05:59:35Z</time>
      </trkpt>
      <trkpt lat="46.245838981121778" lon="9.595174603164196">
        <ele>1159.54</ele>
        <time>2022-10-20T05:59:50Z</time>
      </trkpt>
      <trkpt lat="46.24599345959723" lon="9.595133196562529">
        <ele>1159.27</ele>
        <time>2022-10-20T06:00:00Z</time>
      </trkpt>
      <trkpt lat="46.246097898110747" lon="9.595107883214951">
        <ele>1158.5999999999999</ele>
        <time>2022-10-20T06:00:06Z</time>
      </trkpt>
      <trkpt lat="46.246150704100728" lon="9.595008473843336">
        <ele>1157.96</ele>
        <time>2022-10-20T06:00:14Z</time>
      </trkpt>
      <trkpt lat="46.246152464300394" lon="9.594960110262036">
        <ele>1158.3199999999999</ele>
        <time>2022-10-20T06:00:17Z</time>
      </trkpt>
      <trkpt lat="46.246170233935118" lon="9.594831867143512">
        <ele>1159.74</ele>
        <time>2022-10-20T06:00:26Z</time>
      </trkpt>
      <trkpt lat="46.246204599738121" lon="9.594710161909461">
        <ele>1161.1300000000001</ele>
        <time>2022-10-20T06:00:35Z</time>
      </trkpt>
      <trkpt lat="46.246276348829269" lon="9.594535566866398">
        <ele>1163.04</ele>
        <time>2022-10-20T06:00:49Z</time>
      </trkpt>
      <trkpt lat="46.246338877826929" lon="9.594372287392616">
        <ele>1164.53</ele>
        <time>2022-10-20T06:01:03Z</time>
      </trkpt>
      <trkpt lat="46.246322030201554" lon="9.594227615743876">
        <ele>1165.4300000000001</ele>
        <time>2022-10-20T06:01:18Z</time>
      </trkpt>
      <trkpt lat="46.246304428204894" lon="9.594200793653727">
        <ele>1165.8</ele>
        <time>2022-10-20T06:01:21Z</time>
      </trkpt>
      <trkpt lat="46.246254220604897" lon="9.594120662659407">
        <ele>1166.98</ele>
        <time>2022-10-20T06:01:26Z</time>
      </trkpt>
      <trkpt lat="46.246196553111076" lon="9.594007674604654">
        <ele>1168.3599999999999</ele>
        <time>2022-10-20T06:01:33Z</time>
      </trkpt>
      <trkpt lat="46.246183896437287" lon="9.593913294374943">
        <ele>1169.2</ele>
        <time>2022-10-20T06:01:39Z</time>
      </trkpt>
      <trkpt lat="46.246171742677689" lon="9.593706764280796">
        <ele>1169.9200000000001</ele>
        <time>2022-10-20T06:01:53Z</time>
      </trkpt>
      <trkpt lat="46.246207617223263" lon="9.593619173392654">
        <ele>1170.49</ele>
        <time>2022-10-20T06:01:59Z</time>
      </trkpt>
      <trkpt lat="46.246213987469673" lon="9.59360484033823">
        <ele>1170.4400000000001</ele>
        <time>2022-10-20T06:02:00Z</time>
      </trkpt>
      <trkpt lat="46.246213149279356" lon="9.593586148694158">
        <ele>1171.04</ele>
        <time>2022-10-20T06:02:01Z</time>
      </trkpt>
      <trkpt lat="46.246300656348467" lon="9.593400740996003">
        <ele>1174.24</ele>
        <time>2022-10-20T06:02:15Z</time>
      </trkpt>
      <trkpt lat="46.246381374076009" lon="9.593210304155946">
        <ele>1178.03</ele>
        <time>2022-10-20T06:02:30Z</time>
      </trkpt>
      <trkpt lat="46.246427223086357" lon="9.593032691627741">
        <ele>1180.3299999999999</ele>
        <time>2022-10-20T06:02:43Z</time>
      </trkpt>
      <trkpt lat="46.24644884839654" lon="9.592905538156629">
        <ele>1182.1099999999999</ele>
        <time>2022-10-20T06:02:52Z</time>
      </trkpt>
      <trkpt lat="46.246451362967491" lon="9.592889863997698">
        <ele>1182.51</ele>
        <time>2022-10-20T06:02:53Z</time>
      </trkpt>
      <trkpt lat="46.246447423473001" lon="9.592871004715562">
        <ele>1182.78</ele>
        <time>2022-10-20T06:02:54Z</time>
      </trkpt>
      <trkpt lat="46.246450776234269" lon="9.592856504023075">
        <ele>1182.8599999999999</ele>
        <time>2022-10-20T06:02:55Z</time>
      </trkpt>
      <trkpt lat="46.24650307931006" lon="9.592652823776007">
        <ele>1184.4200000000001</ele>
        <time>2022-10-20T06:03:09Z</time>
      </trkpt>
      <trkpt lat="46.246565105393529" lon="9.592440258711577">
        <ele>1185.5699999999999</ele>
        <time>2022-10-20T06:03:23Z</time>
      </trkpt>
      <trkpt lat="46.246585976332426" lon="9.592336155474186">
        <ele>1186.1800000000001</ele>
        <time>2022-10-20T06:03:31Z</time>
      </trkpt>
      <trkpt lat="46.246583210304379" lon="9.592313440516591">
        <ele>1185.8900000000001</ele>
        <time>2022-10-20T06:03:33Z</time>
      </trkpt>
      <trkpt lat="46.246566949412227" lon="9.592271614819765">
        <ele>1185.4200000000001</ele>
        <time>2022-10-20T06:03:36Z</time>
      </trkpt>
      <trkpt lat="46.246559740975499" lon="9.592173462733626">
        <ele>1184.47</ele>
        <time>2022-10-20T06:03:44Z</time>
      </trkpt>
      <trkpt lat="46.246555130928755" lon="9.592086039483547">
        <ele>1185.75</ele>
        <time>2022-10-20T06:03:51Z</time>
      </trkpt>
      <trkpt lat="46.246550772339106" lon="9.592060223221779">
        <ele>1186.1700000000001</ele>
        <time>2022-10-20T06:03:53Z</time>
      </trkpt>
      <trkpt lat="46.246550856158137" lon="9.59201873280108">
        <ele>1186.4100000000001</ele>
        <time>2022-10-20T06:03:56Z</time>
      </trkpt>
      <trkpt lat="46.246555298566818" lon="9.592004483565688">
        <ele>1186.49</ele>
        <time>2022-10-20T06:03:57Z</time>
      </trkpt>
      <trkpt lat="46.246559908613563" lon="9.591989144682884">
        <ele>1186.54</ele>
        <time>2022-10-20T06:03:58Z</time>
      </trkpt>
      <trkpt lat="46.246576085686684" lon="9.591794013977051">
        <ele>1187.24</ele>
        <time>2022-10-20T06:04:11Z</time>
      </trkpt>
      <trkpt lat="46.246617240831256" lon="9.591702483594418">
        <ele>1186.6300000000001</ele>
        <time>2022-10-20T06:04:18Z</time>
      </trkpt>
      <trkpt lat="46.246637022122741" lon="9.591635093092918">
        <ele>1185.8599999999999</ele>
        <time>2022-10-20T06:04:24Z</time>
      </trkpt>
      <trkpt lat="46.246664766222239" lon="9.591592010110617">
        <ele>1185.26</ele>
        <time>2022-10-20T06:04:29Z</time>
      </trkpt>
      <trkpt lat="46.246667448431253" lon="9.591581197455525">
        <ele>1184.8599999999999</ele>
        <time>2022-10-20T06:04:30Z</time>
      </trkpt>
      <trkpt lat="46.24668731354177" lon="9.591505844146013">
        <ele>1185.0899999999999</ele>
        <time>2022-10-20T06:04:38Z</time>
      </trkpt>
      <trkpt lat="46.246702987700701" lon="9.591458905488253">
        <ele>1184.6199999999999</ele>
        <time>2022-10-20T06:04:42Z</time>
      </trkpt>
      <trkpt lat="46.246708016842604" lon="9.591432586312294">
        <ele>1184.5599999999999</ele>
        <time>2022-10-20T06:04:44Z</time>
      </trkpt>
      <trkpt lat="46.246725786477327" lon="9.591391934081912">
        <ele>1184.3599999999999</ele>
        <time>2022-10-20T06:04:48Z</time>
      </trkpt>
      <trkpt lat="46.246729223057628" lon="9.591373912990093">
        <ele>1184.4000000000001</ele>
        <time>2022-10-20T06:04:49Z</time>
      </trkpt>
      <trkpt lat="46.246739448979497" lon="9.591358406469226">
        <ele>1184.4200000000001</ele>
        <time>2022-10-20T06:04:50Z</time>
      </trkpt>
      <trkpt lat="46.246751602739096" lon="9.591342564672232">
        <ele>1184.3099999999999</ele>
        <time>2022-10-20T06:04:51Z</time>
      </trkpt>
      <trkpt lat="46.246759397909045" lon="9.591326639056206">
        <ele>1184.26</ele>
        <time>2022-10-20T06:04:52Z</time>
      </trkpt>
      <trkpt lat="46.246784711256623" lon="9.591159000992775">
        <ele>1181.9300000000001</ele>
        <time>2022-10-20T06:05:05Z</time>
      </trkpt>
      <trkpt lat="46.246783453971148" lon="9.591021705418825">
        <ele>1181.78</ele>
        <time>2022-10-20T06:05:17Z</time>
      </trkpt>
      <trkpt lat="46.246737018227577" lon="9.590913159772754">
        <ele>1185</ele>
        <time>2022-10-20T06:05:31Z</time>
      </trkpt>
      <trkpt lat="46.246692761778831" lon="9.590823305770755">
        <ele>1188.6800000000001</ele>
        <time>2022-10-20T06:05:45Z</time>
      </trkpt>
      <trkpt lat="46.246653366833925" lon="9.590758178383112">
        <ele>1193.2</ele>
        <time>2022-10-20T06:05:59Z</time>
      </trkpt>
      <trkpt lat="46.246637692674994" lon="9.590706881135702">
        <ele>1196.21</ele>
        <time>2022-10-20T06:06:09Z</time>
      </trkpt>
      <trkpt lat="46.246580695733428" lon="9.590623481199145">
        <ele>1198.1600000000001</ele>
        <time>2022-10-20T06:06:21Z</time>
      </trkpt>
      <trkpt lat="46.246572397649288" lon="9.590581152588129">
        <ele>1200.28</ele>
        <time>2022-10-20T06:06:33Z</time>
      </trkpt>
      <trkpt lat="46.246588993817568" lon="9.59055483341217">
        <ele>1202.4200000000001</ele>
        <time>2022-10-20T06:06:43Z</time>
      </trkpt>
      <trkpt lat="46.246616318821907" lon="9.590538069605827">
        <ele>1204.05</ele>
        <time>2022-10-20T06:06:57Z</time>
      </trkpt>
      <trkpt lat="46.246713800355792" lon="9.590571597218514">
        <ele>1205.3699999999999</ele>
        <time>2022-10-20T06:07:11Z</time>
      </trkpt>
      <trkpt lat="46.246806085109711" lon="9.590552318841219">
        <ele>1206.47</ele>
        <time>2022-10-20T06:07:26Z</time>
      </trkpt>
      <trkpt lat="46.246755793690681" lon="9.590482246130705">
        <ele>1207.6700000000001</ele>
        <time>2022-10-20T06:07:39Z</time>
      </trkpt>
      <trkpt lat="46.246702317148447" lon="9.590411251410842">
        <ele>1209.6400000000001</ele>
        <time>2022-10-20T06:07:54Z</time>
      </trkpt>
      <trkpt lat="46.246734419837594" lon="9.590326091274619">
        <ele>1212.1600000000001</ele>
        <time>2022-10-20T06:08:09Z</time>
      </trkpt>
      <trkpt lat="46.246735844761133" lon="9.590256018564105">
        <ele>1214.4300000000001</ele>
        <time>2022-10-20T06:08:23Z</time>
      </trkpt>
      <trkpt lat="46.246766773983836" lon="9.590212935581803">
        <ele>1216</ele>
        <time>2022-10-20T06:08:38Z</time>
      </trkpt>
      <trkpt lat="46.246751686558127" lon="9.590153759345412">
        <ele>1216.6099999999999</ele>
        <time>2022-10-20T06:08:55Z</time>
      </trkpt>
      <trkpt lat="46.246803319081664" lon="9.590150322765112">
        <ele>1216.4000000000001</ele>
        <time>2022-10-20T06:09:08Z</time>
      </trkpt>
      <trkpt lat="46.24686224386096" lon="9.590151077136397">
        <ele>1220.25</ele>
        <time>2022-10-20T06:09:25Z</time>
      </trkpt>
      <trkpt lat="46.246921923011541" lon="9.590084357187152">
        <ele>1222.4300000000001</ele>
        <time>2022-10-20T06:09:41Z</time>
      </trkpt>
      <trkpt lat="46.24690281227231" lon="9.590039178729057">
        <ele>1224.01</ele>
        <time>2022-10-20T06:09:56Z</time>
      </trkpt>
      <trkpt lat="46.246844725683331" lon="9.589966088533402">
        <ele>1226.99</ele>
        <time>2022-10-20T06:10:11Z</time>
      </trkpt>
      <trkpt lat="46.246890239417553" lon="9.589935829862952">
        <ele>1229.8</ele>
        <time>2022-10-20T06:10:25Z</time>
      </trkpt>
      <trkpt lat="46.246942123398185" lon="9.589955527335405">
        <ele>1234.1099999999999</ele>
        <time>2022-10-20T06:10:43Z</time>
      </trkpt>
      <trkpt lat="46.246922174468637" lon="9.589873133227229">
        <ele>1235.75</ele>
        <time>2022-10-20T06:10:55Z</time>
      </trkpt>
      <trkpt lat="46.24691161327064" lon="9.589773891493678">
        <ele>1237.79</ele>
        <time>2022-10-20T06:11:12Z</time>
      </trkpt>
      <trkpt lat="46.246979255229235" lon="9.589762324467301">
        <ele>1239.45</ele>
        <time>2022-10-20T06:11:26Z</time>
      </trkpt>
      <trkpt lat="46.246992247179151" lon="9.589708847925067">
        <ele>1240.48</ele>
        <time>2022-10-20T06:11:39Z</time>
      </trkpt>
      <trkpt lat="46.247026193886995" lon="9.58969141356647">
        <ele>1243.45</ele>
        <time>2022-10-20T06:11:55Z</time>
      </trkpt>
      <trkpt lat="46.247054189443588" lon="9.5896967779845">
        <ele>1244.97</ele>
        <time>2022-10-20T06:12:17Z</time>
      </trkpt>
      <trkpt lat="46.247041700407863" lon="9.589728461578488">
        <ele>1247.04</ele>
        <time>2022-10-20T06:12:39Z</time>
      </trkpt>
      <trkpt lat="46.247025858610868" lon="9.589715972542763">
        <ele>1248.1300000000001</ele>
        <time>2022-10-20T06:12:57Z</time>
      </trkpt>
      <trkpt lat="46.247060559689999" lon="9.589703567326069">
        <ele>1248.6099999999999</ele>
        <time>2022-10-20T06:13:10Z</time>
      </trkpt>
      <trkpt lat="46.247037006542087" lon="9.589685713872314">
        <ele>1250.8199999999999</ele>
        <time>2022-10-20T06:13:29Z</time>
      </trkpt>
      <trkpt lat="46.247024685144424" lon="9.589686635881662">
        <ele>1251.6300000000001</ele>
        <time>2022-10-20T06:13:47Z</time>
      </trkpt>
      <trkpt lat="46.24706206843257" lon="9.589707087725401">
        <ele>1253.29</ele>
        <time>2022-10-20T06:14:02Z</time>
      </trkpt>
      <trkpt lat="46.247145887464285" lon="9.58973198197782">
        <ele>1255.21</ele>
        <time>2022-10-20T06:14:17Z</time>
      </trkpt>
      <trkpt lat="46.247215792536736" lon="9.589720834046602">
        <ele>1258.3599999999999</ele>
        <time>2022-10-20T06:14:34Z</time>
      </trkpt>
      <trkpt lat="46.247164746746421" lon="9.589665429666638">
        <ele>1261.3900000000001</ele>
        <time>2022-10-20T06:14:47Z</time>
      </trkpt>
      <trkpt lat="46.247250493615866" lon="9.589642966166139">
        <ele>1264.5799999999999</ele>
        <time>2022-10-20T06:15:03Z</time>
      </trkpt>
      <trkpt lat="46.24733230099082" lon="9.589649839326739">
        <ele>1268.79</ele>
        <time>2022-10-20T06:15:17Z</time>
      </trkpt>
      <trkpt lat="46.247310759499669" lon="9.589588819071651">
        <ele>1271.9200000000001</ele>
        <time>2022-10-20T06:15:32Z</time>
      </trkpt>
      <trkpt lat="46.247250577434897" lon="9.58949401974678">
        <ele>1275.4400000000001</ele>
        <time>2022-10-20T06:15:49Z</time>
      </trkpt>
      <trkpt lat="46.247267425060272" lon="9.589439621195197">
        <ele>1276.4400000000001</ele>
        <time>2022-10-20T06:16:03Z</time>
      </trkpt>
      <trkpt lat="46.247265245765448" lon="9.589300230145454">
        <ele>1276.8699999999999</ele>
        <time>2022-10-20T06:16:19Z</time>
      </trkpt>
      <trkpt lat="46.247311094775796" lon="9.589268630370498">
        <ele>1277.52</ele>
        <time>2022-10-20T06:16:35Z</time>
      </trkpt>
      <trkpt lat="46.247328445315361" lon="9.589322861284018">
        <ele>1281.3</ele>
        <time>2022-10-20T06:16:53Z</time>
      </trkpt>
      <trkpt lat="46.247442942112684" lon="9.58932495675981">
        <ele>1285.75</ele>
        <time>2022-10-20T06:17:10Z</time>
      </trkpt>
      <trkpt lat="46.247546039521694" lon="9.589321268722415">
        <ele>1289.3699999999999</ele>
        <time>2022-10-20T06:17:27Z</time>
      </trkpt>
      <trkpt lat="46.247634887695312" lon="9.589339541271329">
        <ele>1294.3099999999999</ele>
        <time>2022-10-20T06:17:43Z</time>
      </trkpt>
      <trkpt lat="46.247689034789801" lon="9.589293524622917">
        <ele>1297.27</ele>
        <time>2022-10-20T06:18:00Z</time>
      </trkpt>
      <trkpt lat="46.24777595512569" lon="9.589285310357809">
        <ele>1299.8399999999999</ele>
        <time>2022-10-20T06:18:15Z</time>
      </trkpt>
      <trkpt lat="46.247895481064916" lon="9.589288830757141">
        <ele>1305.74</ele>
        <time>2022-10-20T06:18:33Z</time>
      </trkpt>
      <trkpt lat="46.247966140508652" lon="9.589285980910063">
        <ele>1311.0799999999999</ele>
        <time>2022-10-20T06:18:50Z</time>
      </trkpt>
      <trkpt lat="46.248009642586112" lon="9.589279945939779">
        <ele>1315.77</ele>
        <time>2022-10-20T06:19:03Z</time>
      </trkpt>
      <trkpt lat="46.2480344530195" lon="9.589293440803886">
        <ele>1319.23</ele>
        <time>2022-10-20T06:19:17Z</time>
      </trkpt>
      <trkpt lat="46.248091366142035" lon="9.589284136891365">
        <ele>1322.26</ele>
        <time>2022-10-20T06:19:32Z</time>
      </trkpt>
      <trkpt lat="46.248087761923671" lon="9.589236192405224">
        <ele>1323.21</ele>
        <time>2022-10-20T06:19:48Z</time>
      </trkpt>
      <trkpt lat="46.248165043070912" lon="9.589245496317744">
        <ele>1324.6800000000001</ele>
        <time>2022-10-20T06:20:04Z</time>
      </trkpt>
      <trkpt lat="46.248253136873245" lon="9.589202748611569">
        <ele>1329.8599999999999</ele>
        <time>2022-10-20T06:20:21Z</time>
      </trkpt>
      <trkpt lat="46.248276522383094" lon="9.589142315089703">
        <ele>1332.4400000000001</ele>
        <time>2022-10-20T06:20:36Z</time>
      </trkpt>
      <trkpt lat="46.248222291469574" lon="9.589095460250974">
        <ele>1335.52</ele>
        <time>2022-10-20T06:20:50Z</time>
      </trkpt>
      <trkpt lat="46.248249700292945" lon="9.589110463857651">
        <ele>1339.75</ele>
        <time>2022-10-20T06:21:07Z</time>
      </trkpt>
      <trkpt lat="46.248350534588099" lon="9.589198306202889">
        <ele>1342.1099999999999</ele>
        <time>2022-10-20T06:21:22Z</time>
      </trkpt>
      <trkpt lat="46.248376602306962" lon="9.589194785803556">
        <ele>1342.0899999999999</ele>
        <time>2022-10-20T06:21:24Z</time>
      </trkpt>
      <trkpt lat="46.248433599248528" lon="9.589281035587192">
        <ele>1342.48</ele>
        <time>2022-10-20T06:21:37Z</time>
      </trkpt>
      <trkpt lat="46.248512556776404" lon="9.589393185451627">
        <ele>1342.8399999999999</ele>
        <time>2022-10-20T06:21:52Z</time>
      </trkpt>
      <trkpt lat="46.248584976419806" lon="9.589523859322071">
        <ele>1343.0999999999999</ele>
        <time>2022-10-20T06:22:06Z</time>
      </trkpt>
      <trkpt lat="46.248656641691923" lon="9.589687893167138">
        <ele>1343.79</ele>
        <time>2022-10-20T06:22:22Z</time>
      </trkpt>
      <trkpt lat="46.248787399381399" lon="9.589774729683995">
        <ele>1343.5999999999999</ele>
        <time>2022-10-20T06:22:41Z</time>
      </trkpt>
      <trkpt lat="46.248801397159696" lon="9.589790822938085">
        <ele>1343.53</ele>
        <time>2022-10-20T06:22:43Z</time>
      </trkpt>
      <trkpt lat="46.248945482075214" lon="9.589864164590836">
        <ele>1342.6500000000001</ele>
        <time>2022-10-20T06:22:58Z</time>
      </trkpt>
      <trkpt lat="46.248966436833143" lon="9.589966926723719">
        <ele>1343.3800000000001</ele>
        <time>2022-10-20T06:23:12Z</time>
      </trkpt>
      <trkpt lat="46.249047741293907" lon="9.590003890916705">
        <ele>1345.8099999999999</ele>
        <time>2022-10-20T06:23:29Z</time>
      </trkpt>
      <trkpt lat="46.249099373817444" lon="9.590107155963779">
        <ele>1346.8099999999999</ele>
        <time>2022-10-20T06:23:44Z</time>
      </trkpt>
      <trkpt lat="46.24918176792562" lon="9.590171445161104">
        <ele>1347.9000000000001</ele>
        <time>2022-10-20T06:24:00Z</time>
      </trkpt>
      <trkpt lat="46.249227616935968" lon="9.590280074626207">
        <ele>1348.3299999999999</ele>
        <time>2022-10-20T06:24:13Z</time>
      </trkpt>
      <trkpt lat="46.249263072386384" lon="9.590314775705338">
        <ele>1349.74</ele>
        <time>2022-10-20T06:24:28Z</time>
      </trkpt>
      <trkpt lat="46.249309089034796" lon="9.590402031317353">
        <ele>1349.79</ele>
        <time>2022-10-20T06:24:43Z</time>
      </trkpt>
      <trkpt lat="46.249365750700235" lon="9.590415190905333">
        <ele>1350.8699999999999</ele>
        <time>2022-10-20T06:25:00Z</time>
      </trkpt>
      <trkpt lat="46.249437835067511" lon="9.590457938611507">
        <ele>1353.8099999999999</ele>
        <time>2022-10-20T06:25:17Z</time>
      </trkpt>
      <trkpt lat="46.249509919434786" lon="9.590607723221183">
        <ele>1356.45</ele>
        <time>2022-10-20T06:25:33Z</time>
      </trkpt>
      <trkpt lat="46.249564234167337" lon="9.590812157839537">
        <ele>1357.9100000000001</ele>
        <time>2022-10-20T06:25:50Z</time>
      </trkpt>
      <trkpt lat="46.249570017680526" lon="9.590972336009145">
        <ele>1359.1800000000001</ele>
        <time>2022-10-20T06:26:03Z</time>
      </trkpt>
      <trkpt lat="46.249600360170007" lon="9.591174758970738">
        <ele>1360.28</ele>
        <time>2022-10-20T06:26:19Z</time>
      </trkpt>
      <trkpt lat="46.249629696831107" lon="9.591218261048198">
        <ele>1361.4300000000001</ele>
        <time>2022-10-20T06:26:28Z</time>
      </trkpt>
      <trkpt lat="46.249714186415076" lon="9.591208705678582">
        <ele>1363.8</ele>
        <time>2022-10-20T06:26:46Z</time>
      </trkpt>
      <trkpt lat="46.249749222770333" lon="9.591160928830504">
        <ele>1366.4200000000001</ele>
        <time>2022-10-20T06:27:04Z</time>
      </trkpt>
      <trkpt lat="46.24981451779604" lon="9.591257236897945">
        <ele>1368.55</ele>
        <time>2022-10-20T06:27:21Z</time>
      </trkpt>
      <trkpt lat="46.249866653233767" lon="9.591338289901614">
        <ele>1369.7</ele>
        <time>2022-10-20T06:27:35Z</time>
      </trkpt>
      <trkpt lat="46.249927170574665" lon="9.59139185026288">
        <ele>1372.8299999999999</ele>
        <time>2022-10-20T06:27:52Z</time>
      </trkpt>
      <trkpt lat="46.249894062057137" lon="9.591372068971396">
        <ele>1377.25</ele>
        <time>2022-10-20T06:28:15Z</time>
      </trkpt>
      <trkpt lat="46.249968074262142" lon="9.591309456154704">
        <ele>1379.77</ele>
        <time>2022-10-20T06:28:28Z</time>
      </trkpt>
      <trkpt lat="46.249985005706549" lon="9.591263439506292">
        <ele>1382.02</ele>
        <time>2022-10-20T06:28:42Z</time>
      </trkpt>
      <trkpt lat="46.250012582167983" lon="9.591135615482926">
        <ele>1384.49</ele>
        <time>2022-10-20T06:29:01Z</time>
      </trkpt>
      <trkpt lat="46.250049211084843" lon="9.591015670448542">
        <ele>1386.21</ele>
        <time>2022-10-20T06:29:17Z</time>
      </trkpt>
      <trkpt lat="46.25005692243576" lon="9.590918440371752">
        <ele>1387.4200000000001</ele>
        <time>2022-10-20T06:29:31Z</time>
      </trkpt>
      <trkpt lat="46.250054659321904" lon="9.590820455923677">
        <ele>1389.3699999999999</ele>
        <time>2022-10-20T06:29:45Z</time>
      </trkpt>
      <trkpt lat="46.250094389542937" lon="9.590717358514667">
        <ele>1392.0899999999999</ele>
        <time>2022-10-20T06:30:02Z</time>
      </trkpt>
      <trkpt lat="46.250153062865138" lon="9.590589953586459">
        <ele>1395.1900000000001</ele>
        <time>2022-10-20T06:30:19Z</time>
      </trkpt>
      <trkpt lat="46.250235792249441" lon="9.590520635247231">
        <ele>1397.28</ele>
        <time>2022-10-20T06:30:32Z</time>
      </trkpt>
      <trkpt lat="46.25027728267014" lon="9.590459363535047">
        <ele>1399.1199999999999</ele>
        <time>2022-10-20T06:30:44Z</time>
      </trkpt>
      <trkpt lat="46.250273175537586" lon="9.590413011610508">
        <ele>1400.27</ele>
        <time>2022-10-20T06:30:51Z</time>
      </trkpt>
      <trkpt lat="46.250266637653112" lon="9.590336484834552">
        <ele>1402.1199999999999</ele>
        <time>2022-10-20T06:31:02Z</time>
      </trkpt>
      <trkpt lat="46.250283736735582" lon="9.590247636660934">
        <ele>1404.4000000000001</ele>
        <time>2022-10-20T06:31:18Z</time>
      </trkpt>
      <trkpt lat="46.250246521085501" lon="9.590138671919704">
        <ele>1406.9200000000001</ele>
        <time>2022-10-20T06:31:33Z</time>
      </trkpt>
      <trkpt lat="46.250297063961625" lon="9.590128529816866">
        <ele>1408.6500000000001</ele>
        <time>2022-10-20T06:31:43Z</time>
      </trkpt>
      <trkpt lat="46.25035640783608" lon="9.590039933100343">
        <ele>1410.9300000000001</ele>
        <time>2022-10-20T06:32:01Z</time>
      </trkpt>
      <trkpt lat="46.250396724790335" lon="9.590014787390828">
        <ele>1412.23</ele>
        <time>2022-10-20T06:32:18Z</time>
      </trkpt>
      <trkpt lat="46.250431258231401" lon="9.589933985844255">
        <ele>1415.0799999999999</ele>
        <time>2022-10-20T06:32:34Z</time>
      </trkpt>
      <trkpt lat="46.25042337924242" lon="9.5898521784693">
        <ele>1419.49</ele>
        <time>2022-10-20T06:32:54Z</time>
      </trkpt>
      <trkpt lat="46.250421199947596" lon="9.589738268405199">
        <ele>1424.3199999999999</ele>
        <time>2022-10-20T06:33:10Z</time>
      </trkpt>
      <trkpt lat="46.250478196889162" lon="9.589686300605536">
        <ele>1427.5699999999999</ele>
        <time>2022-10-20T06:33:23Z</time>
      </trkpt>
      <trkpt lat="46.250493703410029" lon="9.589655036106706">
        <ele>1430.5599999999999</ele>
        <time>2022-10-20T06:33:38Z</time>
      </trkpt>
      <trkpt lat="46.250486327335238" lon="9.58956778049469">
        <ele>1434.4100000000001</ele>
        <time>2022-10-20T06:33:50Z</time>
      </trkpt>
      <trkpt lat="46.250552041456103" lon="9.589538192376494">
        <ele>1440.0699999999999</ele>
        <time>2022-10-20T06:34:08Z</time>
      </trkpt>
      <trkpt lat="46.250588418915868" lon="9.589551519602537">
        <ele>1442.77</ele>
        <time>2022-10-20T06:34:17Z</time>
      </trkpt>
      <trkpt lat="46.250608535483479" lon="9.589549172669649">
        <ele>1442.8900000000001</ele>
        <time>2022-10-20T06:34:19Z</time>
      </trkpt>
      <trkpt lat="46.250619683414698" lon="9.589501647278667">
        <ele>1446.48</ele>
        <time>2022-10-20T06:34:34Z</time>
      </trkpt>
      <trkpt lat="46.250684140250087" lon="9.589556297287345">
        <ele>1452.22</ele>
        <time>2022-10-20T06:34:54Z</time>
      </trkpt>
      <trkpt lat="46.250748680904508" lon="9.589631650596857">
        <ele>1455.1600000000001</ele>
        <time>2022-10-20T06:35:08Z</time>
      </trkpt>
      <trkpt lat="46.250827135518193" lon="9.589702812954783">
        <ele>1457.6800000000001</ele>
        <time>2022-10-20T06:35:24Z</time>
      </trkpt>
      <trkpt lat="46.250917995348573" lon="9.58968210965395">
        <ele>1460.51</ele>
        <time>2022-10-20T06:35:39Z</time>
      </trkpt>
      <trkpt lat="46.250933585688472" lon="9.589567529037595">
        <ele>1463.72</ele>
        <time>2022-10-20T06:35:53Z</time>
      </trkpt>
      <trkpt lat="46.250951522961259" lon="9.589488571509719">
        <ele>1466.1500000000001</ele>
        <time>2022-10-20T06:36:06Z</time>
      </trkpt>
      <trkpt lat="46.250956133008003" lon="9.589373236522079">
        <ele>1469.3199999999999</ele>
        <time>2022-10-20T06:36:22Z</time>
      </trkpt>
      <trkpt lat="46.250959150493145" lon="9.589360328391194">
        <ele>1473.0799999999999</ele>
        <time>2022-10-20T06:36:34Z</time>
      </trkpt>
      <trkpt lat="46.250948924571276" lon="9.589275419712067">
        <ele>1476.22</ele>
        <time>2022-10-20T06:36:50Z</time>
      </trkpt>
      <trkpt lat="46.25091397203505" lon="9.589240886271">
        <ele>1478.0999999999999</ele>
        <time>2022-10-20T06:37:07Z</time>
      </trkpt>
      <trkpt lat="46.250933920964599" lon="9.589166371151805">
        <ele>1480.45</ele>
        <time>2022-10-20T06:37:24Z</time>
      </trkpt>
      <trkpt lat="46.25092470087111" lon="9.589088754728437">
        <ele>1483.1300000000001</ele>
        <time>2022-10-20T06:37:41Z</time>
      </trkpt>
      <trkpt lat="46.250940458849072" lon="9.589016837999225">
        <ele>1485.95</ele>
        <time>2022-10-20T06:37:55Z</time>
      </trkpt>
      <trkpt lat="46.250983374193311" lon="9.588962104171515">
        <ele>1488.29</ele>
        <time>2022-10-20T06:38:10Z</time>
      </trkpt>
      <trkpt lat="46.250960575416684" lon="9.588931845501065">
        <ele>1491.1500000000001</ele>
        <time>2022-10-20T06:38:26Z</time>
      </trkpt>
      <trkpt lat="46.250985972583294" lon="9.588865460827947">
        <ele>1492.1500000000001</ele>
        <time>2022-10-20T06:38:40Z</time>
      </trkpt>
      <trkpt lat="46.251016734167933" lon="9.588795639574528">
        <ele>1494.8699999999999</ele>
        <time>2022-10-20T06:38:56Z</time>
      </trkpt>
      <trkpt lat="46.251066774129868" lon="9.588740821927786">
        <ele>1495.97</ele>
        <time>2022-10-20T06:39:15Z</time>
      </trkpt>
      <trkpt lat="46.25104196369648" lon="9.588688015937805">
        <ele>1499.02</ele>
        <time>2022-10-20T06:39:31Z</time>
      </trkpt>
      <trkpt lat="46.251019416376948" lon="9.588628504425287">
        <ele>1501.6400000000001</ele>
        <time>2022-10-20T06:39:47Z</time>
      </trkpt>
      <trkpt lat="46.251036850735545" lon="9.588585589081049">
        <ele>1503.6600000000001</ele>
        <time>2022-10-20T06:40:01Z</time>
      </trkpt>
      <trkpt lat="46.251062834635377" lon="9.588565388694406">
        <ele>1504.6700000000001</ele>
        <time>2022-10-20T06:40:09Z</time>
      </trkpt>
      <trkpt lat="46.251084627583623" lon="9.588454579934478">
        <ele>1507.53</ele>
        <time>2022-10-20T06:40:26Z</time>
      </trkpt>
      <trkpt lat="46.251064678654075" lon="9.588429098948836">
        <ele>1511.6700000000001</ele>
        <time>2022-10-20T06:40:41Z</time>
      </trkpt>
      <trkpt lat="46.251037772744894" lon="9.588427422568202">
        <ele>1513.79</ele>
        <time>2022-10-20T06:40:56Z</time>
      </trkpt>
      <trkpt lat="46.251016817986965" lon="9.588410742580891">
        <ele>1515.1199999999999</ele>
        <time>2022-10-20T06:41:04Z</time>
      </trkpt>
      <trkpt lat="46.250967532396317" lon="9.588335892185569">
        <ele>1517.77</ele>
        <time>2022-10-20T06:41:20Z</time>
      </trkpt>
      <trkpt lat="46.251015728339553" lon="9.588274033740163">
        <ele>1519.29</ele>
        <time>2022-10-20T06:41:38Z</time>
      </trkpt>
      <trkpt lat="46.250990834087133" lon="9.588218796998262">
        <ele>1521.78</ele>
        <time>2022-10-20T06:41:52Z</time>
      </trkpt>
      <trkpt lat="46.250968286767602" lon="9.58815224468708">
        <ele>1524.24</ele>
        <time>2022-10-20T06:42:08Z</time>
      </trkpt>
      <trkpt lat="46.250938782468438" lon="9.588081249967217">
        <ele>1525.96</ele>
        <time>2022-10-20T06:42:25Z</time>
      </trkpt>
      <trkpt lat="46.250939201563597" lon="9.588009165599942">
        <ele>1527.6600000000001</ele>
        <time>2022-10-20T06:42:40Z</time>
      </trkpt>
      <trkpt lat="46.250967280939221" lon="9.587919814512134">
        <ele>1529.1199999999999</ele>
        <time>2022-10-20T06:42:55Z</time>
      </trkpt>
      <trkpt lat="46.251013465225697" lon="9.587857369333506">
        <ele>1531.9100000000001</ele>
        <time>2022-10-20T06:43:11Z</time>
      </trkpt>
      <trkpt lat="46.2510771676898" lon="9.587775310501456">
        <ele>1532.6900000000001</ele>
        <time>2022-10-20T06:43:26Z</time>
      </trkpt>
      <trkpt lat="46.251097787171602" lon="9.58770657889545">
        <ele>1534.04</ele>
        <time>2022-10-20T06:43:40Z</time>
      </trkpt>
      <trkpt lat="46.251033917069435" lon="9.587745303288102">
        <ele>1537.6099999999999</ele>
        <time>2022-10-20T06:43:54Z</time>
      </trkpt>
      <trkpt lat="46.250975411385298" lon="9.587749410420656">
        <ele>1538.9200000000001</ele>
        <time>2022-10-20T06:44:05Z</time>
      </trkpt>
      <trkpt lat="46.250910116359591" lon="9.587739184498787">
        <ele>1541.48</ele>
        <time>2022-10-20T06:44:20Z</time>
      </trkpt>
      <trkpt lat="46.250844737514853" lon="9.587730215862393">
        <ele>1543.1600000000001</ele>
        <time>2022-10-20T06:44:33Z</time>
      </trkpt>
      <trkpt lat="46.250816574320197" lon="9.587691491469741">
        <ele>1544.51</ele>
        <time>2022-10-20T06:44:42Z</time>
      </trkpt>
      <trkpt lat="46.250720685347915" lon="9.587685959413648">
        <ele>1546.1199999999999</ele>
        <time>2022-10-20T06:44:54Z</time>
      </trkpt>
      <trkpt lat="46.250656144693494" lon="9.587652012705803">
        <ele>1547.3399999999999</ele>
        <time>2022-10-20T06:45:08Z</time>
      </trkpt>
      <trkpt lat="46.250601327046752" lon="9.587627202272415">
        <ele>1549.3800000000001</ele>
        <time>2022-10-20T06:45:22Z</time>
      </trkpt>
      <trkpt lat="46.250545922666788" lon="9.587658885866404">
        <ele>1551.1500000000001</ele>
        <time>2022-10-20T06:45:36Z</time>
      </trkpt>
      <trkpt lat="46.250474844127893" lon="9.58776474930346">
        <ele>1552.6500000000001</ele>
        <time>2022-10-20T06:45:48Z</time>
      </trkpt>
      <trkpt lat="46.250404436141253" lon="9.587824093177915">
        <ele>1554.5</ele>
        <time>2022-10-20T06:45:59Z</time>
      </trkpt>
      <trkpt lat="46.250334195792675" lon="9.587871199473739">
        <ele>1556.3199999999999</ele>
        <time>2022-10-20T06:46:10Z</time>
      </trkpt>
      <trkpt lat="46.25025624409318" lon="9.587883856147528">
        <ele>1558.5</ele>
        <time>2022-10-20T06:46:21Z</time>
      </trkpt>
      <trkpt lat="46.250185165554285" lon="9.58785854279995">
        <ele>1559.9100000000001</ele>
        <time>2022-10-20T06:46:31Z</time>
      </trkpt>
      <trkpt lat="46.250106208026409" lon="9.587793834507465">
        <ele>1561.24</ele>
        <time>2022-10-20T06:46:48Z</time>
      </trkpt>
      <trkpt lat="46.250027669593692" lon="9.587707333266735">
        <ele>1562.6900000000001</ele>
        <time>2022-10-20T06:47:06Z</time>
      </trkpt>
      <trkpt lat="46.250079637393355" lon="9.587640529498458">
        <ele>1564.25</ele>
        <time>2022-10-20T06:47:20Z</time>
      </trkpt>
      <trkpt lat="46.25014191493392" lon="9.587574480101466">
        <ele>1565.8</ele>
        <time>2022-10-20T06:47:32Z</time>
      </trkpt>
      <trkpt lat="46.250156834721565" lon="9.587544137611985">
        <ele>1567.4400000000001</ele>
        <time>2022-10-20T06:47:44Z</time>
      </trkpt>
      <trkpt lat="46.250133700668812" lon="9.587535001337528">
        <ele>1572.1700000000001</ele>
        <time>2022-10-20T06:48:00Z</time>
      </trkpt>
      <trkpt lat="46.250135377049446" lon="9.587541371583939">
        <ele>1574.5</ele>
        <time>2022-10-20T06:48:22Z</time>
      </trkpt>
      <trkpt lat="46.250126240774989" lon="9.587541958317161">
        <ele>1575.29</ele>
        <time>2022-10-20T06:48:42Z</time>
      </trkpt>
      <trkpt lat="46.250128922984004" lon="9.587529636919498">
        <ele>1577.0699999999999</ele>
        <time>2022-10-20T06:49:09Z</time>
      </trkpt>
      <trkpt lat="46.250123726204038" lon="9.587567774578929">
        <ele>1579.6700000000001</ele>
        <time>2022-10-20T06:49:47Z</time>
      </trkpt>
      <trkpt lat="46.250100173056126" lon="9.58757028914988">
        <ele>1579.79</ele>
        <time>2022-10-20T06:49:58Z</time>
      </trkpt>
      <trkpt lat="46.250107549130917" lon="9.587566433474422">
        <ele>1580.0799999999999</ele>
        <time>2022-10-20T06:50:17Z</time>
      </trkpt>
      <trkpt lat="46.250125151127577" lon="9.587493427097797">
        <ele>1580.75</ele>
        <time>2022-10-20T06:50:32Z</time>
      </trkpt>
      <trkpt lat="46.250198408961296" lon="9.58737088367343">
        <ele>1581.8699999999999</ele>
        <time>2022-10-20T06:50:49Z</time>
      </trkpt>
      <trkpt lat="46.250247359275818" lon="9.587253369390965">
        <ele>1582.97</ele>
        <time>2022-10-20T06:51:03Z</time>
      </trkpt>
      <trkpt lat="46.250264123082161" lon="9.587199054658413">
        <ele>1583.3900000000001</ele>
        <time>2022-10-20T06:51:16Z</time>
      </trkpt>
      <trkpt lat="46.250271331518888" lon="9.587128981947899">
        <ele>1584.29</ele>
        <time>2022-10-20T06:51:32Z</time>
      </trkpt>
      <trkpt lat="46.250272504985332" lon="9.587068632245064">
        <ele>1584.6199999999999</ele>
        <time>2022-10-20T06:51:43Z</time>
      </trkpt>
      <trkpt lat="46.250273259356618" lon="9.587053209543228">
        <ele>1584.6700000000001</ele>
        <time>2022-10-20T06:51:44Z</time>
      </trkpt>
      <trkpt lat="46.250274013727903" lon="9.587037116289139">
        <ele>1584.6800000000001</ele>
        <time>2022-10-20T06:51:45Z</time>
      </trkpt>
      <trkpt lat="46.250274851918221" lon="9.587021106854081">
        <ele>1584.5999999999999</ele>
        <time>2022-10-20T06:51:46Z</time>
      </trkpt>
      <trkpt lat="46.250268900766969" lon="9.587002918124199">
        <ele>1585.9300000000001</ele>
        <time>2022-10-20T06:51:57Z</time>
      </trkpt>
      <trkpt lat="46.25027627684176" lon="9.586998224258423">
        <ele>1586.95</ele>
        <time>2022-10-20T06:52:21Z</time>
      </trkpt>
      <trkpt lat="46.250287424772978" lon="9.586980873718858">
        <ele>1586.5</ele>
        <time>2022-10-20T06:52:47Z</time>
      </trkpt>
      <trkpt lat="46.250305362045765" lon="9.586937874555588">
        <ele>1586.4200000000001</ele>
        <time>2022-10-20T06:52:51Z</time>
      </trkpt>
      <trkpt lat="46.250284994021058" lon="9.586784988641739">
        <ele>1587.6099999999999</ele>
        <time>2022-10-20T06:53:05Z</time>
      </trkpt>
      <trkpt lat="46.250261357054114" lon="9.586767721921206">
        <ele>1588.28</ele>
        <time>2022-10-20T06:53:08Z</time>
      </trkpt>
      <trkpt lat="46.250239228829741" lon="9.586638640612364">
        <ele>1590.26</ele>
        <time>2022-10-20T06:53:20Z</time>
      </trkpt>
      <trkpt lat="46.250246185809374" lon="9.586530262604356">
        <ele>1590.96</ele>
        <time>2022-10-20T06:53:34Z</time>
      </trkpt>
      <trkpt lat="46.250261273235083" lon="9.586387267336249">
        <ele>1591.6400000000001</ele>
        <time>2022-10-20T06:53:50Z</time>
      </trkpt>
      <trkpt lat="46.2502621114254" lon="9.586280314251781">
        <ele>1591.6400000000001</ele>
        <time>2022-10-20T06:54:04Z</time>
      </trkpt>
      <trkpt lat="46.250235456973314" lon="9.586187191307545">
        <ele>1593.1099999999999</ele>
        <time>2022-10-20T06:54:23Z</time>
      </trkpt>
      <trkpt lat="46.250223889946938" lon="9.586065821349621">
        <ele>1594.75</ele>
        <time>2022-10-20T06:54:38Z</time>
      </trkpt>
      <trkpt lat="46.250172844156623" lon="9.585932129994035">
        <ele>1596.6800000000001</ele>
        <time>2022-10-20T06:54:57Z</time>
      </trkpt>
      <trkpt lat="46.250123558565974" lon="9.585841270163655">
        <ele>1596</ele>
        <time>2022-10-20T06:55:12Z</time>
      </trkpt>
      <trkpt lat="46.250047786161304" lon="9.58577991463244">
        <ele>1598.4400000000001</ele>
        <time>2022-10-20T06:55:29Z</time>
      </trkpt>
      <trkpt lat="46.250039236620069" lon="9.585665920749307">
        <ele>1600.4300000000001</ele>
        <time>2022-10-20T06:55:46Z</time>
      </trkpt>
      <trkpt lat="46.250029932707548" lon="9.585657538846135">
        <ele>1600.6400000000001</ele>
        <time>2022-10-20T06:55:47Z</time>
      </trkpt>
      <trkpt lat="46.250019371509552" lon="9.585599787533283">
        <ele>1602.1199999999999</ele>
        <time>2022-10-20T06:56:05Z</time>
      </trkpt>
      <trkpt lat="46.250048540532589" lon="9.585578748956323">
        <ele>1602.8599999999999</ele>
        <time>2022-10-20T06:56:11Z</time>
      </trkpt>
      <trkpt lat="46.250061113387346" lon="9.585555866360664">
        <ele>1607.1300000000001</ele>
        <time>2022-10-20T06:56:27Z</time>
      </trkpt>
      <trkpt lat="46.250085588544607" lon="9.585496690124273">
        <ele>1609.8699999999999</ele>
        <time>2022-10-20T06:56:41Z</time>
      </trkpt>
      <trkpt lat="46.250141998752952" lon="9.585420079529285">
        <ele>1612.02</ele>
        <time>2022-10-20T06:57:00Z</time>
      </trkpt>
      <trkpt lat="46.250174855813384" lon="9.585403650999069">
        <ele>1612.5799999999999</ele>
        <time>2022-10-20T06:57:04Z</time>
      </trkpt>
      <trkpt lat="46.250160103663802" lon="9.585396526381373">
        <ele>1613.73</ele>
        <time>2022-10-20T06:57:12Z</time>
      </trkpt>
      <trkpt lat="46.250184746459126" lon="9.5853225979954">
        <ele>1616.0599999999999</ele>
        <time>2022-10-20T06:57:29Z</time>
      </trkpt>
      <trkpt lat="46.250207796692848" lon="9.585234839469194">
        <ele>1618.1199999999999</ele>
        <time>2022-10-20T06:57:46Z</time>
      </trkpt>
      <trkpt lat="46.250312402844429" lon="9.585154205560684">
        <ele>1621.6800000000001</ele>
        <time>2022-10-20T06:58:03Z</time>
      </trkpt>
      <trkpt lat="46.25026018358767" lon="9.585138950496912">
        <ele>1625.5699999999999</ele>
        <time>2022-10-20T06:58:17Z</time>
      </trkpt>
      <trkpt lat="46.250190697610378" lon="9.585113469511271">
        <ele>1628.6099999999999</ele>
        <time>2022-10-20T06:58:33Z</time>
      </trkpt>
      <trkpt lat="46.250136634334922" lon="9.58508899435401">
        <ele>1630.9300000000001</ele>
        <time>2022-10-20T06:58:48Z</time>
      </trkpt>
      <trkpt lat="46.250047534704208" lon="9.585087820887566">
        <ele>1632.55</ele>
        <time>2022-10-20T06:59:02Z</time>
      </trkpt>
      <trkpt lat="46.249981904402375" lon="9.585003415122628">
        <ele>1633.78</ele>
        <time>2022-10-20T06:59:18Z</time>
      </trkpt>
      <trkpt lat="46.249975115060806" lon="9.58492529578507">
        <ele>1636.6099999999999</ele>
        <time>2022-10-20T06:59:34Z</time>
      </trkpt>
      <trkpt lat="46.250009564682841" lon="9.584840638563037">
        <ele>1638.3599999999999</ele>
        <time>2022-10-20T06:59:47Z</time>
      </trkpt>
      <trkpt lat="46.250016102567315" lon="9.584848852828145">
        <ele>1641.3599999999999</ele>
        <time>2022-10-20T07:00:02Z</time>
      </trkpt>
      <trkpt lat="46.250036051496863" lon="9.584840470924974">
        <ele>1641.71</ele>
        <time>2022-10-20T07:00:06Z</time>
      </trkpt>
      <trkpt lat="46.250058766454458" lon="9.584741983562708">
        <ele>1642.6400000000001</ele>
        <time>2022-10-20T07:00:22Z</time>
      </trkpt>
      <trkpt lat="46.25009011477232" lon="9.584632599726319">
        <ele>1644.3599999999999</ele>
        <time>2022-10-20T07:00:38Z</time>
      </trkpt>
      <trkpt lat="46.250109896063805" lon="9.58451290614903">
        <ele>1645.78</ele>
        <time>2022-10-20T07:01:00Z</time>
      </trkpt>
      <trkpt lat="46.250090030953288" lon="9.584502344951034">
        <ele>1648.54</ele>
        <time>2022-10-20T07:01:17Z</time>
      </trkpt>
      <trkpt lat="46.250061113387346" lon="9.584430009126663">
        <ele>1649.75</ele>
        <time>2022-10-20T07:01:33Z</time>
      </trkpt>
      <trkpt lat="46.249995566904545" lon="9.584316769614816">
        <ele>1651.9200000000001</ele>
        <time>2022-10-20T07:01:49Z</time>
      </trkpt>
      <trkpt lat="46.249919626861811" lon="9.584245355799794">
        <ele>1652.6700000000001</ele>
        <time>2022-10-20T07:02:01Z</time>
      </trkpt>
      <trkpt lat="46.249899677932262" lon="9.584127338603139">
        <ele>1653.49</ele>
        <time>2022-10-20T07:02:16Z</time>
      </trkpt>
      <trkpt lat="46.249927338212729" lon="9.584112921729684">
        <ele>1656.8199999999999</ele>
        <time>2022-10-20T07:02:30Z</time>
      </trkpt>
      <trkpt lat="46.24996455386281" lon="9.583990043029189">
        <ele>1660.04</ele>
        <time>2022-10-20T07:02:48Z</time>
      </trkpt>
      <trkpt lat="46.249973773956299" lon="9.583893483504653">
        <ele>1662.29</ele>
        <time>2022-10-20T07:03:01Z</time>
      </trkpt>
      <trkpt lat="46.249971929937601" lon="9.583827685564756">
        <ele>1666.5799999999999</ele>
        <time>2022-10-20T07:03:16Z</time>
      </trkpt>
      <trkpt lat="46.24992934986949" lon="9.583730371668935">
        <ele>1669.6800000000001</ele>
        <time>2022-10-20T07:03:31Z</time>
      </trkpt>
      <trkpt lat="46.24992934986949" lon="9.583627609536052">
        <ele>1671.0899999999999</ele>
        <time>2022-10-20T07:03:45Z</time>
      </trkpt>
      <trkpt lat="46.249885428696871" lon="9.583526691421866">
        <ele>1673.3599999999999</ele>
        <time>2022-10-20T07:04:00Z</time>
      </trkpt>
      <trkpt lat="46.249931780621409" lon="9.583466425538063">
        <ele>1674.25</ele>
        <time>2022-10-20T07:04:14Z</time>
      </trkpt>
      <trkpt lat="46.249927002936602" lon="9.58339735865593">
        <ele>1676.29</ele>
        <time>2022-10-20T07:04:31Z</time>
      </trkpt>
      <trkpt lat="46.249900683760643" lon="9.583275318145752">
        <ele>1679.21</ele>
        <time>2022-10-20T07:04:47Z</time>
      </trkpt>
      <trkpt lat="46.249904120340943" lon="9.583169454708695">
        <ele>1681.28</ele>
        <time>2022-10-20T07:05:01Z</time>
      </trkpt>
      <trkpt lat="46.249897163361311" lon="9.58312813192606">
        <ele>1683.48</ele>
        <time>2022-10-20T07:05:17Z</time>
      </trkpt>
      <trkpt lat="46.249908395111561" lon="9.583047665655613">
        <ele>1687.6800000000001</ele>
        <time>2022-10-20T07:05:33Z</time>
      </trkpt>
      <trkpt lat="46.249906718730927" lon="9.582948507741094">
        <ele>1690.3299999999999</ele>
        <time>2022-10-20T07:05:49Z</time>
      </trkpt>
      <trkpt lat="46.249933792278171" lon="9.582879273220897">
        <ele>1693.8699999999999</ele>
        <time>2022-10-20T07:06:03Z</time>
      </trkpt>
      <trkpt lat="46.249918453395367" lon="9.582827305421233">
        <ele>1696.46</ele>
        <time>2022-10-20T07:06:15Z</time>
      </trkpt>
      <trkpt lat="46.249902695417404" lon="9.582689423114061">
        <ele>1697.51</ele>
        <time>2022-10-20T07:06:31Z</time>
      </trkpt>
      <trkpt lat="46.249957177788019" lon="9.582607699558139">
        <ele>1698.4200000000001</ele>
        <time>2022-10-20T07:06:47Z</time>
      </trkpt>
      <trkpt lat="46.249976120889187" lon="9.582516923546791">
        <ele>1700</ele>
        <time>2022-10-20T07:07:02Z</time>
      </trkpt>
      <trkpt lat="46.249993806704879" lon="9.582408210262656">
        <ele>1701.05</ele>
        <time>2022-10-20T07:07:21Z</time>
      </trkpt>
      <trkpt lat="46.24998165294528" lon="9.582341406494379">
        <ele>1703.1600000000001</ele>
        <time>2022-10-20T07:07:37Z</time>
      </trkpt>
      <trkpt lat="46.249979138374329" lon="9.582212325185537">
        <ele>1703.49</ele>
        <time>2022-10-20T07:07:48Z</time>
      </trkpt>
      <trkpt lat="46.250023646280169" lon="9.582105036824942">
        <ele>1704.98</ele>
        <time>2022-10-20T07:08:03Z</time>
      </trkpt>
      <trkpt lat="46.250029429793358" lon="9.581919377669692">
        <ele>1705.9200000000001</ele>
        <time>2022-10-20T07:08:17Z</time>
      </trkpt>
      <trkpt lat="46.250032614916563" lon="9.581837737932801">
        <ele>1707.79</ele>
        <time>2022-10-20T07:08:29Z</time>
      </trkpt>
      <trkpt lat="46.250058934092522" lon="9.581842767074704">
        <ele>1710.6199999999999</ele>
        <time>2022-10-20T07:08:44Z</time>
      </trkpt>
      <trkpt lat="46.250090533867478" lon="9.581788117066026">
        <ele>1712.75</ele>
        <time>2022-10-20T07:08:58Z</time>
      </trkpt>
      <trkpt lat="46.250173095613718" lon="9.581769509240985">
        <ele>1713.74</ele>
        <time>2022-10-20T07:09:15Z</time>
      </trkpt>
      <trkpt lat="46.250214753672481" lon="9.581802114844322">
        <ele>1715.46</ele>
        <time>2022-10-20T07:09:31Z</time>
      </trkpt>
      <trkpt lat="46.250292621552944" lon="9.581791302189231">
        <ele>1717.0799999999999</ele>
        <time>2022-10-20T07:09:49Z</time>
      </trkpt>
      <trkpt lat="46.250368310138583" lon="9.581726426258683">
        <ele>1718.5599999999999</ele>
        <time>2022-10-20T07:10:06Z</time>
      </trkpt>
      <trkpt lat="46.250400329008698" lon="9.581679906696081">
        <ele>1719.0899999999999</ele>
        <time>2022-10-20T07:10:18Z</time>
      </trkpt>
      <trkpt lat="46.250437125563622" lon="9.581632800400257">
        <ele>1720.97</ele>
        <time>2022-10-20T07:10:32Z</time>
      </trkpt>
      <trkpt lat="46.250470317900181" lon="9.581618551164866">
        <ele>1723.01</ele>
        <time>2022-10-20T07:10:50Z</time>
      </trkpt>
      <trkpt lat="46.250507533550262" lon="9.581664651632309">
        <ele>1723.5999999999999</ele>
        <time>2022-10-20T07:11:06Z</time>
      </trkpt>
      <trkpt lat="46.250572912395" lon="9.581706142053008">
        <ele>1724.5799999999999</ele>
        <time>2022-10-20T07:11:21Z</time>
      </trkpt>
      <trkpt lat="46.25064667314291" lon="9.581708237528801">
        <ele>1725.4300000000001</ele>
        <time>2022-10-20T07:11:37Z</time>
      </trkpt>
      <trkpt lat="46.250643907114863" lon="9.581620562821627">
        <ele>1726.49</ele>
        <time>2022-10-20T07:11:54Z</time>
      </trkpt>
      <trkpt lat="46.250658826902509" lon="9.581479160115123">
        <ele>1727.5999999999999</ele>
        <time>2022-10-20T07:12:11Z</time>
      </trkpt>
      <trkpt lat="46.250678859651089" lon="9.581394586712122">
        <ele>1728.3599999999999</ele>
        <time>2022-10-20T07:12:29Z</time>
      </trkpt>
      <trkpt lat="46.250656479969621" lon="9.581269696354866">
        <ele>1729.6300000000001</ele>
        <time>2022-10-20T07:12:45Z</time>
      </trkpt>
      <trkpt lat="46.250659581273794" lon="9.581129886209965">
        <ele>1730.79</ele>
        <time>2022-10-20T07:13:00Z</time>
      </trkpt>
      <trkpt lat="46.250690929591656" lon="9.581018574535847">
        <ele>1731.8599999999999</ele>
        <time>2022-10-20T07:13:17Z</time>
      </trkpt>
      <trkpt lat="46.250727223232388" lon="9.58094741217792">
        <ele>1732.98</ele>
        <time>2022-10-20T07:13:32Z</time>
      </trkpt>
      <trkpt lat="46.250747758895159" lon="9.580875663086772">
        <ele>1734.55</ele>
        <time>2022-10-20T07:13:49Z</time>
      </trkpt>
      <trkpt lat="46.250745831057429" lon="9.580815145745874">
        <ele>1736.9000000000001</ele>
        <time>2022-10-20T07:14:02Z</time>
      </trkpt>
      <trkpt lat="46.250726468861103" lon="9.580774242058396">
        <ele>1737.71</ele>
        <time>2022-10-20T07:14:07Z</time>
      </trkpt>
      <trkpt lat="46.250673327594995" lon="9.580670138821006">
        <ele>1741.0899999999999</ele>
        <time>2022-10-20T07:14:20Z</time>
      </trkpt>
      <trkpt lat="46.250625718384981" lon="9.580583302304149">
        <ele>1744.6300000000001</ele>
        <time>2022-10-20T07:14:30Z</time>
      </trkpt>
      <trkpt lat="46.250595962628722" lon="9.580553127452731">
        <ele>1746.05</ele>
        <time>2022-10-20T07:14:34Z</time>
      </trkpt>
      <trkpt lat="46.250483561307192" lon="9.580375766381621">
        <ele>1756.76</ele>
        <time>2022-10-20T07:14:47Z</time>
      </trkpt>
      <trkpt lat="46.250441903248429" lon="9.580298149958253">
        <ele>1761.5899999999999</ele>
        <time>2022-10-20T07:14:54Z</time>
      </trkpt>
      <trkpt lat="46.250389683991671" lon="9.580233441665769">
        <ele>1766.05</ele>
        <time>2022-10-20T07:15:01Z</time>
      </trkpt>
      <trkpt lat="46.250382391735911" lon="9.580170745030046">
        <ele>1768.54</ele>
        <time>2022-10-20T07:15:14Z</time>
      </trkpt>
      <trkpt lat="46.250366466119885" lon="9.580100253224373">
        <ele>1770.4400000000001</ele>
        <time>2022-10-20T07:15:26Z</time>
      </trkpt>
      <trkpt lat="46.250333692878485" lon="9.580053566023707">
        <ele>1772.48</ele>
        <time>2022-10-20T07:15:36Z</time>
      </trkpt>
      <trkpt lat="46.250232942402363" lon="9.579982236027718">
        <ele>1774.3800000000001</ele>
        <time>2022-10-20T07:15:50Z</time>
      </trkpt>
      <trkpt lat="46.250237552449107" lon="9.579979805275798">
        <ele>1774.22</ele>
        <time>2022-10-20T07:16:09Z</time>
      </trkpt>
      <trkpt lat="46.250228080898523" lon="9.579972177743912">
        <ele>1775.8099999999999</ele>
        <time>2022-10-20T07:16:34Z</time>
      </trkpt>
      <trkpt lat="46.250213664025068" lon="9.579982403665781">
        <ele>1780.8</ele>
        <time>2022-10-20T07:17:06Z</time>
      </trkpt>
      <trkpt lat="46.250195391476154" lon="9.579926915466785">
        <ele>1781.3</ele>
        <time>2022-10-20T07:17:16Z</time>
      </trkpt>
      <trkpt lat="46.250200336799026" lon="9.57982842810452">
        <ele>1781.7</ele>
        <time>2022-10-20T07:17:25Z</time>
      </trkpt>
      <trkpt lat="46.250189607962966" lon="9.579744944348931">
        <ele>1781.79</ele>
        <time>2022-10-20T07:17:38Z</time>
      </trkpt>
      <trkpt lat="46.250179214403033" lon="9.579655593261123">
        <ele>1781.7</ele>
        <time>2022-10-20T07:17:51Z</time>
      </trkpt>
      <trkpt lat="46.250206707045436" lon="9.579568170011044">
        <ele>1783.3699999999999</ele>
        <time>2022-10-20T07:18:05Z</time>
      </trkpt>
      <trkpt lat="46.250246772542596" lon="9.57947320304811">
        <ele>1784.4400000000001</ele>
        <time>2022-10-20T07:18:19Z</time>
      </trkpt>
      <trkpt lat="46.250249203294516" lon="9.579461133107543">
        <ele>1784.8</ele>
        <time>2022-10-20T07:18:36Z</time>
      </trkpt>
      <trkpt lat="46.250267224386334" lon="9.579392820596695">
        <ele>1785.5799999999999</ele>
        <time>2022-10-20T07:18:46Z</time>
      </trkpt>
      <trkpt lat="46.250237300992012" lon="9.579328447580338">
        <ele>1787.79</ele>
        <time>2022-10-20T07:19:01Z</time>
      </trkpt>
      <trkpt lat="46.250146105885506" lon="9.579318389296532">
        <ele>1790.03</ele>
        <time>2022-10-20T07:19:13Z</time>
      </trkpt>
      <trkpt lat="46.250081649050117" lon="9.579233145341277">
        <ele>1791.49</ele>
        <time>2022-10-20T07:19:26Z</time>
      </trkpt>
      <trkpt lat="46.250015012919903" lon="9.57913851365447">
        <ele>1794.0999999999999</ele>
        <time>2022-10-20T07:19:39Z</time>
      </trkpt>
      <trkpt lat="46.250000596046448" lon="9.579128958284855">
        <ele>1794.72</ele>
        <time>2022-10-20T07:19:41Z</time>
      </trkpt>
      <trkpt lat="46.249942174181342" lon="9.579046983271837">
        <ele>1796.22</ele>
        <time>2022-10-20T07:19:52Z</time>
      </trkpt>
      <trkpt lat="46.24991225078702" lon="9.578982191160321">
        <ele>1797.6500000000001</ele>
        <time>2022-10-20T07:20:02Z</time>
      </trkpt>
      <trkpt lat="46.249864473938942" lon="9.578893762081862">
        <ele>1798.05</ele>
        <time>2022-10-20T07:20:14Z</time>
      </trkpt>
      <trkpt lat="46.249812422320247" lon="9.578774236142635">
        <ele>1799.1099999999999</ele>
        <time>2022-10-20T07:20:26Z</time>
      </trkpt>
      <trkpt lat="46.249782498925924" lon="9.578667702153325">
        <ele>1801</ele>
        <time>2022-10-20T07:20:40Z</time>
      </trkpt>
      <trkpt lat="46.249791216105223" lon="9.57859804853797">
        <ele>1802.3900000000001</ele>
        <time>2022-10-20T07:20:51Z</time>
      </trkpt>
      <trkpt lat="46.249784678220749" lon="9.578538285568357">
        <ele>1804.1400000000001</ele>
        <time>2022-10-20T07:21:01Z</time>
      </trkpt>
      <trkpt lat="46.249827677384019" lon="9.578475840389729">
        <ele>1806.1099999999999</ele>
        <time>2022-10-20T07:21:14Z</time>
      </trkpt>
      <trkpt lat="46.249844525009394" lon="9.578419597819448">
        <ele>1807.24</ele>
        <time>2022-10-20T07:21:25Z</time>
      </trkpt>
      <trkpt lat="46.249868748709559" lon="9.578357487916946">
        <ele>1809.0999999999999</ele>
        <time>2022-10-20T07:21:37Z</time>
      </trkpt>
      <trkpt lat="46.249914849177003" lon="9.57828339189291">
        <ele>1811.27</ele>
        <time>2022-10-20T07:21:50Z</time>
      </trkpt>
      <trkpt lat="46.249918872490525" lon="9.578192196786404">
        <ele>1813.54</ele>
        <time>2022-10-20T07:22:05Z</time>
      </trkpt>
      <trkpt lat="46.249944856390357" lon="9.578124554827809">
        <ele>1816.54</ele>
        <time>2022-10-20T07:22:18Z</time>
      </trkpt>
      <trkpt lat="46.249964637681842" lon="9.578062444925308">
        <ele>1818.1099999999999</ele>
        <time>2022-10-20T07:22:29Z</time>
      </trkpt>
      <trkpt lat="46.249959357082844" lon="9.577983906492591">
        <ele>1819.45</ele>
        <time>2022-10-20T07:22:40Z</time>
      </trkpt>
      <trkpt lat="46.249927924945951" lon="9.577929340302944">
        <ele>1820.26</ele>
        <time>2022-10-20T07:22:53Z</time>
      </trkpt>
      <trkpt lat="46.249904707074165" lon="9.577844850718975">
        <ele>1821.5699999999999</ele>
        <time>2022-10-20T07:23:07Z</time>
      </trkpt>
      <trkpt lat="46.249849889427423" lon="9.577832780778408">
        <ele>1824.02</ele>
        <time>2022-10-20T07:23:19Z</time>
      </trkpt>
      <trkpt lat="46.249826001003385" lon="9.577870750799775">
        <ele>1824.72</ele>
        <time>2022-10-20T07:23:24Z</time>
      </trkpt>
      <trkpt lat="46.249775206670165" lon="9.57793009467423">
        <ele>1826.0899999999999</ele>
        <time>2022-10-20T07:23:35Z</time>
      </trkpt>
      <trkpt lat="46.249715862795711" lon="9.57791836000979">
        <ele>1827.8900000000001</ele>
        <time>2022-10-20T07:23:48Z</time>
      </trkpt>
      <trkpt lat="46.249717371538281" lon="9.577860524877906">
        <ele>1829.3399999999999</ele>
        <time>2022-10-20T07:23:58Z</time>
      </trkpt>
      <trkpt lat="46.249678479507565" lon="9.577806545421481">
        <ele>1830.25</ele>
        <time>2022-10-20T07:24:09Z</time>
      </trkpt>
      <trkpt lat="46.249677389860153" lon="9.57771266810596">
        <ele>1832.55</ele>
        <time>2022-10-20T07:24:22Z</time>
      </trkpt>
      <trkpt lat="46.249671271070838" lon="9.577647540718317">
        <ele>1834.6300000000001</ele>
        <time>2022-10-20T07:24:31Z</time>
      </trkpt>
      <trkpt lat="46.249651657417417" lon="9.577574115246534">
        <ele>1835.8</ele>
        <time>2022-10-20T07:24:41Z</time>
      </trkpt>
      <trkpt lat="46.249630115926266" lon="9.577473783865571">
        <ele>1837.71</ele>
        <time>2022-10-20T07:24:54Z</time>
      </trkpt>
      <trkpt lat="46.249606562778354" lon="9.577409327030182">
        <ele>1838.9400000000001</ele>
        <time>2022-10-20T07:25:06Z</time>
      </trkpt>
      <trkpt lat="46.249613268300891" lon="9.577294746413827">
        <ele>1841.4300000000001</ele>
        <time>2022-10-20T07:25:20Z</time>
      </trkpt>
      <trkpt lat="46.249630870297551" lon="9.577200617641211">
        <ele>1844.4100000000001</ele>
        <time>2022-10-20T07:25:33Z</time>
      </trkpt>
      <trkpt lat="46.249643107876182" lon="9.577111350372434">
        <ele>1846.3099999999999</ele>
        <time>2022-10-20T07:25:46Z</time>
      </trkpt>
      <trkpt lat="46.249651741236448" lon="9.577000876888633">
        <ele>1849.0699999999999</ele>
        <time>2022-10-20T07:26:01Z</time>
      </trkpt>
      <trkpt lat="46.249639000743628" lon="9.576926697045565">
        <ele>1851.25</ele>
        <time>2022-10-20T07:26:15Z</time>
      </trkpt>
      <trkpt lat="46.249617710709572" lon="9.576853103935719">
        <ele>1852.3900000000001</ele>
        <time>2022-10-20T07:26:27Z</time>
      </trkpt>
      <trkpt lat="46.249605305492878" lon="9.57676962018013">
        <ele>1854.8699999999999</ele>
        <time>2022-10-20T07:26:40Z</time>
      </trkpt>
      <trkpt lat="46.249567754566669" lon="9.576722513884306">
        <ele>1856.22</ele>
        <time>2022-10-20T07:26:52Z</time>
      </trkpt>
      <trkpt lat="46.249522995203733" lon="9.576659146696329">
        <ele>1857.8099999999999</ele>
        <time>2022-10-20T07:27:04Z</time>
      </trkpt>
      <trkpt lat="46.249486282467842" lon="9.576595276594162">
        <ele>1859.73</ele>
        <time>2022-10-20T07:27:15Z</time>
      </trkpt>
      <trkpt lat="46.249490054324269" lon="9.576484216377139">
        <ele>1861.6600000000001</ele>
        <time>2022-10-20T07:27:29Z</time>
      </trkpt>
      <trkpt lat="46.2495022919029" lon="9.576401906087995">
        <ele>1863.1700000000001</ele>
        <time>2022-10-20T07:27:40Z</time>
      </trkpt>
      <trkpt lat="46.249475637450814" lon="9.576315823942423">
        <ele>1865.4400000000001</ele>
        <time>2022-10-20T07:27:53Z</time>
      </trkpt>
      <trkpt lat="46.249426603317261" lon="9.576246505603194">
        <ele>1867.74</ele>
        <time>2022-10-20T07:28:06Z</time>
      </trkpt>
      <trkpt lat="46.249417550861835" lon="9.576160255819559">
        <ele>1869.5799999999999</ele>
        <time>2022-10-20T07:28:19Z</time>
      </trkpt>
      <trkpt lat="46.249421574175358" lon="9.576134774833918">
        <ele>1869.73</ele>
        <time>2022-10-20T07:28:32Z</time>
      </trkpt>
      <trkpt lat="46.249430794268847" lon="9.576120274141431">
        <ele>1870.1800000000001</ele>
        <time>2022-10-20T07:28:50Z</time>
      </trkpt>
      <trkpt lat="46.24946272931993" lon="9.576048273593187">
        <ele>1873.1400000000001</ele>
        <time>2022-10-20T07:29:03Z</time>
      </trkpt>
      <trkpt lat="46.249475218355656" lon="9.575985828414559">
        <ele>1874.6300000000001</ele>
        <time>2022-10-20T07:29:14Z</time>
      </trkpt>
      <trkpt lat="46.249455688521266" lon="9.575937297195196">
        <ele>1876.4300000000001</ele>
        <time>2022-10-20T07:29:26Z</time>
      </trkpt>
      <trkpt lat="46.249444540590048" lon="9.575894717127085">
        <ele>1878.4000000000001</ele>
        <time>2022-10-20T07:29:37Z</time>
      </trkpt>
      <trkpt lat="46.249446468427777" lon="9.575885161757469">
        <ele>1878.72</ele>
        <time>2022-10-20T07:29:39Z</time>
      </trkpt>
      <trkpt lat="46.24945099465549" lon="9.575861608609557">
        <ele>1878.0899999999999</ele>
        <time>2022-10-20T07:29:47Z</time>
      </trkpt>
      <trkpt lat="46.249439679086208" lon="9.575819279998541">
        <ele>1878.8800000000001</ele>
        <time>2022-10-20T07:29:55Z</time>
      </trkpt>
      <trkpt lat="46.249435488134623" lon="9.575768820941448">
        <ele>1881.6700000000001</ele>
        <time>2022-10-20T07:30:06Z</time>
      </trkpt>
      <trkpt lat="46.249450072646141" lon="9.57573764026165">
        <ele>1882.76</ele>
        <time>2022-10-20T07:30:12Z</time>
      </trkpt>
      <trkpt lat="46.24943389557302" lon="9.575695060193539">
        <ele>1884.1700000000001</ele>
        <time>2022-10-20T07:30:22Z</time>
      </trkpt>
      <trkpt lat="46.249432889744639" lon="9.575670752674341">
        <ele>1884.22</ele>
        <time>2022-10-20T07:30:29Z</time>
      </trkpt>
      <trkpt lat="46.249395590275526" lon="9.575638566166163">
        <ele>1885.99</ele>
        <time>2022-10-20T07:30:37Z</time>
      </trkpt>
      <trkpt lat="46.249387376010418" lon="9.575591124594212">
        <ele>1887.2</ele>
        <time>2022-10-20T07:30:47Z</time>
      </trkpt>
      <trkpt lat="46.249374384060502" lon="9.575553573668003">
        <ele>1888.3</ele>
        <time>2022-10-20T07:30:56Z</time>
      </trkpt>
      <trkpt lat="46.249375808984041" lon="9.575531361624599">
        <ele>1888.75</ele>
        <time>2022-10-20T07:31:02Z</time>
      </trkpt>
      <trkpt lat="46.249368181452155" lon="9.575528260320425">
        <ele>1888.95</ele>
        <time>2022-10-20T07:31:04Z</time>
      </trkpt>
      <trkpt lat="46.249330211430788" lon="9.575484087690711">
        <ele>1890.97</ele>
        <time>2022-10-20T07:31:13Z</time>
      </trkpt>
      <trkpt lat="46.249313112348318" lon="9.575426168739796">
        <ele>1893.3099999999999</ele>
        <time>2022-10-20T07:31:23Z</time>
      </trkpt>
      <trkpt lat="46.249311938881874" lon="9.575387947261334">
        <ele>1894.1800000000001</ele>
        <time>2022-10-20T07:31:33Z</time>
      </trkpt>
      <trkpt lat="46.24930783174932" lon="9.575372524559498">
        <ele>1894.74</ele>
        <time>2022-10-20T07:31:36Z</time>
      </trkpt>
      <trkpt lat="46.249269023537636" lon="9.575311504304409">
        <ele>1896.4100000000001</ele>
        <time>2022-10-20T07:31:46Z</time>
      </trkpt>
      <trkpt lat="46.249246643856168" lon="9.575268421322107">
        <ele>1896.9400000000001</ele>
        <time>2022-10-20T07:31:57Z</time>
      </trkpt>
      <trkpt lat="46.249211188405752" lon="9.575229277834296">
        <ele>1897.74</ele>
        <time>2022-10-20T07:32:06Z</time>
      </trkpt>
      <trkpt lat="46.249176068231463" lon="9.57517228089273">
        <ele>1900.21</ele>
        <time>2022-10-20T07:32:17Z</time>
      </trkpt>
      <trkpt lat="46.249164585024118" lon="9.575134059414268">
        <ele>1902.3199999999999</ele>
        <time>2022-10-20T07:32:26Z</time>
      </trkpt>
      <trkpt lat="46.2491534370929" lon="9.575088797137141">
        <ele>1904.25</ele>
        <time>2022-10-20T07:32:35Z</time>
      </trkpt>
      <trkpt lat="46.249173721298575" lon="9.57506868056953">
        <ele>1906.05</ele>
        <time>2022-10-20T07:32:45Z</time>
      </trkpt>
      <trkpt lat="46.249140361323953" lon="9.575031129643321">
        <ele>1907.3900000000001</ele>
        <time>2022-10-20T07:32:55Z</time>
      </trkpt>
      <trkpt lat="46.249115886166692" lon="9.574982011690736">
        <ele>1908.51</ele>
        <time>2022-10-20T07:33:07Z</time>
      </trkpt>
      <trkpt lat="46.249112449586391" lon="9.574974635615945">
        <ele>1909.24</ele>
        <time>2022-10-20T07:33:19Z</time>
      </trkpt>
      <trkpt lat="46.249103732407093" lon="9.57496365532279">
        <ele>1910.5</ele>
        <time>2022-10-20T07:33:48Z</time>
      </trkpt>
      <trkpt lat="46.249104151502252" lon="9.574956027790904">
        <ele>1910.6199999999999</ele>
        <time>2022-10-20T07:34:06Z</time>
      </trkpt>
      <trkpt lat="46.249096775427461" lon="9.574947562068701">
        <ele>1911.21</ele>
        <time>2022-10-20T07:34:22Z</time>
      </trkpt>
      <trkpt lat="46.249099960550666" lon="9.574931301176548">
        <ele>1911.6700000000001</ele>
        <time>2022-10-20T07:34:39Z</time>
      </trkpt>
      <trkpt lat="46.249107252806425" lon="9.574934989213944">
        <ele>1911.3099999999999</ele>
        <time>2022-10-20T07:35:06Z</time>
      </trkpt>
      <trkpt lat="46.249109683558345" lon="9.574919817969203">
        <ele>1911.51</ele>
        <time>2022-10-20T07:35:22Z</time>
      </trkpt>
      <trkpt lat="46.249105911701918" lon="9.57492065615952">
        <ele>1911.45</ele>
        <time>2022-10-20T07:35:43Z</time>
      </trkpt>
      <trkpt lat="46.249094847589731" lon="9.574825018644333">
        <ele>1912</ele>
        <time>2022-10-20T07:35:55Z</time>
      </trkpt>
      <trkpt lat="46.249062409624457" lon="9.574723429977894">
        <ele>1913.4200000000001</ele>
        <time>2022-10-20T07:36:06Z</time>
      </trkpt>
      <trkpt lat="46.249084705486894" lon="9.574655620381236">
        <ele>1914.3299999999999</ele>
        <time>2022-10-20T07:36:18Z</time>
      </trkpt>
      <trkpt lat="46.249093674123287" lon="9.574559396132827">
        <ele>1916.1500000000001</ele>
        <time>2022-10-20T07:36:32Z</time>
      </trkpt>
      <trkpt lat="46.249089483171701" lon="9.574544560164213">
        <ele>1916.3699999999999</ele>
        <time>2022-10-20T07:36:34Z</time>
      </trkpt>
      <trkpt lat="46.249062577262521" lon="9.574437607079744">
        <ele>1918.28</ele>
        <time>2022-10-20T07:36:46Z</time>
      </trkpt>
      <trkpt lat="46.249070791527629" lon="9.574302909895778">
        <ele>1919.3099999999999</ele>
        <time>2022-10-20T07:37:02Z</time>
      </trkpt>
      <trkpt lat="46.249023685231805" lon="9.574199812486768">
        <ele>1921.2</ele>
        <time>2022-10-20T07:37:15Z</time>
      </trkpt>
      <trkpt lat="46.249005999416113" lon="9.574090261012316">
        <ele>1923.3800000000001</ele>
        <time>2022-10-20T07:37:28Z</time>
      </trkpt>
      <trkpt lat="46.249054530635476" lon="9.573964448645711">
        <ele>1926.29</ele>
        <time>2022-10-20T07:37:42Z</time>
      </trkpt>
      <trkpt lat="46.249058889225125" lon="9.57384467124939">
        <ele>1929.3800000000001</ele>
        <time>2022-10-20T07:37:54Z</time>
      </trkpt>
      <trkpt lat="46.249048244208097" lon="9.573734784498811">
        <ele>1930.02</ele>
        <time>2022-10-20T07:38:07Z</time>
      </trkpt>
      <trkpt lat="46.249029636383057" lon="9.573637470602989">
        <ele>1930.3599999999999</ele>
        <time>2022-10-20T07:38:18Z</time>
      </trkpt>
      <trkpt lat="46.248993678018451" lon="9.573509143665433">
        <ele>1931.4100000000001</ele>
        <time>2022-10-20T07:38:31Z</time>
      </trkpt>
      <trkpt lat="46.248962916433811" lon="9.573455331847072">
        <ele>1932.6900000000001</ele>
        <time>2022-10-20T07:38:42Z</time>
      </trkpt>
      <trkpt lat="46.248958557844162" lon="9.573396993800998">
        <ele>1934.05</ele>
        <time>2022-10-20T07:38:59Z</time>
      </trkpt>
      <trkpt lat="46.248960653319955" lon="9.57332625053823">
        <ele>1935.6500000000001</ele>
        <time>2022-10-20T07:39:09Z</time>
      </trkpt>
      <trkpt lat="46.248963754624128" lon="9.573235306888819">
        <ele>1937.3099999999999</ele>
        <time>2022-10-20T07:39:22Z</time>
      </trkpt>
      <trkpt lat="46.248962664976716" lon="9.573165904730558">
        <ele>1938.72</ele>
        <time>2022-10-20T07:39:33Z</time>
      </trkpt>
      <trkpt lat="46.248966185376048" lon="9.573086360469461">
        <ele>1939.5599999999999</ele>
        <time>2022-10-20T07:39:44Z</time>
      </trkpt>
      <trkpt lat="46.248966436833143" lon="9.573031375184655">
        <ele>1939.96</ele>
        <time>2022-10-20T07:39:55Z</time>
      </trkpt>
      <trkpt lat="46.248962664976716" lon="9.572982843965292">
        <ele>1940.6800000000001</ele>
        <time>2022-10-20T07:40:04Z</time>
      </trkpt>
      <trkpt lat="46.248958641663194" lon="9.572949903085828">
        <ele>1941.8599999999999</ele>
        <time>2022-10-20T07:40:17Z</time>
      </trkpt>
      <trkpt lat="46.24893014319241" lon="9.572909334674478">
        <ele>1943.52</ele>
        <time>2022-10-20T07:40:28Z</time>
      </trkpt>
      <trkpt lat="46.248933915048838" lon="9.572855774313211">
        <ele>1944.6500000000001</ele>
        <time>2022-10-20T07:40:39Z</time>
      </trkpt>
      <trkpt lat="46.248902063816786" lon="9.572780756279826">
        <ele>1947.1300000000001</ele>
        <time>2022-10-20T07:40:51Z</time>
      </trkpt>
      <trkpt lat="46.24886023811996" lon="9.572742199525237">
        <ele>1948.9100000000001</ele>
        <time>2022-10-20T07:41:00Z</time>
      </trkpt>
      <trkpt lat="46.248875074088573" lon="9.572688639163971">
        <ele>1949.9200000000001</ele>
        <time>2022-10-20T07:41:12Z</time>
      </trkpt>
      <trkpt lat="46.248874738812447" lon="9.572618147358298">
        <ele>1951.3800000000001</ele>
        <time>2022-10-20T07:41:25Z</time>
      </trkpt>
      <trkpt lat="46.248855292797089" lon="9.572556372731924">
        <ele>1953.22</ele>
        <time>2022-10-20T07:41:39Z</time>
      </trkpt>
      <trkpt lat="46.248871302232146" lon="9.572509014979005">
        <ele>1955.47</ele>
        <time>2022-10-20T07:41:50Z</time>
      </trkpt>
      <trkpt lat="46.248857975006104" lon="9.572424022480846">
        <ele>1957.8800000000001</ele>
        <time>2022-10-20T07:42:03Z</time>
      </trkpt>
      <trkpt lat="46.248829979449511" lon="9.572369875386357">
        <ele>1958.96</ele>
        <time>2022-10-20T07:42:13Z</time>
      </trkpt>
      <trkpt lat="46.248783459886909" lon="9.572296617552638">
        <ele>1960.3199999999999</ele>
        <time>2022-10-20T07:42:25Z</time>
      </trkpt>
      <trkpt lat="46.24871414154768" lon="9.572261245921254">
        <ele>1962.25</ele>
        <time>2022-10-20T07:42:36Z</time>
      </trkpt>
      <trkpt lat="46.248695617541671" lon="9.572253618389368">
        <ele>1962.4000000000001</ele>
        <time>2022-10-20T07:42:38Z</time>
      </trkpt>
      <trkpt lat="46.248583719134331" lon="9.572177678346634">
        <ele>1965.1900000000001</ele>
        <time>2022-10-20T07:42:54Z</time>
      </trkpt>
      <trkpt lat="46.24855438247323" lon="9.572081118822098">
        <ele>1967.8699999999999</ele>
        <time>2022-10-20T07:43:07Z</time>
      </trkpt>
      <trkpt lat="46.248570308089256" lon="9.571948936209083">
        <ele>1969.3800000000001</ele>
        <time>2022-10-20T07:43:20Z</time>
      </trkpt>
      <trkpt lat="46.248604422435164" lon="9.571861010044813">
        <ele>1970.5799999999999</ele>
        <time>2022-10-20T07:43:31Z</time>
      </trkpt>
      <trkpt lat="46.248600734397769" lon="9.571748357266188">
        <ele>1973.1900000000001</ele>
        <time>2022-10-20T07:43:45Z</time>
      </trkpt>
      <trkpt lat="46.248615654185414" lon="9.571640314534307">
        <ele>1977.0899999999999</ele>
        <time>2022-10-20T07:43:57Z</time>
      </trkpt>
      <trkpt lat="46.248635267838836" lon="9.571545515209436">
        <ele>1981.03</ele>
        <time>2022-10-20T07:44:09Z</time>
      </trkpt>
      <trkpt lat="46.24860467389226" lon="9.571479046717286">
        <ele>1982.3800000000001</ele>
        <time>2022-10-20T07:44:20Z</time>
      </trkpt>
      <trkpt lat="46.248608445748687" lon="9.571423977613449">
        <ele>1981.9400000000001</ele>
        <time>2022-10-20T07:44:32Z</time>
      </trkpt>
      <trkpt lat="46.248610792681575" lon="9.571391372010112">
        <ele>1982.6700000000001</ele>
        <time>2022-10-20T07:44:47Z</time>
      </trkpt>
      <trkpt lat="46.248590759932995" lon="9.571356922388077">
        <ele>1983.6400000000001</ele>
        <time>2022-10-20T07:45:12Z</time>
      </trkpt>
      <trkpt lat="46.2485387083143" lon="9.571296321228147">
        <ele>1984.72</ele>
        <time>2022-10-20T07:45:27Z</time>
      </trkpt>
      <trkpt lat="46.248513059690595" lon="9.571221387013793">
        <ele>1986.4100000000001</ele>
        <time>2022-10-20T07:45:37Z</time>
      </trkpt>
      <trkpt lat="46.248458744958043" lon="9.571142261847854">
        <ele>1988.48</ele>
        <time>2022-10-20T07:45:49Z</time>
      </trkpt>
      <trkpt lat="46.248454973101616" lon="9.571019802242518">
        <ele>1990.54</ele>
        <time>2022-10-20T07:46:04Z</time>
      </trkpt>
      <trkpt lat="46.248516580089927" lon="9.570988034829497">
        <ele>1994.73</ele>
        <time>2022-10-20T07:46:16Z</time>
      </trkpt>
      <trkpt lat="46.248587490990758" lon="9.570991136133671">
        <ele>1998.52</ele>
        <time>2022-10-20T07:46:29Z</time>
      </trkpt>
      <trkpt lat="46.248608948662877" lon="9.570955261588097">
        <ele>2000.2</ele>
        <time>2022-10-20T07:46:42Z</time>
      </trkpt>
      <trkpt lat="46.248625880107284" lon="9.570883009582758">
        <ele>2001.8900000000001</ele>
        <time>2022-10-20T07:46:54Z</time>
      </trkpt>
      <trkpt lat="46.248654378578067" lon="9.570818217471242">
        <ele>2002.79</ele>
        <time>2022-10-20T07:47:07Z</time>
      </trkpt>
      <trkpt lat="46.248725792393088" lon="9.570772284641862">
        <ele>2004.9200000000001</ele>
        <time>2022-10-20T07:47:21Z</time>
      </trkpt>
      <trkpt lat="46.248785136267543" lon="9.570729453116655">
        <ele>2006.4200000000001</ele>
        <time>2022-10-20T07:47:35Z</time>
      </trkpt>
      <trkpt lat="46.248836182057858" lon="9.570713359862566">
        <ele>2007.6500000000001</ele>
        <time>2022-10-20T07:47:49Z</time>
      </trkpt>
      <trkpt lat="46.248895358294249" lon="9.570658039301634">
        <ele>2009.3399999999999</ele>
        <time>2022-10-20T07:48:05Z</time>
      </trkpt>
      <trkpt lat="46.24893014319241" lon="9.57057673484087">
        <ele>2010.5699999999999</ele>
        <time>2022-10-20T07:48:19Z</time>
      </trkpt>
      <trkpt lat="46.248949589207768" lon="9.570503644645214">
        <ele>2013.1199999999999</ele>
        <time>2022-10-20T07:48:32Z</time>
      </trkpt>
      <trkpt lat="46.248991331085563" lon="9.570418987423182">
        <ele>2016.0599999999999</ele>
        <time>2022-10-20T07:48:49Z</time>
      </trkpt>
      <trkpt lat="46.249021841213107" lon="9.570375150069594">
        <ele>2017.52</ele>
        <time>2022-10-20T07:49:00Z</time>
      </trkpt>
      <trkpt lat="46.249051094055176" lon="9.570354614406824">
        <ele>2018.98</ele>
        <time>2022-10-20T07:49:12Z</time>
      </trkpt>
      <trkpt lat="46.249068612232804" lon="9.570299545302987">
        <ele>2019.3499999999999</ele>
        <time>2022-10-20T07:49:25Z</time>
      </trkpt>
      <trkpt lat="46.249115047976375" lon="9.57027624361217">
        <ele>2021.53</ele>
        <time>2022-10-20T07:49:38Z</time>
      </trkpt>
      <trkpt lat="46.249127117916942" lon="9.570228299126029">
        <ele>2023.52</ele>
        <time>2022-10-20T07:49:53Z</time>
      </trkpt>
      <trkpt lat="46.249147318303585" lon="9.57019317895174">
        <ele>2024.6900000000001</ele>
        <time>2022-10-20T07:50:05Z</time>
      </trkpt>
      <trkpt lat="46.249160142615438" lon="9.570116233080626">
        <ele>2027.99</ele>
        <time>2022-10-20T07:50:20Z</time>
      </trkpt>
      <trkpt lat="46.249191239476204" lon="9.570075999945402">
        <ele>2029.77</ele>
        <time>2022-10-20T07:50:31Z</time>
      </trkpt>
      <trkpt lat="46.249228622764349" lon="9.570037443190813">
        <ele>2032.3599999999999</ele>
        <time>2022-10-20T07:50:43Z</time>
      </trkpt>
      <trkpt lat="46.249261815100908" lon="9.569988492876291">
        <ele>2035.22</ele>
        <time>2022-10-20T07:50:59Z</time>
      </trkpt>
      <trkpt lat="46.249295677989721" lon="9.569948008283973">
        <ele>2036.3099999999999</ele>
        <time>2022-10-20T07:51:16Z</time>
      </trkpt>
      <trkpt lat="46.24936549924314" lon="9.569903584197164">
        <ele>2037.75</ele>
        <time>2022-10-20T07:51:29Z</time>
      </trkpt>
      <trkpt lat="46.249448144808412" lon="9.56985404714942">
        <ele>2040.03</ele>
        <time>2022-10-20T07:51:42Z</time>
      </trkpt>
      <trkpt lat="46.249499190598726" lon="9.569764696061611">
        <ele>2042.4000000000001</ele>
        <time>2022-10-20T07:51:56Z</time>
      </trkpt>
      <trkpt lat="46.249534981325269" lon="9.569693701341748">
        <ele>2044.4200000000001</ele>
        <time>2022-10-20T07:52:08Z</time>
      </trkpt>
      <trkpt lat="46.249557696282864" lon="9.569641901180148">
        <ele>2046.29</ele>
        <time>2022-10-20T07:52:19Z</time>
      </trkpt>
      <trkpt lat="46.249540178105235" lon="9.569528410211206">
        <ele>2047.8900000000001</ele>
        <time>2022-10-20T07:52:32Z</time>
      </trkpt>
      <trkpt lat="46.249520145356655" lon="9.569428246468306">
        <ele>2049.1300000000001</ele>
        <time>2022-10-20T07:52:44Z</time>
      </trkpt>
      <trkpt lat="46.249519474804401" lon="9.569342499598861">
        <ele>2051.2600000000002</ele>
        <time>2022-10-20T07:52:58Z</time>
      </trkpt>
      <trkpt lat="46.249500112608075" lon="9.569252477958798">
        <ele>2054</ele>
        <time>2022-10-20T07:53:10Z</time>
      </trkpt>
      <trkpt lat="46.249538585543633" lon="9.56916019320488">
        <ele>2057.1700000000001</ele>
        <time>2022-10-20T07:53:26Z</time>
      </trkpt>
      <trkpt lat="46.249571610242128" lon="9.569089952856302">
        <ele>2059.3400000000001</ele>
        <time>2022-10-20T07:53:40Z</time>
      </trkpt>
      <trkpt lat="46.249576639384031" lon="9.569025160744786">
        <ele>2060.46</ele>
        <time>2022-10-20T07:53:54Z</time>
      </trkpt>
      <trkpt lat="46.249612178653479" lon="9.568989872932434">
        <ele>2061.1100000000001</ele>
        <time>2022-10-20T07:54:06Z</time>
      </trkpt>
      <trkpt lat="46.249630115926266" lon="9.568946873769164">
        <ele>2062.02</ele>
        <time>2022-10-20T07:54:17Z</time>
      </trkpt>
      <trkpt lat="46.249610837548971" lon="9.568885937333107">
        <ele>2062.7199999999998</ele>
        <time>2022-10-20T07:54:31Z</time>
      </trkpt>
      <trkpt lat="46.249587619677186" lon="9.568801866844297">
        <ele>2064.4200000000001</ele>
        <time>2022-10-20T07:54:43Z</time>
      </trkpt>
      <trkpt lat="46.249575046822429" lon="9.568729028105736">
        <ele>2065.4099999999999</ele>
        <time>2022-10-20T07:54:54Z</time>
      </trkpt>
      <trkpt lat="46.249569514766335" lon="9.568649064749479">
        <ele>2066.9200000000001</ele>
        <time>2022-10-20T07:55:06Z</time>
      </trkpt>
      <trkpt lat="46.249554343521595" lon="9.568574298173189">
        <ele>2068.3299999999999</ele>
        <time>2022-10-20T07:55:16Z</time>
      </trkpt>
      <trkpt lat="46.249511847272515" lon="9.568476984277368">
        <ele>2069.9499999999998</ele>
        <time>2022-10-20T07:55:27Z</time>
      </trkpt>
      <trkpt lat="46.24954923056066" lon="9.5684355776757">
        <ele>2071.71</ele>
        <time>2022-10-20T07:55:36Z</time>
      </trkpt>
      <trkpt lat="46.249569011852145" lon="9.568377994000912">
        <ele>2072.9400000000001</ele>
        <time>2022-10-20T07:55:46Z</time>
      </trkpt>
      <trkpt lat="46.249608155339956" lon="9.568321835249662">
        <ele>2074.79</ele>
        <time>2022-10-20T07:55:59Z</time>
      </trkpt>
      <trkpt lat="46.249647717922926" lon="9.568293085321784">
        <ele>2076.71</ele>
        <time>2022-10-20T07:56:10Z</time>
      </trkpt>
      <trkpt lat="46.249679317697883" lon="9.568256121128798">
        <ele>2078.52</ele>
        <time>2022-10-20T07:56:21Z</time>
      </trkpt>
      <trkpt lat="46.249693315476179" lon="9.568209266290069">
        <ele>2079.6300000000001</ele>
        <time>2022-10-20T07:56:33Z</time>
      </trkpt>
      <trkpt lat="46.249670349061489" lon="9.568145731464028">
        <ele>2081.1199999999999</ele>
        <time>2022-10-20T07:56:47Z</time>
      </trkpt>
      <trkpt lat="46.249633301049471" lon="9.568114466965199">
        <ele>2082.3899999999999</ele>
        <time>2022-10-20T07:56:57Z</time>
      </trkpt>
      <trkpt lat="46.249596085399389" lon="9.568080771714449">
        <ele>2084.0999999999999</ele>
        <time>2022-10-20T07:57:10Z</time>
      </trkpt>
      <trkpt lat="46.249589966610074" lon="9.568014554679394">
        <ele>2085.1300000000001</ele>
        <time>2022-10-20T07:57:22Z</time>
      </trkpt>
      <trkpt lat="46.249550739303231" lon="9.567964095622301">
        <ele>2086.6500000000001</ele>
        <time>2022-10-20T07:57:33Z</time>
      </trkpt>
      <trkpt lat="46.249514780938625" lon="9.567894358187914">
        <ele>2088.6599999999999</ele>
        <time>2022-10-20T07:57:47Z</time>
      </trkpt>
      <trkpt lat="46.249483684077859" lon="9.567833673208952">
        <ele>2090.75</ele>
        <time>2022-10-20T07:57:58Z</time>
      </trkpt>
      <trkpt lat="46.24947052448988" lon="9.567730575799942">
        <ele>2093.23</ele>
        <time>2022-10-20T07:58:13Z</time>
      </trkpt>
      <trkpt lat="46.249432722106576" lon="9.567662095651031">
        <ele>2095.04</ele>
        <time>2022-10-20T07:58:26Z</time>
      </trkpt>
      <trkpt lat="46.249429285526276" lon="9.567578611895442">
        <ele>2097.4299999999998</ele>
        <time>2022-10-20T07:58:38Z</time>
      </trkpt>
      <trkpt lat="46.249421909451485" lon="9.567568050697446">
        <ele>2099.46</ele>
        <time>2022-10-20T07:58:52Z</time>
      </trkpt>
      <trkpt lat="46.249421993270516" lon="9.5675496943295">
        <ele>2100.2199999999998</ele>
        <time>2022-10-20T07:59:04Z</time>
      </trkpt>
      <trkpt lat="46.249411515891552" lon="9.567555477842689">
        <ele>2100.4099999999999</ele>
        <time>2022-10-20T07:59:20Z</time>
      </trkpt>
      <trkpt lat="46.249412102624774" lon="9.567564027383924">
        <ele>2100.3899999999999</ele>
        <time>2022-10-20T07:59:45Z</time>
      </trkpt>
      <trkpt lat="46.249402882531285" lon="9.567571571096778">
        <ele>2102.6100000000001</ele>
        <time>2022-10-20T08:00:34Z</time>
      </trkpt>
      <trkpt lat="46.249394165351987" lon="9.567543743178248">
        <ele>2104.48</ele>
        <time>2022-10-20T08:01:11Z</time>
      </trkpt>
      <trkpt lat="46.24938796274364" lon="9.567533517256379">
        <ele>2104.6700000000001</ele>
        <time>2022-10-20T08:01:52Z</time>
      </trkpt>
      <trkpt lat="46.24938796274364" lon="9.567533517256379">
        <ele>2104.6700000000001</ele>
        <time>2022-10-20T08:01:52Z</time>
      </trkpt>
      <trkpt lat="46.249394165351987" lon="9.567543743178248">
        <ele>2104.48</ele>
        <time>2022-10-20T08:01:11Z</time>
      </trkpt>
      <trkpt lat="46.249402882531285" lon="9.567571571096778">
        <ele>2102.6100000000001</ele>
        <time>2022-10-20T08:00:34Z</time>
      </trkpt>
      <trkpt lat="46.249412102624774" lon="9.567564027383924">
        <ele>2100.3899999999999</ele>
        <time>2022-10-20T07:59:45Z</time>
      </trkpt>
      <trkpt lat="46.249411515891552" lon="9.567555477842689">
        <ele>2100.4099999999999</ele>
        <time>2022-10-20T07:59:20Z</time>
      </trkpt>
      <trkpt lat="46.249421993270516" lon="9.5675496943295">
        <ele>2100.2199999999998</ele>
        <time>2022-10-20T07:59:04Z</time>
      </trkpt>
      <trkpt lat="46.249421909451485" lon="9.567568050697446">
        <ele>2099.46</ele>
        <time>2022-10-20T07:58:52Z</time>
      </trkpt>
      <trkpt lat="46.249429285526276" lon="9.567578611895442">
        <ele>2097.4299999999998</ele>
        <time>2022-10-20T07:58:38Z</time>
      </trkpt>
      <trkpt lat="46.249432722106576" lon="9.567662095651031">
        <ele>2095.04</ele>
        <time>2022-10-20T07:58:26Z</time>
      </trkpt>
      <trkpt lat="46.24947052448988" lon="9.567730575799942">
        <ele>2093.23</ele>
        <time>2022-10-20T07:58:13Z</time>
      </trkpt>
      <trkpt lat="46.249483684077859" lon="9.567833673208952">
        <ele>2090.75</ele>
        <time>2022-10-20T07:57:58Z</time>
      </trkpt>
      <trkpt lat="46.249514780938625" lon="9.567894358187914">
        <ele>2088.6599999999999</ele>
        <time>2022-10-20T07:57:47Z</time>
      </trkpt>
      <trkpt lat="46.249550739303231" lon="9.567964095622301">
        <ele>2086.6500000000001</ele>
        <time>2022-10-20T07:57:33Z</time>
      </trkpt>
      <trkpt lat="46.249589966610074" lon="9.568014554679394">
        <ele>2085.1300000000001</ele>
        <time>2022-10-20T07:57:22Z</time>
      </trkpt>
      <trkpt lat="46.249596085399389" lon="9.568080771714449">
        <ele>2084.0999999999999</ele>
        <time>2022-10-20T07:57:10Z</time>
      </trkpt>
      <trkpt lat="46.249633301049471" lon="9.568114466965199">
        <ele>2082.3899999999999</ele>
        <time>2022-10-20T07:56:57Z</time>
      </trkpt>
      <trkpt lat="46.249670349061489" lon="9.568145731464028">
        <ele>2081.1199999999999</ele>
        <time>2022-10-20T07:56:47Z</time>
      </trkpt>
      <trkpt lat="46.249693315476179" lon="9.568209266290069">
        <ele>2079.6300000000001</ele>
        <time>2022-10-20T07:56:33Z</time>
      </trkpt>
      <trkpt lat="46.249679317697883" lon="9.568256121128798">
        <ele>2078.52</ele>
        <time>2022-10-20T07:56:21Z</time>
      </trkpt>
      <trkpt lat="46.249647717922926" lon="9.568293085321784">
        <ele>2076.71</ele>
        <time>2022-10-20T07:56:10Z</time>
      </trkpt>
      <trkpt lat="46.249608155339956" lon="9.568321835249662">
        <ele>2074.79</ele>
        <time>2022-10-20T07:55:59Z</time>
      </trkpt>
      <trkpt lat="46.249569011852145" lon="9.568377994000912">
        <ele>2072.9400000000001</ele>
        <time>2022-10-20T07:55:46Z</time>
      </trkpt>
      <trkpt lat="46.24954923056066" lon="9.5684355776757">
        <ele>2071.71</ele>
        <time>2022-10-20T07:55:36Z</time>
      </trkpt>
      <trkpt lat="46.249511847272515" lon="9.568476984277368">
        <ele>2069.9499999999998</ele>
        <time>2022-10-20T07:55:27Z</time>
      </trkpt>
      <trkpt lat="46.249554343521595" lon="9.568574298173189">
        <ele>2068.3299999999999</ele>
        <time>2022-10-20T07:55:16Z</time>
      </trkpt>
      <trkpt lat="46.249569514766335" lon="9.568649064749479">
        <ele>2066.9200000000001</ele>
        <time>2022-10-20T07:55:06Z</time>
      </trkpt>
      <trkpt lat="46.249575046822429" lon="9.568729028105736">
        <ele>2065.4099999999999</ele>
        <time>2022-10-20T07:54:54Z</time>
      </trkpt>
      <trkpt lat="46.249587619677186" lon="9.568801866844297">
        <ele>2064.4200000000001</ele>
        <time>2022-10-20T07:54:43Z</time>
      </trkpt>
      <trkpt lat="46.249610837548971" lon="9.568885937333107">
        <ele>2062.7199999999998</ele>
        <time>2022-10-20T07:54:31Z</time>
      </trkpt>
      <trkpt lat="46.249630115926266" lon="9.568946873769164">
        <ele>2062.02</ele>
        <time>2022-10-20T07:54:17Z</time>
      </trkpt>
      <trkpt lat="46.249612178653479" lon="9.568989872932434">
        <ele>2061.1100000000001</ele>
        <time>2022-10-20T07:54:06Z</time>
      </trkpt>
      <trkpt lat="46.249576639384031" lon="9.569025160744786">
        <ele>2060.46</ele>
        <time>2022-10-20T07:53:54Z</time>
      </trkpt>
      <trkpt lat="46.249571610242128" lon="9.569089952856302">
        <ele>2059.3400000000001</ele>
        <time>2022-10-20T07:53:40Z</time>
      </trkpt>
      <trkpt lat="46.249538585543633" lon="9.56916019320488">
        <ele>2057.1700000000001</ele>
        <time>2022-10-20T07:53:26Z</time>
      </trkpt>
      <trkpt lat="46.249500112608075" lon="9.569252477958798">
        <ele>2054</ele>
        <time>2022-10-20T07:53:10Z</time>
      </trkpt>
      <trkpt lat="46.249519474804401" lon="9.569342499598861">
        <ele>2051.2600000000002</ele>
        <time>2022-10-20T07:52:58Z</time>
      </trkpt>
      <trkpt lat="46.249520145356655" lon="9.569428246468306">
        <ele>2049.1300000000001</ele>
        <time>2022-10-20T07:52:44Z</time>
      </trkpt>
      <trkpt lat="46.249540178105235" lon="9.569528410211206">
        <ele>2047.8900000000001</ele>
        <time>2022-10-20T07:52:32Z</time>
      </trkpt>
      <trkpt lat="46.249557696282864" lon="9.569641901180148">
        <ele>2046.29</ele>
        <time>2022-10-20T07:52:19Z</time>
      </trkpt>
      <trkpt lat="46.249534981325269" lon="9.569693701341748">
        <ele>2044.4200000000001</ele>
        <time>2022-10-20T07:52:08Z</time>
      </trkpt>
      <trkpt lat="46.249499190598726" lon="9.569764696061611">
        <ele>2042.4000000000001</ele>
        <time>2022-10-20T07:51:56Z</time>
      </trkpt>
      <trkpt lat="46.249448144808412" lon="9.56985404714942">
        <ele>2040.03</ele>
        <time>2022-10-20T07:51:42Z</time>
      </trkpt>
      <trkpt lat="46.24936549924314" lon="9.569903584197164">
        <ele>2037.75</ele>
        <time>2022-10-20T07:51:29Z</time>
      </trkpt>
      <trkpt lat="46.249295677989721" lon="9.569948008283973">
        <ele>2036.3099999999999</ele>
        <time>2022-10-20T07:51:16Z</time>
      </trkpt>
      <trkpt lat="46.249261815100908" lon="9.569988492876291">
        <ele>2035.22</ele>
        <time>2022-10-20T07:50:59Z</time>
      </trkpt>
      <trkpt lat="46.249228622764349" lon="9.570037443190813">
        <ele>2032.3599999999999</ele>
        <time>2022-10-20T07:50:43Z</time>
      </trkpt>
      <trkpt lat="46.249191239476204" lon="9.570075999945402">
        <ele>2029.77</ele>
        <time>2022-10-20T07:50:31Z</time>
      </trkpt>
      <trkpt lat="46.249160142615438" lon="9.570116233080626">
        <ele>2027.99</ele>
        <time>2022-10-20T07:50:20Z</time>
      </trkpt>
      <trkpt lat="46.249147318303585" lon="9.57019317895174">
        <ele>2024.6900000000001</ele>
        <time>2022-10-20T07:50:05Z</time>
      </trkpt>
      <trkpt lat="46.249127117916942" lon="9.570228299126029">
        <ele>2023.52</ele>
        <time>2022-10-20T07:49:53Z</time>
      </trkpt>
      <trkpt lat="46.249115047976375" lon="9.57027624361217">
        <ele>2021.53</ele>
        <time>2022-10-20T07:49:38Z</time>
      </trkpt>
      <trkpt lat="46.249068612232804" lon="9.570299545302987">
        <ele>2019.3499999999999</ele>
        <time>2022-10-20T07:49:25Z</time>
      </trkpt>
      <trkpt lat="46.249051094055176" lon="9.570354614406824">
        <ele>2018.98</ele>
        <time>2022-10-20T07:49:12Z</time>
      </trkpt>
      <trkpt lat="46.249021841213107" lon="9.570375150069594">
        <ele>2017.52</ele>
        <time>2022-10-20T07:49:00Z</time>
      </trkpt>
      <trkpt lat="46.248991331085563" lon="9.570418987423182">
        <ele>2016.0599999999999</ele>
        <time>2022-10-20T07:48:49Z</time>
      </trkpt>
      <trkpt lat="46.248949589207768" lon="9.570503644645214">
        <ele>2013.1199999999999</ele>
        <time>2022-10-20T07:48:32Z</time>
      </trkpt>
      <trkpt lat="46.24893014319241" lon="9.57057673484087">
        <ele>2010.5699999999999</ele>
        <time>2022-10-20T07:48:19Z</time>
      </trkpt>
      <trkpt lat="46.248895358294249" lon="9.570658039301634">
        <ele>2009.3399999999999</ele>
        <time>2022-10-20T07:48:05Z</time>
      </trkpt>
      <trkpt lat="46.248836182057858" lon="9.570713359862566">
        <ele>2007.6500000000001</ele>
        <time>2022-10-20T07:47:49Z</time>
      </trkpt>
      <trkpt lat="46.248785136267543" lon="9.570729453116655">
        <ele>2006.4200000000001</ele>
        <time>2022-10-20T07:47:35Z</time>
      </trkpt>
      <trkpt lat="46.248725792393088" lon="9.570772284641862">
        <ele>2004.9200000000001</ele>
        <time>2022-10-20T07:47:21Z</time>
      </trkpt>
      <trkpt lat="46.248654378578067" lon="9.570818217471242">
        <ele>2002.79</ele>
        <time>2022-10-20T07:47:07Z</time>
      </trkpt>
      <trkpt lat="46.248625880107284" lon="9.570883009582758">
        <ele>2001.8900000000001</ele>
        <time>2022-10-20T07:46:54Z</time>
      </trkpt>
      <trkpt lat="46.248608948662877" lon="9.570955261588097">
        <ele>2000.2</ele>
        <time>2022-10-20T07:46:42Z</time>
      </trkpt>
      <trkpt lat="46.248587490990758" lon="9.570991136133671">
        <ele>1998.52</ele>
        <time>2022-10-20T07:46:29Z</time>
      </trkpt>
      <trkpt lat="46.248516580089927" lon="9.570988034829497">
        <ele>1994.73</ele>
        <time>2022-10-20T07:46:16Z</time>
      </trkpt>
      <trkpt lat="46.248454973101616" lon="9.571019802242518">
        <ele>1990.54</ele>
        <time>2022-10-20T07:46:04Z</time>
      </trkpt>
      <trkpt lat="46.248458744958043" lon="9.571142261847854">
        <ele>1988.48</ele>
        <time>2022-10-20T07:45:49Z</time>
      </trkpt>
      <trkpt lat="46.248513059690595" lon="9.571221387013793">
        <ele>1986.4100000000001</ele>
        <time>2022-10-20T07:45:37Z</time>
      </trkpt>
      <trkpt lat="46.2485387083143" lon="9.571296321228147">
        <ele>1984.72</ele>
        <time>2022-10-20T07:45:27Z</time>
      </trkpt>
      <trkpt lat="46.248590759932995" lon="9.571356922388077">
        <ele>1983.6400000000001</ele>
        <time>2022-10-20T07:45:12Z</time>
      </trkpt>
      <trkpt lat="46.248610792681575" lon="9.571391372010112">
        <ele>1982.6700000000001</ele>
        <time>2022-10-20T07:44:47Z</time>
      </trkpt>
      <trkpt lat="46.248608445748687" lon="9.571423977613449">
        <ele>1981.9400000000001</ele>
        <time>2022-10-20T07:44:32Z</time>
      </trkpt>
      <trkpt lat="46.24860467389226" lon="9.571479046717286">
        <ele>1982.3800000000001</ele>
        <time>2022-10-20T07:44:20Z</time>
      </trkpt>
      <trkpt lat="46.248635267838836" lon="9.571545515209436">
        <ele>1981.03</ele>
        <time>2022-10-20T07:44:09Z</time>
      </trkpt>
      <trkpt lat="46.248615654185414" lon="9.571640314534307">
        <ele>1977.0899999999999</ele>
        <time>2022-10-20T07:43:57Z</time>
      </trkpt>
      <trkpt lat="46.248600734397769" lon="9.571748357266188">
        <ele>1973.1900000000001</ele>
        <time>2022-10-20T07:43:45Z</time>
      </trkpt>
      <trkpt lat="46.248604422435164" lon="9.571861010044813">
        <ele>1970.5799999999999</ele>
        <time>2022-10-20T07:43:31Z</time>
      </trkpt>
      <trkpt lat="46.248570308089256" lon="9.571948936209083">
        <ele>1969.3800000000001</ele>
        <time>2022-10-20T07:43:20Z</time>
      </trkpt>
      <trkpt lat="46.24855438247323" lon="9.572081118822098">
        <ele>1967.8699999999999</ele>
        <time>2022-10-20T07:43:07Z</time>
      </trkpt>
      <trkpt lat="46.248583719134331" lon="9.572177678346634">
        <ele>1965.1900000000001</ele>
        <time>2022-10-20T07:42:54Z</time>
      </trkpt>
      <trkpt lat="46.248695617541671" lon="9.572253618389368">
        <ele>1962.4000000000001</ele>
        <time>2022-10-20T07:42:38Z</time>
      </trkpt>
      <trkpt lat="46.24871414154768" lon="9.572261245921254">
        <ele>1962.25</ele>
        <time>2022-10-20T07:42:36Z</time>
      </trkpt>
      <trkpt lat="46.248783459886909" lon="9.572296617552638">
        <ele>1960.3199999999999</ele>
        <time>2022-10-20T07:42:25Z</time>
      </trkpt>
      <trkpt lat="46.248829979449511" lon="9.572369875386357">
        <ele>1958.96</ele>
        <time>2022-10-20T07:42:13Z</time>
      </trkpt>
      <trkpt lat="46.248857975006104" lon="9.572424022480846">
        <ele>1957.8800000000001</ele>
        <time>2022-10-20T07:42:03Z</time>
      </trkpt>
      <trkpt lat="46.248871302232146" lon="9.572509014979005">
        <ele>1955.47</ele>
        <time>2022-10-20T07:41:50Z</time>
      </trkpt>
      <trkpt lat="46.248855292797089" lon="9.572556372731924">
        <ele>1953.22</ele>
        <time>2022-10-20T07:41:39Z</time>
      </trkpt>
      <trkpt lat="46.248874738812447" lon="9.572618147358298">
        <ele>1951.3800000000001</ele>
        <time>2022-10-20T07:41:25Z</time>
      </trkpt>
      <trkpt lat="46.248875074088573" lon="9.572688639163971">
        <ele>1949.9200000000001</ele>
        <time>2022-10-20T07:41:12Z</time>
      </trkpt>
      <trkpt lat="46.24886023811996" lon="9.572742199525237">
        <ele>1948.9100000000001</ele>
        <time>2022-10-20T07:41:00Z</time>
      </trkpt>
      <trkpt lat="46.248902063816786" lon="9.572780756279826">
        <ele>1947.1300000000001</ele>
        <time>2022-10-20T07:40:51Z</time>
      </trkpt>
      <trkpt lat="46.248933915048838" lon="9.572855774313211">
        <ele>1944.6500000000001</ele>
        <time>2022-10-20T07:40:39Z</time>
      </trkpt>
      <trkpt lat="46.24893014319241" lon="9.572909334674478">
        <ele>1943.52</ele>
        <time>2022-10-20T07:40:28Z</time>
      </trkpt>
      <trkpt lat="46.248958641663194" lon="9.572949903085828">
        <ele>1941.8599999999999</ele>
        <time>2022-10-20T07:40:17Z</time>
      </trkpt>
      <trkpt lat="46.248962664976716" lon="9.572982843965292">
        <ele>1940.6800000000001</ele>
        <time>2022-10-20T07:40:04Z</time>
      </trkpt>
      <trkpt lat="46.248966436833143" lon="9.573031375184655">
        <ele>1939.96</ele>
        <time>2022-10-20T07:39:55Z</time>
      </trkpt>
      <trkpt lat="46.248966185376048" lon="9.573086360469461">
        <ele>1939.5599999999999</ele>
        <time>2022-10-20T07:39:44Z</time>
      </trkpt>
      <trkpt lat="46.248962664976716" lon="9.573165904730558">
        <ele>1938.72</ele>
        <time>2022-10-20T07:39:33Z</time>
      </trkpt>
      <trkpt lat="46.248963754624128" lon="9.573235306888819">
        <ele>1937.3099999999999</ele>
        <time>2022-10-20T07:39:22Z</time>
      </trkpt>
      <trkpt lat="46.248960653319955" lon="9.57332625053823">
        <ele>1935.6500000000001</ele>
        <time>2022-10-20T07:39:09Z</time>
      </trkpt>
      <trkpt lat="46.248958557844162" lon="9.573396993800998">
        <ele>1934.05</ele>
        <time>2022-10-20T07:38:59Z</time>
      </trkpt>
      <trkpt lat="46.248962916433811" lon="9.573455331847072">
        <ele>1932.6900000000001</ele>
        <time>2022-10-20T07:38:42Z</time>
      </trkpt>
      <trkpt lat="46.248993678018451" lon="9.573509143665433">
        <ele>1931.4100000000001</ele>
        <time>2022-10-20T07:38:31Z</time>
      </trkpt>
      <trkpt lat="46.249029636383057" lon="9.573637470602989">
        <ele>1930.3599999999999</ele>
        <time>2022-10-20T07:38:18Z</time>
      </trkpt>
      <trkpt lat="46.249048244208097" lon="9.573734784498811">
        <ele>1930.02</ele>
        <time>2022-10-20T07:38:07Z</time>
      </trkpt>
      <trkpt lat="46.249058889225125" lon="9.57384467124939">
        <ele>1929.3800000000001</ele>
        <time>2022-10-20T07:37:54Z</time>
      </trkpt>
      <trkpt lat="46.249054530635476" lon="9.573964448645711">
        <ele>1926.29</ele>
        <time>2022-10-20T07:37:42Z</time>
      </trkpt>
      <trkpt lat="46.249005999416113" lon="9.574090261012316">
        <ele>1923.3800000000001</ele>
        <time>2022-10-20T07:37:28Z</time>
      </trkpt>
      <trkpt lat="46.249023685231805" lon="9.574199812486768">
        <ele>1921.2</ele>
        <time>2022-10-20T07:37:15Z</time>
      </trkpt>
      <trkpt lat="46.249070791527629" lon="9.574302909895778">
        <ele>1919.3099999999999</ele>
        <time>2022-10-20T07:37:02Z</time>
      </trkpt>
      <trkpt lat="46.249062577262521" lon="9.574437607079744">
        <ele>1918.28</ele>
        <time>2022-10-20T07:36:46Z</time>
      </trkpt>
      <trkpt lat="46.249089483171701" lon="9.574544560164213">
        <ele>1916.3699999999999</ele>
        <time>2022-10-20T07:36:34Z</time>
      </trkpt>
      <trkpt lat="46.249093674123287" lon="9.574559396132827">
        <ele>1916.1500000000001</ele>
        <time>2022-10-20T07:36:32Z</time>
      </trkpt>
      <trkpt lat="46.249084705486894" lon="9.574655620381236">
        <ele>1914.3299999999999</ele>
        <time>2022-10-20T07:36:18Z</time>
      </trkpt>
      <trkpt lat="46.249062409624457" lon="9.574723429977894">
        <ele>1913.4200000000001</ele>
        <time>2022-10-20T07:36:06Z</time>
      </trkpt>
      <trkpt lat="46.249094847589731" lon="9.574825018644333">
        <ele>1912</ele>
        <time>2022-10-20T07:35:55Z</time>
      </trkpt>
      <trkpt lat="46.249105911701918" lon="9.57492065615952">
        <ele>1911.45</ele>
        <time>2022-10-20T07:35:43Z</time>
      </trkpt>
      <trkpt lat="46.249109683558345" lon="9.574919817969203">
        <ele>1911.51</ele>
        <time>2022-10-20T07:35:22Z</time>
      </trkpt>
      <trkpt lat="46.249107252806425" lon="9.574934989213944">
        <ele>1911.3099999999999</ele>
        <time>2022-10-20T07:35:06Z</time>
      </trkpt>
      <trkpt lat="46.249099960550666" lon="9.574931301176548">
        <ele>1911.6700000000001</ele>
        <time>2022-10-20T07:34:39Z</time>
      </trkpt>
      <trkpt lat="46.249096775427461" lon="9.574947562068701">
        <ele>1911.21</ele>
        <time>2022-10-20T07:34:22Z</time>
      </trkpt>
      <trkpt lat="46.249104151502252" lon="9.574956027790904">
        <ele>1910.6199999999999</ele>
        <time>2022-10-20T07:34:06Z</time>
      </trkpt>
      <trkpt lat="46.249103732407093" lon="9.57496365532279">
        <ele>1910.5</ele>
        <time>2022-10-20T07:33:48Z</time>
      </trkpt>
      <trkpt lat="46.249112449586391" lon="9.574974635615945">
        <ele>1909.24</ele>
        <time>2022-10-20T07:33:19Z</time>
      </trkpt>
      <trkpt lat="46.249115886166692" lon="9.574982011690736">
        <ele>1908.51</ele>
        <time>2022-10-20T07:33:07Z</time>
      </trkpt>
      <trkpt lat="46.249140361323953" lon="9.575031129643321">
        <ele>1907.3900000000001</ele>
        <time>2022-10-20T07:32:55Z</time>
      </trkpt>
      <trkpt lat="46.249173721298575" lon="9.57506868056953">
        <ele>1906.05</ele>
        <time>2022-10-20T07:32:45Z</time>
      </trkpt>
      <trkpt lat="46.2491534370929" lon="9.575088797137141">
        <ele>1904.25</ele>
        <time>2022-10-20T07:32:35Z</time>
      </trkpt>
      <trkpt lat="46.249164585024118" lon="9.575134059414268">
        <ele>1902.3199999999999</ele>
        <time>2022-10-20T07:32:26Z</time>
      </trkpt>
      <trkpt lat="46.249176068231463" lon="9.57517228089273">
        <ele>1900.21</ele>
        <time>2022-10-20T07:32:17Z</time>
      </trkpt>
      <trkpt lat="46.249211188405752" lon="9.575229277834296">
        <ele>1897.74</ele>
        <time>2022-10-20T07:32:06Z</time>
      </trkpt>
      <trkpt lat="46.249246643856168" lon="9.575268421322107">
        <ele>1896.9400000000001</ele>
        <time>2022-10-20T07:31:57Z</time>
      </trkpt>
      <trkpt lat="46.249269023537636" lon="9.575311504304409">
        <ele>1896.4100000000001</ele>
        <time>2022-10-20T07:31:46Z</time>
      </trkpt>
      <trkpt lat="46.24930783174932" lon="9.575372524559498">
        <ele>1894.74</ele>
        <time>2022-10-20T07:31:36Z</time>
      </trkpt>
      <trkpt lat="46.249311938881874" lon="9.575387947261334">
        <ele>1894.1800000000001</ele>
        <time>2022-10-20T07:31:33Z</time>
      </trkpt>
      <trkpt lat="46.249313112348318" lon="9.575426168739796">
        <ele>1893.3099999999999</ele>
        <time>2022-10-20T07:31:23Z</time>
      </trkpt>
      <trkpt lat="46.249330211430788" lon="9.575484087690711">
        <ele>1890.97</ele>
        <time>2022-10-20T07:31:13Z</time>
      </trkpt>
      <trkpt lat="46.249368181452155" lon="9.575528260320425">
        <ele>1888.95</ele>
        <time>2022-10-20T07:31:04Z</time>
      </trkpt>
      <trkpt lat="46.249375808984041" lon="9.575531361624599">
        <ele>1888.75</ele>
        <time>2022-10-20T07:31:02Z</time>
      </trkpt>
      <trkpt lat="46.249374384060502" lon="9.575553573668003">
        <ele>1888.3</ele>
        <time>2022-10-20T07:30:56Z</time>
      </trkpt>
      <trkpt lat="46.249387376010418" lon="9.575591124594212">
        <ele>1887.2</ele>
        <time>2022-10-20T07:30:47Z</time>
      </trkpt>
      <trkpt lat="46.249395590275526" lon="9.575638566166163">
        <ele>1885.99</ele>
        <time>2022-10-20T07:30:37Z</time>
      </trkpt>
      <trkpt lat="46.249432889744639" lon="9.575670752674341">
        <ele>1884.22</ele>
        <time>2022-10-20T07:30:29Z</time>
      </trkpt>
      <trkpt lat="46.24943389557302" lon="9.575695060193539">
        <ele>1884.1700000000001</ele>
        <time>2022-10-20T07:30:22Z</time>
      </trkpt>
      <trkpt lat="46.249450072646141" lon="9.57573764026165">
        <ele>1882.76</ele>
        <time>2022-10-20T07:30:12Z</time>
      </trkpt>
      <trkpt lat="46.249435488134623" lon="9.575768820941448">
        <ele>1881.6700000000001</ele>
        <time>2022-10-20T07:30:06Z</time>
      </trkpt>
      <trkpt lat="46.249439679086208" lon="9.575819279998541">
        <ele>1878.8800000000001</ele>
        <time>2022-10-20T07:29:55Z</time>
      </trkpt>
      <trkpt lat="46.24945099465549" lon="9.575861608609557">
        <ele>1878.0899999999999</ele>
        <time>2022-10-20T07:29:47Z</time>
      </trkpt>
      <trkpt lat="46.249446468427777" lon="9.575885161757469">
        <ele>1878.72</ele>
        <time>2022-10-20T07:29:39Z</time>
      </trkpt>
      <trkpt lat="46.249444540590048" lon="9.575894717127085">
        <ele>1878.4000000000001</ele>
        <time>2022-10-20T07:29:37Z</time>
      </trkpt>
      <trkpt lat="46.249455688521266" lon="9.575937297195196">
        <ele>1876.4300000000001</ele>
        <time>2022-10-20T07:29:26Z</time>
      </trkpt>
      <trkpt lat="46.249475218355656" lon="9.575985828414559">
        <ele>1874.6300000000001</ele>
        <time>2022-10-20T07:29:14Z</time>
      </trkpt>
      <trkpt lat="46.24946272931993" lon="9.576048273593187">
        <ele>1873.1400000000001</ele>
        <time>2022-10-20T07:29:03Z</time>
      </trkpt>
      <trkpt lat="46.249430794268847" lon="9.576120274141431">
        <ele>1870.1800000000001</ele>
        <time>2022-10-20T07:28:50Z</time>
      </trkpt>
      <trkpt lat="46.249421574175358" lon="9.576134774833918">
        <ele>1869.73</ele>
        <time>2022-10-20T07:28:32Z</time>
      </trkpt>
      <trkpt lat="46.249417550861835" lon="9.576160255819559">
        <ele>1869.5799999999999</ele>
        <time>2022-10-20T07:28:19Z</time>
      </trkpt>
      <trkpt lat="46.249426603317261" lon="9.576246505603194">
        <ele>1867.74</ele>
        <time>2022-10-20T07:28:06Z</time>
      </trkpt>
      <trkpt lat="46.249475637450814" lon="9.576315823942423">
        <ele>1865.4400000000001</ele>
        <time>2022-10-20T07:27:53Z</time>
      </trkpt>
      <trkpt lat="46.2495022919029" lon="9.576401906087995">
        <ele>1863.1700000000001</ele>
        <time>2022-10-20T07:27:40Z</time>
      </trkpt>
      <trkpt lat="46.249490054324269" lon="9.576484216377139">
        <ele>1861.6600000000001</ele>
        <time>2022-10-20T07:27:29Z</time>
      </trkpt>
      <trkpt lat="46.249486282467842" lon="9.576595276594162">
        <ele>1859.73</ele>
        <time>2022-10-20T07:27:15Z</time>
      </trkpt>
      <trkpt lat="46.249522995203733" lon="9.576659146696329">
        <ele>1857.8099999999999</ele>
        <time>2022-10-20T07:27:04Z</time>
      </trkpt>
      <trkpt lat="46.249567754566669" lon="9.576722513884306">
        <ele>1856.22</ele>
        <time>2022-10-20T07:26:52Z</time>
      </trkpt>
      <trkpt lat="46.249605305492878" lon="9.57676962018013">
        <ele>1854.8699999999999</ele>
        <time>2022-10-20T07:26:40Z</time>
      </trkpt>
      <trkpt lat="46.249617710709572" lon="9.576853103935719">
        <ele>1852.3900000000001</ele>
        <time>2022-10-20T07:26:27Z</time>
      </trkpt>
      <trkpt lat="46.249639000743628" lon="9.576926697045565">
        <ele>1851.25</ele>
        <time>2022-10-20T07:26:15Z</time>
      </trkpt>
      <trkpt lat="46.249651741236448" lon="9.577000876888633">
        <ele>1849.0699999999999</ele>
        <time>2022-10-20T07:26:01Z</time>
      </trkpt>
      <trkpt lat="46.249643107876182" lon="9.577111350372434">
        <ele>1846.3099999999999</ele>
        <time>2022-10-20T07:25:46Z</time>
      </trkpt>
      <trkpt lat="46.249630870297551" lon="9.577200617641211">
        <ele>1844.4100000000001</ele>
        <time>2022-10-20T07:25:33Z</time>
      </trkpt>
      <trkpt lat="46.249613268300891" lon="9.577294746413827">
        <ele>1841.4300000000001</ele>
        <time>2022-10-20T07:25:20Z</time>
      </trkpt>
      <trkpt lat="46.249606562778354" lon="9.577409327030182">
        <ele>1838.9400000000001</ele>
        <time>2022-10-20T07:25:06Z</time>
      </trkpt>
      <trkpt lat="46.249630115926266" lon="9.577473783865571">
        <ele>1837.71</ele>
        <time>2022-10-20T07:24:54Z</time>
      </trkpt>
      <trkpt lat="46.249651657417417" lon="9.577574115246534">
        <ele>1835.8</ele>
        <time>2022-10-20T07:24:41Z</time>
      </trkpt>
      <trkpt lat="46.249671271070838" lon="9.577647540718317">
        <ele>1834.6300000000001</ele>
        <time>2022-10-20T07:24:31Z</time>
      </trkpt>
      <trkpt lat="46.249677389860153" lon="9.57771266810596">
        <ele>1832.55</ele>
        <time>2022-10-20T07:24:22Z</time>
      </trkpt>
      <trkpt lat="46.249678479507565" lon="9.577806545421481">
        <ele>1830.25</ele>
        <time>2022-10-20T07:24:09Z</time>
      </trkpt>
      <trkpt lat="46.249717371538281" lon="9.577860524877906">
        <ele>1829.3399999999999</ele>
        <time>2022-10-20T07:23:58Z</time>
      </trkpt>
      <trkpt lat="46.249715862795711" lon="9.57791836000979">
        <ele>1827.8900000000001</ele>
        <time>2022-10-20T07:23:48Z</time>
      </trkpt>
      <trkpt lat="46.249775206670165" lon="9.57793009467423">
        <ele>1826.0899999999999</ele>
        <time>2022-10-20T07:23:35Z</time>
      </trkpt>
      <trkpt lat="46.249826001003385" lon="9.577870750799775">
        <ele>1824.72</ele>
        <time>2022-10-20T07:23:24Z</time>
      </trkpt>
      <trkpt lat="46.249849889427423" lon="9.577832780778408">
        <ele>1824.02</ele>
        <time>2022-10-20T07:23:19Z</time>
      </trkpt>
      <trkpt lat="46.249904707074165" lon="9.577844850718975">
        <ele>1821.5699999999999</ele>
        <time>2022-10-20T07:23:07Z</time>
      </trkpt>
      <trkpt lat="46.249927924945951" lon="9.577929340302944">
        <ele>1820.26</ele>
        <time>2022-10-20T07:22:53Z</time>
      </trkpt>
      <trkpt lat="46.249959357082844" lon="9.577983906492591">
        <ele>1819.45</ele>
        <time>2022-10-20T07:22:40Z</time>
      </trkpt>
      <trkpt lat="46.249964637681842" lon="9.578062444925308">
        <ele>1818.1099999999999</ele>
        <time>2022-10-20T07:22:29Z</time>
      </trkpt>
      <trkpt lat="46.249944856390357" lon="9.578124554827809">
        <ele>1816.54</ele>
        <time>2022-10-20T07:22:18Z</time>
      </trkpt>
      <trkpt lat="46.249918872490525" lon="9.578192196786404">
        <ele>1813.54</ele>
        <time>2022-10-20T07:22:05Z</time>
      </trkpt>
      <trkpt lat="46.249914849177003" lon="9.57828339189291">
        <ele>1811.27</ele>
        <time>2022-10-20T07:21:50Z</time>
      </trkpt>
      <trkpt lat="46.249868748709559" lon="9.578357487916946">
        <ele>1809.0999999999999</ele>
        <time>2022-10-20T07:21:37Z</time>
      </trkpt>
      <trkpt lat="46.249844525009394" lon="9.578419597819448">
        <ele>1807.24</ele>
        <time>2022-10-20T07:21:25Z</time>
      </trkpt>
      <trkpt lat="46.249827677384019" lon="9.578475840389729">
        <ele>1806.1099999999999</ele>
        <time>2022-10-20T07:21:14Z</time>
      </trkpt>
      <trkpt lat="46.249784678220749" lon="9.578538285568357">
        <ele>1804.1400000000001</ele>
        <time>2022-10-20T07:21:01Z</time>
      </trkpt>
      <trkpt lat="46.249791216105223" lon="9.57859804853797">
        <ele>1802.3900000000001</ele>
        <time>2022-10-20T07:20:51Z</time>
      </trkpt>
      <trkpt lat="46.249782498925924" lon="9.578667702153325">
        <ele>1801</ele>
        <time>2022-10-20T07:20:40Z</time>
      </trkpt>
      <trkpt lat="46.249812422320247" lon="9.578774236142635">
        <ele>1799.1099999999999</ele>
        <time>2022-10-20T07:20:26Z</time>
      </trkpt>
      <trkpt lat="46.249864473938942" lon="9.578893762081862">
        <ele>1798.05</ele>
        <time>2022-10-20T07:20:14Z</time>
      </trkpt>
      <trkpt lat="46.24991225078702" lon="9.578982191160321">
        <ele>1797.6500000000001</ele>
        <time>2022-10-20T07:20:02Z</time>
      </trkpt>
      <trkpt lat="46.249942174181342" lon="9.579046983271837">
        <ele>1796.22</ele>
        <time>2022-10-20T07:19:52Z</time>
      </trkpt>
      <trkpt lat="46.250000596046448" lon="9.579128958284855">
        <ele>1794.72</ele>
        <time>2022-10-20T07:19:41Z</time>
      </trkpt>
      <trkpt lat="46.250015012919903" lon="9.57913851365447">
        <ele>1794.0999999999999</ele>
        <time>2022-10-20T07:19:39Z</time>
      </trkpt>
      <trkpt lat="46.250081649050117" lon="9.579233145341277">
        <ele>1791.49</ele>
        <time>2022-10-20T07:19:26Z</time>
      </trkpt>
      <trkpt lat="46.250146105885506" lon="9.579318389296532">
        <ele>1790.03</ele>
        <time>2022-10-20T07:19:13Z</time>
      </trkpt>
      <trkpt lat="46.250237300992012" lon="9.579328447580338">
        <ele>1787.79</ele>
        <time>2022-10-20T07:19:01Z</time>
      </trkpt>
      <trkpt lat="46.250267224386334" lon="9.579392820596695">
        <ele>1785.5799999999999</ele>
        <time>2022-10-20T07:18:46Z</time>
      </trkpt>
      <trkpt lat="46.250249203294516" lon="9.579461133107543">
        <ele>1784.8</ele>
        <time>2022-10-20T07:18:36Z</time>
      </trkpt>
      <trkpt lat="46.250246772542596" lon="9.57947320304811">
        <ele>1784.4400000000001</ele>
        <time>2022-10-20T07:18:19Z</time>
      </trkpt>
      <trkpt lat="46.250206707045436" lon="9.579568170011044">
        <ele>1783.3699999999999</ele>
        <time>2022-10-20T07:18:05Z</time>
      </trkpt>
      <trkpt lat="46.250179214403033" lon="9.579655593261123">
        <ele>1781.7</ele>
        <time>2022-10-20T07:17:51Z</time>
      </trkpt>
      <trkpt lat="46.250189607962966" lon="9.579744944348931">
        <ele>1781.79</ele>
        <time>2022-10-20T07:17:38Z</time>
      </trkpt>
      <trkpt lat="46.250200336799026" lon="9.57982842810452">
        <ele>1781.7</ele>
        <time>2022-10-20T07:17:25Z</time>
      </trkpt>
      <trkpt lat="46.250195391476154" lon="9.579926915466785">
        <ele>1781.3</ele>
        <time>2022-10-20T07:17:16Z</time>
      </trkpt>
      <trkpt lat="46.250213664025068" lon="9.579982403665781">
        <ele>1780.8</ele>
        <time>2022-10-20T07:17:06Z</time>
      </trkpt>
      <trkpt lat="46.250228080898523" lon="9.579972177743912">
        <ele>1775.8099999999999</ele>
        <time>2022-10-20T07:16:34Z</time>
      </trkpt>
      <trkpt lat="46.250237552449107" lon="9.579979805275798">
        <ele>1774.22</ele>
        <time>2022-10-20T07:16:09Z</time>
      </trkpt>
      <trkpt lat="46.250232942402363" lon="9.579982236027718">
        <ele>1774.3800000000001</ele>
        <time>2022-10-20T07:15:50Z</time>
      </trkpt>
      <trkpt lat="46.250333692878485" lon="9.580053566023707">
        <ele>1772.48</ele>
        <time>2022-10-20T07:15:36Z</time>
      </trkpt>
      <trkpt lat="46.250366466119885" lon="9.580100253224373">
        <ele>1770.4400000000001</ele>
        <time>2022-10-20T07:15:26Z</time>
      </trkpt>
      <trkpt lat="46.250382391735911" lon="9.580170745030046">
        <ele>1768.54</ele>
        <time>2022-10-20T07:15:14Z</time>
      </trkpt>
      <trkpt lat="46.250389683991671" lon="9.580233441665769">
        <ele>1766.05</ele>
        <time>2022-10-20T07:15:01Z</time>
      </trkpt>
      <trkpt lat="46.250441903248429" lon="9.580298149958253">
        <ele>1761.5899999999999</ele>
        <time>2022-10-20T07:14:54Z</time>
      </trkpt>
      <trkpt lat="46.250483561307192" lon="9.580375766381621">
        <ele>1756.76</ele>
        <time>2022-10-20T07:14:47Z</time>
      </trkpt>
      <trkpt lat="46.250595962628722" lon="9.580553127452731">
        <ele>1746.05</ele>
        <time>2022-10-20T07:14:34Z</time>
      </trkpt>
      <trkpt lat="46.250625718384981" lon="9.580583302304149">
        <ele>1744.6300000000001</ele>
        <time>2022-10-20T07:14:30Z</time>
      </trkpt>
      <trkpt lat="46.250673327594995" lon="9.580670138821006">
        <ele>1741.0899999999999</ele>
        <time>2022-10-20T07:14:20Z</time>
      </trkpt>
      <trkpt lat="46.250726468861103" lon="9.580774242058396">
        <ele>1737.71</ele>
        <time>2022-10-20T07:14:07Z</time>
      </trkpt>
      <trkpt lat="46.250745831057429" lon="9.580815145745874">
        <ele>1736.9000000000001</ele>
        <time>2022-10-20T07:14:02Z</time>
      </trkpt>
      <trkpt lat="46.250747758895159" lon="9.580875663086772">
        <ele>1734.55</ele>
        <time>2022-10-20T07:13:49Z</time>
      </trkpt>
      <trkpt lat="46.250727223232388" lon="9.58094741217792">
        <ele>1732.98</ele>
        <time>2022-10-20T07:13:32Z</time>
      </trkpt>
      <trkpt lat="46.250690929591656" lon="9.581018574535847">
        <ele>1731.8599999999999</ele>
        <time>2022-10-20T07:13:17Z</time>
      </trkpt>
      <trkpt lat="46.250659581273794" lon="9.581129886209965">
        <ele>1730.79</ele>
        <time>2022-10-20T07:13:00Z</time>
      </trkpt>
      <trkpt lat="46.250656479969621" lon="9.581269696354866">
        <ele>1729.6300000000001</ele>
        <time>2022-10-20T07:12:45Z</time>
      </trkpt>
      <trkpt lat="46.250678859651089" lon="9.581394586712122">
        <ele>1728.3599999999999</ele>
        <time>2022-10-20T07:12:29Z</time>
      </trkpt>
      <trkpt lat="46.250658826902509" lon="9.581479160115123">
        <ele>1727.5999999999999</ele>
        <time>2022-10-20T07:12:11Z</time>
      </trkpt>
      <trkpt lat="46.250643907114863" lon="9.581620562821627">
        <ele>1726.49</ele>
        <time>2022-10-20T07:11:54Z</time>
      </trkpt>
      <trkpt lat="46.25064667314291" lon="9.581708237528801">
        <ele>1725.4300000000001</ele>
        <time>2022-10-20T07:11:37Z</time>
      </trkpt>
      <trkpt lat="46.250572912395" lon="9.581706142053008">
        <ele>1724.5799999999999</ele>
        <time>2022-10-20T07:11:21Z</time>
      </trkpt>
      <trkpt lat="46.250507533550262" lon="9.581664651632309">
        <ele>1723.5999999999999</ele>
        <time>2022-10-20T07:11:06Z</time>
      </trkpt>
      <trkpt lat="46.250470317900181" lon="9.581618551164866">
        <ele>1723.01</ele>
        <time>2022-10-20T07:10:50Z</time>
      </trkpt>
      <trkpt lat="46.250437125563622" lon="9.581632800400257">
        <ele>1720.97</ele>
        <time>2022-10-20T07:10:32Z</time>
      </trkpt>
      <trkpt lat="46.250400329008698" lon="9.581679906696081">
        <ele>1719.0899999999999</ele>
        <time>2022-10-20T07:10:18Z</time>
      </trkpt>
      <trkpt lat="46.250368310138583" lon="9.581726426258683">
        <ele>1718.5599999999999</ele>
        <time>2022-10-20T07:10:06Z</time>
      </trkpt>
      <trkpt lat="46.250292621552944" lon="9.581791302189231">
        <ele>1717.0799999999999</ele>
        <time>2022-10-20T07:09:49Z</time>
      </trkpt>
      <trkpt lat="46.250214753672481" lon="9.581802114844322">
        <ele>1715.46</ele>
        <time>2022-10-20T07:09:31Z</time>
      </trkpt>
      <trkpt lat="46.250173095613718" lon="9.581769509240985">
        <ele>1713.74</ele>
        <time>2022-10-20T07:09:15Z</time>
      </trkpt>
      <trkpt lat="46.250090533867478" lon="9.581788117066026">
        <ele>1712.75</ele>
        <time>2022-10-20T07:08:58Z</time>
      </trkpt>
      <trkpt lat="46.250058934092522" lon="9.581842767074704">
        <ele>1710.6199999999999</ele>
        <time>2022-10-20T07:08:44Z</time>
      </trkpt>
      <trkpt lat="46.250032614916563" lon="9.581837737932801">
        <ele>1707.79</ele>
        <time>2022-10-20T07:08:29Z</time>
      </trkpt>
      <trkpt lat="46.250029429793358" lon="9.581919377669692">
        <ele>1705.9200000000001</ele>
        <time>2022-10-20T07:08:17Z</time>
      </trkpt>
      <trkpt lat="46.250023646280169" lon="9.582105036824942">
        <ele>1704.98</ele>
        <time>2022-10-20T07:08:03Z</time>
      </trkpt>
      <trkpt lat="46.249979138374329" lon="9.582212325185537">
        <ele>1703.49</ele>
        <time>2022-10-20T07:07:48Z</time>
      </trkpt>
      <trkpt lat="46.24998165294528" lon="9.582341406494379">
        <ele>1703.1600000000001</ele>
        <time>2022-10-20T07:07:37Z</time>
      </trkpt>
      <trkpt lat="46.249993806704879" lon="9.582408210262656">
        <ele>1701.05</ele>
        <time>2022-10-20T07:07:21Z</time>
      </trkpt>
      <trkpt lat="46.249976120889187" lon="9.582516923546791">
        <ele>1700</ele>
        <time>2022-10-20T07:07:02Z</time>
      </trkpt>
      <trkpt lat="46.249957177788019" lon="9.582607699558139">
        <ele>1698.4200000000001</ele>
        <time>2022-10-20T07:06:47Z</time>
      </trkpt>
      <trkpt lat="46.249902695417404" lon="9.582689423114061">
        <ele>1697.51</ele>
        <time>2022-10-20T07:06:31Z</time>
      </trkpt>
      <trkpt lat="46.249918453395367" lon="9.582827305421233">
        <ele>1696.46</ele>
        <time>2022-10-20T07:06:15Z</time>
      </trkpt>
      <trkpt lat="46.249933792278171" lon="9.582879273220897">
        <ele>1693.8699999999999</ele>
        <time>2022-10-20T07:06:03Z</time>
      </trkpt>
      <trkpt lat="46.249906718730927" lon="9.582948507741094">
        <ele>1690.3299999999999</ele>
        <time>2022-10-20T07:05:49Z</time>
      </trkpt>
      <trkpt lat="46.249908395111561" lon="9.583047665655613">
        <ele>1687.6800000000001</ele>
        <time>2022-10-20T07:05:33Z</time>
      </trkpt>
      <trkpt lat="46.249897163361311" lon="9.58312813192606">
        <ele>1683.48</ele>
        <time>2022-10-20T07:05:17Z</time>
      </trkpt>
      <trkpt lat="46.249904120340943" lon="9.583169454708695">
        <ele>1681.28</ele>
        <time>2022-10-20T07:05:01Z</time>
      </trkpt>
      <trkpt lat="46.249900683760643" lon="9.583275318145752">
        <ele>1679.21</ele>
        <time>2022-10-20T07:04:47Z</time>
      </trkpt>
      <trkpt lat="46.249927002936602" lon="9.58339735865593">
        <ele>1676.29</ele>
        <time>2022-10-20T07:04:31Z</time>
      </trkpt>
      <trkpt lat="46.249931780621409" lon="9.583466425538063">
        <ele>1674.25</ele>
        <time>2022-10-20T07:04:14Z</time>
      </trkpt>
      <trkpt lat="46.249885428696871" lon="9.583526691421866">
        <ele>1673.3599999999999</ele>
        <time>2022-10-20T07:04:00Z</time>
      </trkpt>
      <trkpt lat="46.24992934986949" lon="9.583627609536052">
        <ele>1671.0899999999999</ele>
        <time>2022-10-20T07:03:45Z</time>
      </trkpt>
      <trkpt lat="46.24992934986949" lon="9.583730371668935">
        <ele>1669.6800000000001</ele>
        <time>2022-10-20T07:03:31Z</time>
      </trkpt>
      <trkpt lat="46.249971929937601" lon="9.583827685564756">
        <ele>1666.5799999999999</ele>
        <time>2022-10-20T07:03:16Z</time>
      </trkpt>
      <trkpt lat="46.249973773956299" lon="9.583893483504653">
        <ele>1662.29</ele>
        <time>2022-10-20T07:03:01Z</time>
      </trkpt>
      <trkpt lat="46.24996455386281" lon="9.583990043029189">
        <ele>1660.04</ele>
        <time>2022-10-20T07:02:48Z</time>
      </trkpt>
      <trkpt lat="46.249927338212729" lon="9.584112921729684">
        <ele>1656.8199999999999</ele>
        <time>2022-10-20T07:02:30Z</time>
      </trkpt>
      <trkpt lat="46.249899677932262" lon="9.584127338603139">
        <ele>1653.49</ele>
        <time>2022-10-20T07:02:16Z</time>
      </trkpt>
      <trkpt lat="46.249919626861811" lon="9.584245355799794">
        <ele>1652.6700000000001</ele>
        <time>2022-10-20T07:02:01Z</time>
      </trkpt>
      <trkpt lat="46.249995566904545" lon="9.584316769614816">
        <ele>1651.9200000000001</ele>
        <time>2022-10-20T07:01:49Z</time>
      </trkpt>
      <trkpt lat="46.250061113387346" lon="9.584430009126663">
        <ele>1649.75</ele>
        <time>2022-10-20T07:01:33Z</time>
      </trkpt>
      <trkpt lat="46.250090030953288" lon="9.584502344951034">
        <ele>1648.54</ele>
        <time>2022-10-20T07:01:17Z</time>
      </trkpt>
      <trkpt lat="46.250109896063805" lon="9.58451290614903">
        <ele>1645.78</ele>
        <time>2022-10-20T07:01:00Z</time>
      </trkpt>
      <trkpt lat="46.25009011477232" lon="9.584632599726319">
        <ele>1644.3599999999999</ele>
        <time>2022-10-20T07:00:38Z</time>
      </trkpt>
      <trkpt lat="46.250058766454458" lon="9.584741983562708">
        <ele>1642.6400000000001</ele>
        <time>2022-10-20T07:00:22Z</time>
      </trkpt>
      <trkpt lat="46.250036051496863" lon="9.584840470924974">
        <ele>1641.71</ele>
        <time>2022-10-20T07:00:06Z</time>
      </trkpt>
      <trkpt lat="46.250016102567315" lon="9.584848852828145">
        <ele>1641.3599999999999</ele>
        <time>2022-10-20T07:00:02Z</time>
      </trkpt>
      <trkpt lat="46.250009564682841" lon="9.584840638563037">
        <ele>1638.3599999999999</ele>
        <time>2022-10-20T06:59:47Z</time>
      </trkpt>
      <trkpt lat="46.249975115060806" lon="9.58492529578507">
        <ele>1636.6099999999999</ele>
        <time>2022-10-20T06:59:34Z</time>
      </trkpt>
      <trkpt lat="46.249981904402375" lon="9.585003415122628">
        <ele>1633.78</ele>
        <time>2022-10-20T06:59:18Z</time>
      </trkpt>
      <trkpt lat="46.250047534704208" lon="9.585087820887566">
        <ele>1632.55</ele>
        <time>2022-10-20T06:59:02Z</time>
      </trkpt>
      <trkpt lat="46.250136634334922" lon="9.58508899435401">
        <ele>1630.9300000000001</ele>
        <time>2022-10-20T06:58:48Z</time>
      </trkpt>
      <trkpt lat="46.250190697610378" lon="9.585113469511271">
        <ele>1628.6099999999999</ele>
        <time>2022-10-20T06:58:33Z</time>
      </trkpt>
      <trkpt lat="46.25026018358767" lon="9.585138950496912">
        <ele>1625.5699999999999</ele>
        <time>2022-10-20T06:58:17Z</time>
      </trkpt>
      <trkpt lat="46.250312402844429" lon="9.585154205560684">
        <ele>1621.6800000000001</ele>
        <time>2022-10-20T06:58:03Z</time>
      </trkpt>
      <trkpt lat="46.250207796692848" lon="9.585234839469194">
        <ele>1618.1199999999999</ele>
        <time>2022-10-20T06:57:46Z</time>
      </trkpt>
      <trkpt lat="46.250184746459126" lon="9.5853225979954">
        <ele>1616.0599999999999</ele>
        <time>2022-10-20T06:57:29Z</time>
      </trkpt>
      <trkpt lat="46.250160103663802" lon="9.585396526381373">
        <ele>1613.73</ele>
        <time>2022-10-20T06:57:12Z</time>
      </trkpt>
      <trkpt lat="46.250174855813384" lon="9.585403650999069">
        <ele>1612.5799999999999</ele>
        <time>2022-10-20T06:57:04Z</time>
      </trkpt>
      <trkpt lat="46.250141998752952" lon="9.585420079529285">
        <ele>1612.02</ele>
        <time>2022-10-20T06:57:00Z</time>
      </trkpt>
      <trkpt lat="46.250085588544607" lon="9.585496690124273">
        <ele>1609.8699999999999</ele>
        <time>2022-10-20T06:56:41Z</time>
      </trkpt>
      <trkpt lat="46.250061113387346" lon="9.585555866360664">
        <ele>1607.1300000000001</ele>
        <time>2022-10-20T06:56:27Z</time>
      </trkpt>
      <trkpt lat="46.250048540532589" lon="9.585578748956323">
        <ele>1602.8599999999999</ele>
        <time>2022-10-20T06:56:11Z</time>
      </trkpt>
      <trkpt lat="46.250019371509552" lon="9.585599787533283">
        <ele>1602.1199999999999</ele>
        <time>2022-10-20T06:56:05Z</time>
      </trkpt>
      <trkpt lat="46.250029932707548" lon="9.585657538846135">
        <ele>1600.6400000000001</ele>
        <time>2022-10-20T06:55:47Z</time>
      </trkpt>
      <trkpt lat="46.250039236620069" lon="9.585665920749307">
        <ele>1600.4300000000001</ele>
        <time>2022-10-20T06:55:46Z</time>
      </trkpt>
      <trkpt lat="46.250047786161304" lon="9.58577991463244">
        <ele>1598.4400000000001</ele>
        <time>2022-10-20T06:55:29Z</time>
      </trkpt>
      <trkpt lat="46.250123558565974" lon="9.585841270163655">
        <ele>1596</ele>
        <time>2022-10-20T06:55:12Z</time>
      </trkpt>
      <trkpt lat="46.250172844156623" lon="9.585932129994035">
        <ele>1596.6800000000001</ele>
        <time>2022-10-20T06:54:57Z</time>
      </trkpt>
      <trkpt lat="46.250223889946938" lon="9.586065821349621">
        <ele>1594.75</ele>
        <time>2022-10-20T06:54:38Z</time>
      </trkpt>
      <trkpt lat="46.250235456973314" lon="9.586187191307545">
        <ele>1593.1099999999999</ele>
        <time>2022-10-20T06:54:23Z</time>
      </trkpt>
      <trkpt lat="46.2502621114254" lon="9.586280314251781">
        <ele>1591.6400000000001</ele>
        <time>2022-10-20T06:54:04Z</time>
      </trkpt>
      <trkpt lat="46.250261273235083" lon="9.586387267336249">
        <ele>1591.6400000000001</ele>
        <time>2022-10-20T06:53:50Z</time>
      </trkpt>
      <trkpt lat="46.250246185809374" lon="9.586530262604356">
        <ele>1590.96</ele>
        <time>2022-10-20T06:53:34Z</time>
      </trkpt>
      <trkpt lat="46.250239228829741" lon="9.586638640612364">
        <ele>1590.26</ele>
        <time>2022-10-20T06:53:20Z</time>
      </trkpt>
      <trkpt lat="46.250261357054114" lon="9.586767721921206">
        <ele>1588.28</ele>
        <time>2022-10-20T06:53:08Z</time>
      </trkpt>
      <trkpt lat="46.250284994021058" lon="9.586784988641739">
        <ele>1587.6099999999999</ele>
        <time>2022-10-20T06:53:05Z</time>
      </trkpt>
      <trkpt lat="46.250305362045765" lon="9.586937874555588">
        <ele>1586.4200000000001</ele>
        <time>2022-10-20T06:52:51Z</time>
      </trkpt>
      <trkpt lat="46.250287424772978" lon="9.586980873718858">
        <ele>1586.5</ele>
        <time>2022-10-20T06:52:47Z</time>
      </trkpt>
      <trkpt lat="46.25027627684176" lon="9.586998224258423">
        <ele>1586.95</ele>
        <time>2022-10-20T06:52:21Z</time>
      </trkpt>
      <trkpt lat="46.250268900766969" lon="9.587002918124199">
        <ele>1585.9300000000001</ele>
        <time>2022-10-20T06:51:57Z</time>
      </trkpt>
      <trkpt lat="46.250274851918221" lon="9.587021106854081">
        <ele>1584.5999999999999</ele>
        <time>2022-10-20T06:51:46Z</time>
      </trkpt>
      <trkpt lat="46.250274013727903" lon="9.587037116289139">
        <ele>1584.6800000000001</ele>
        <time>2022-10-20T06:51:45Z</time>
      </trkpt>
      <trkpt lat="46.250273259356618" lon="9.587053209543228">
        <ele>1584.6700000000001</ele>
        <time>2022-10-20T06:51:44Z</time>
      </trkpt>
      <trkpt lat="46.250272504985332" lon="9.587068632245064">
        <ele>1584.6199999999999</ele>
        <time>2022-10-20T06:51:43Z</time>
      </trkpt>
      <trkpt lat="46.250271331518888" lon="9.587128981947899">
        <ele>1584.29</ele>
        <time>2022-10-20T06:51:32Z</time>
      </trkpt>
      <trkpt lat="46.250264123082161" lon="9.587199054658413">
        <ele>1583.3900000000001</ele>
        <time>2022-10-20T06:51:16Z</time>
      </trkpt>
      <trkpt lat="46.250247359275818" lon="9.587253369390965">
        <ele>1582.97</ele>
        <time>2022-10-20T06:51:03Z</time>
      </trkpt>
      <trkpt lat="46.250198408961296" lon="9.58737088367343">
        <ele>1581.8699999999999</ele>
        <time>2022-10-20T06:50:49Z</time>
      </trkpt>
      <trkpt lat="46.250125151127577" lon="9.587493427097797">
        <ele>1580.75</ele>
        <time>2022-10-20T06:50:32Z</time>
      </trkpt>
      <trkpt lat="46.250107549130917" lon="9.587566433474422">
        <ele>1580.0799999999999</ele>
        <time>2022-10-20T06:50:17Z</time>
      </trkpt>
      <trkpt lat="46.250100173056126" lon="9.58757028914988">
        <ele>1579.79</ele>
        <time>2022-10-20T06:49:58Z</time>
      </trkpt>
      <trkpt lat="46.250123726204038" lon="9.587567774578929">
        <ele>1579.6700000000001</ele>
        <time>2022-10-20T06:49:47Z</time>
      </trkpt>
      <trkpt lat="46.250128922984004" lon="9.587529636919498">
        <ele>1577.0699999999999</ele>
        <time>2022-10-20T06:49:09Z</time>
      </trkpt>
      <trkpt lat="46.250126240774989" lon="9.587541958317161">
        <ele>1575.29</ele>
        <time>2022-10-20T06:48:42Z</time>
      </trkpt>
      <trkpt lat="46.250135377049446" lon="9.587541371583939">
        <ele>1574.5</ele>
        <time>2022-10-20T06:48:22Z</time>
      </trkpt>
      <trkpt lat="46.250133700668812" lon="9.587535001337528">
        <ele>1572.1700000000001</ele>
        <time>2022-10-20T06:48:00Z</time>
      </trkpt>
      <trkpt lat="46.250156834721565" lon="9.587544137611985">
        <ele>1567.4400000000001</ele>
        <time>2022-10-20T06:47:44Z</time>
      </trkpt>
      <trkpt lat="46.25014191493392" lon="9.587574480101466">
        <ele>1565.8</ele>
        <time>2022-10-20T06:47:32Z</time>
      </trkpt>
      <trkpt lat="46.250079637393355" lon="9.587640529498458">
        <ele>1564.25</ele>
        <time>2022-10-20T06:47:20Z</time>
      </trkpt>
      <trkpt lat="46.250027669593692" lon="9.587707333266735">
        <ele>1562.6900000000001</ele>
        <time>2022-10-20T06:47:06Z</time>
      </trkpt>
      <trkpt lat="46.250106208026409" lon="9.587793834507465">
        <ele>1561.24</ele>
        <time>2022-10-20T06:46:48Z</time>
      </trkpt>
      <trkpt lat="46.250185165554285" lon="9.58785854279995">
        <ele>1559.9100000000001</ele>
        <time>2022-10-20T06:46:31Z</time>
      </trkpt>
      <trkpt lat="46.25025624409318" lon="9.587883856147528">
        <ele>1558.5</ele>
        <time>2022-10-20T06:46:21Z</time>
      </trkpt>
      <trkpt lat="46.250334195792675" lon="9.587871199473739">
        <ele>1556.3199999999999</ele>
        <time>2022-10-20T06:46:10Z</time>
      </trkpt>
      <trkpt lat="46.250404436141253" lon="9.587824093177915">
        <ele>1554.5</ele>
        <time>2022-10-20T06:45:59Z</time>
      </trkpt>
      <trkpt lat="46.250474844127893" lon="9.58776474930346">
        <ele>1552.6500000000001</ele>
        <time>2022-10-20T06:45:48Z</time>
      </trkpt>
      <trkpt lat="46.250545922666788" lon="9.587658885866404">
        <ele>1551.1500000000001</ele>
        <time>2022-10-20T06:45:36Z</time>
      </trkpt>
      <trkpt lat="46.250601327046752" lon="9.587627202272415">
        <ele>1549.3800000000001</ele>
        <time>2022-10-20T06:45:22Z</time>
      </trkpt>
      <trkpt lat="46.250656144693494" lon="9.587652012705803">
        <ele>1547.3399999999999</ele>
        <time>2022-10-20T06:45:08Z</time>
      </trkpt>
      <trkpt lat="46.250720685347915" lon="9.587685959413648">
        <ele>1546.1199999999999</ele>
        <time>2022-10-20T06:44:54Z</time>
      </trkpt>
      <trkpt lat="46.250816574320197" lon="9.587691491469741">
        <ele>1544.51</ele>
        <time>2022-10-20T06:44:42Z</time>
      </trkpt>
      <trkpt lat="46.250844737514853" lon="9.587730215862393">
        <ele>1543.1600000000001</ele>
        <time>2022-10-20T06:44:33Z</time>
      </trkpt>
      <trkpt lat="46.250910116359591" lon="9.587739184498787">
        <ele>1541.48</ele>
        <time>2022-10-20T06:44:20Z</time>
      </trkpt>
      <trkpt lat="46.250975411385298" lon="9.587749410420656">
        <ele>1538.9200000000001</ele>
        <time>2022-10-20T06:44:05Z</time>
      </trkpt>
      <trkpt lat="46.251033917069435" lon="9.587745303288102">
        <ele>1537.6099999999999</ele>
        <time>2022-10-20T06:43:54Z</time>
      </trkpt>
      <trkpt lat="46.251097787171602" lon="9.58770657889545">
        <ele>1534.04</ele>
        <time>2022-10-20T06:43:40Z</time>
      </trkpt>
      <trkpt lat="46.2510771676898" lon="9.587775310501456">
        <ele>1532.6900000000001</ele>
        <time>2022-10-20T06:43:26Z</time>
      </trkpt>
      <trkpt lat="46.251013465225697" lon="9.587857369333506">
        <ele>1531.9100000000001</ele>
        <time>2022-10-20T06:43:11Z</time>
      </trkpt>
      <trkpt lat="46.250967280939221" lon="9.587919814512134">
        <ele>1529.1199999999999</ele>
        <time>2022-10-20T06:42:55Z</time>
      </trkpt>
      <trkpt lat="46.250939201563597" lon="9.588009165599942">
        <ele>1527.6600000000001</ele>
        <time>2022-10-20T06:42:40Z</time>
      </trkpt>
      <trkpt lat="46.250938782468438" lon="9.588081249967217">
        <ele>1525.96</ele>
        <time>2022-10-20T06:42:25Z</time>
      </trkpt>
      <trkpt lat="46.250968286767602" lon="9.58815224468708">
        <ele>1524.24</ele>
        <time>2022-10-20T06:42:08Z</time>
      </trkpt>
      <trkpt lat="46.250990834087133" lon="9.588218796998262">
        <ele>1521.78</ele>
        <time>2022-10-20T06:41:52Z</time>
      </trkpt>
      <trkpt lat="46.251015728339553" lon="9.588274033740163">
        <ele>1519.29</ele>
        <time>2022-10-20T06:41:38Z</time>
      </trkpt>
      <trkpt lat="46.250967532396317" lon="9.588335892185569">
        <ele>1517.77</ele>
        <time>2022-10-20T06:41:20Z</time>
      </trkpt>
      <trkpt lat="46.251016817986965" lon="9.588410742580891">
        <ele>1515.1199999999999</ele>
        <time>2022-10-20T06:41:04Z</time>
      </trkpt>
      <trkpt lat="46.251037772744894" lon="9.588427422568202">
        <ele>1513.79</ele>
        <time>2022-10-20T06:40:56Z</time>
      </trkpt>
      <trkpt lat="46.251064678654075" lon="9.588429098948836">
        <ele>1511.6700000000001</ele>
        <time>2022-10-20T06:40:41Z</time>
      </trkpt>
      <trkpt lat="46.251084627583623" lon="9.588454579934478">
        <ele>1507.53</ele>
        <time>2022-10-20T06:40:26Z</time>
      </trkpt>
      <trkpt lat="46.251062834635377" lon="9.588565388694406">
        <ele>1504.6700000000001</ele>
        <time>2022-10-20T06:40:09Z</time>
      </trkpt>
      <trkpt lat="46.251036850735545" lon="9.588585589081049">
        <ele>1503.6600000000001</ele>
        <time>2022-10-20T06:40:01Z</time>
      </trkpt>
      <trkpt lat="46.251019416376948" lon="9.588628504425287">
        <ele>1501.6400000000001</ele>
        <time>2022-10-20T06:39:47Z</time>
      </trkpt>
      <trkpt lat="46.25104196369648" lon="9.588688015937805">
        <ele>1499.02</ele>
        <time>2022-10-20T06:39:31Z</time>
      </trkpt>
      <trkpt lat="46.251066774129868" lon="9.588740821927786">
        <ele>1495.97</ele>
        <time>2022-10-20T06:39:15Z</time>
      </trkpt>
      <trkpt lat="46.251016734167933" lon="9.588795639574528">
        <ele>1494.8699999999999</ele>
        <time>2022-10-20T06:38:56Z</time>
      </trkpt>
      <trkpt lat="46.250985972583294" lon="9.588865460827947">
        <ele>1492.1500000000001</ele>
        <time>2022-10-20T06:38:40Z</time>
      </trkpt>
      <trkpt lat="46.250960575416684" lon="9.588931845501065">
        <ele>1491.1500000000001</ele>
        <time>2022-10-20T06:38:26Z</time>
      </trkpt>
      <trkpt lat="46.250983374193311" lon="9.588962104171515">
        <ele>1488.29</ele>
        <time>2022-10-20T06:38:10Z</time>
      </trkpt>
      <trkpt lat="46.250940458849072" lon="9.589016837999225">
        <ele>1485.95</ele>
        <time>2022-10-20T06:37:55Z</time>
      </trkpt>
      <trkpt lat="46.25092470087111" lon="9.589088754728437">
        <ele>1483.1300000000001</ele>
        <time>2022-10-20T06:37:41Z</time>
      </trkpt>
      <trkpt lat="46.250933920964599" lon="9.589166371151805">
        <ele>1480.45</ele>
        <time>2022-10-20T06:37:24Z</time>
      </trkpt>
      <trkpt lat="46.25091397203505" lon="9.589240886271">
        <ele>1478.0999999999999</ele>
        <time>2022-10-20T06:37:07Z</time>
      </trkpt>
      <trkpt lat="46.250948924571276" lon="9.589275419712067">
        <ele>1476.22</ele>
        <time>2022-10-20T06:36:50Z</time>
      </trkpt>
      <trkpt lat="46.250959150493145" lon="9.589360328391194">
        <ele>1473.0799999999999</ele>
        <time>2022-10-20T06:36:34Z</time>
      </trkpt>
      <trkpt lat="46.250956133008003" lon="9.589373236522079">
        <ele>1469.3199999999999</ele>
        <time>2022-10-20T06:36:22Z</time>
      </trkpt>
      <trkpt lat="46.250951522961259" lon="9.589488571509719">
        <ele>1466.1500000000001</ele>
        <time>2022-10-20T06:36:06Z</time>
      </trkpt>
      <trkpt lat="46.250933585688472" lon="9.589567529037595">
        <ele>1463.72</ele>
        <time>2022-10-20T06:35:53Z</time>
      </trkpt>
      <trkpt lat="46.250917995348573" lon="9.58968210965395">
        <ele>1460.51</ele>
        <time>2022-10-20T06:35:39Z</time>
      </trkpt>
      <trkpt lat="46.250827135518193" lon="9.589702812954783">
        <ele>1457.6800000000001</ele>
        <time>2022-10-20T06:35:24Z</time>
      </trkpt>
      <trkpt lat="46.250748680904508" lon="9.589631650596857">
        <ele>1455.1600000000001</ele>
        <time>2022-10-20T06:35:08Z</time>
      </trkpt>
      <trkpt lat="46.250684140250087" lon="9.589556297287345">
        <ele>1452.22</ele>
        <time>2022-10-20T06:34:54Z</time>
      </trkpt>
      <trkpt lat="46.250619683414698" lon="9.589501647278667">
        <ele>1446.48</ele>
        <time>2022-10-20T06:34:34Z</time>
      </trkpt>
      <trkpt lat="46.250608535483479" lon="9.589549172669649">
        <ele>1442.8900000000001</ele>
        <time>2022-10-20T06:34:19Z</time>
      </trkpt>
      <trkpt lat="46.250588418915868" lon="9.589551519602537">
        <ele>1442.77</ele>
        <time>2022-10-20T06:34:17Z</time>
      </trkpt>
      <trkpt lat="46.250552041456103" lon="9.589538192376494">
        <ele>1440.0699999999999</ele>
        <time>2022-10-20T06:34:08Z</time>
      </trkpt>
      <trkpt lat="46.250486327335238" lon="9.58956778049469">
        <ele>1434.4100000000001</ele>
        <time>2022-10-20T06:33:50Z</time>
      </trkpt>
      <trkpt lat="46.250493703410029" lon="9.589655036106706">
        <ele>1430.5599999999999</ele>
        <time>2022-10-20T06:33:38Z</time>
      </trkpt>
      <trkpt lat="46.250478196889162" lon="9.589686300605536">
        <ele>1427.5699999999999</ele>
        <time>2022-10-20T06:33:23Z</time>
      </trkpt>
      <trkpt lat="46.250421199947596" lon="9.589738268405199">
        <ele>1424.3199999999999</ele>
        <time>2022-10-20T06:33:10Z</time>
      </trkpt>
      <trkpt lat="46.25042337924242" lon="9.5898521784693">
        <ele>1419.49</ele>
        <time>2022-10-20T06:32:54Z</time>
      </trkpt>
      <trkpt lat="46.250431258231401" lon="9.589933985844255">
        <ele>1415.0799999999999</ele>
        <time>2022-10-20T06:32:34Z</time>
      </trkpt>
      <trkpt lat="46.250396724790335" lon="9.590014787390828">
        <ele>1412.23</ele>
        <time>2022-10-20T06:32:18Z</time>
      </trkpt>
      <trkpt lat="46.25035640783608" lon="9.590039933100343">
        <ele>1410.9300000000001</ele>
        <time>2022-10-20T06:32:01Z</time>
      </trkpt>
      <trkpt lat="46.250297063961625" lon="9.590128529816866">
        <ele>1408.6500000000001</ele>
        <time>2022-10-20T06:31:43Z</time>
      </trkpt>
      <trkpt lat="46.250246521085501" lon="9.590138671919704">
        <ele>1406.9200000000001</ele>
        <time>2022-10-20T06:31:33Z</time>
      </trkpt>
      <trkpt lat="46.250283736735582" lon="9.590247636660934">
        <ele>1404.4000000000001</ele>
        <time>2022-10-20T06:31:18Z</time>
      </trkpt>
      <trkpt lat="46.250266637653112" lon="9.590336484834552">
        <ele>1402.1199999999999</ele>
        <time>2022-10-20T06:31:02Z</time>
      </trkpt>
      <trkpt lat="46.250273175537586" lon="9.590413011610508">
        <ele>1400.27</ele>
        <time>2022-10-20T06:30:51Z</time>
      </trkpt>
      <trkpt lat="46.25027728267014" lon="9.590459363535047">
        <ele>1399.1199999999999</ele>
        <time>2022-10-20T06:30:44Z</time>
      </trkpt>
      <trkpt lat="46.250235792249441" lon="9.590520635247231">
        <ele>1397.28</ele>
        <time>2022-10-20T06:30:32Z</time>
      </trkpt>
      <trkpt lat="46.250153062865138" lon="9.590589953586459">
        <ele>1395.1900000000001</ele>
        <time>2022-10-20T06:30:19Z</time>
      </trkpt>
      <trkpt lat="46.250094389542937" lon="9.590717358514667">
        <ele>1392.0899999999999</ele>
        <time>2022-10-20T06:30:02Z</time>
      </trkpt>
      <trkpt lat="46.250054659321904" lon="9.590820455923677">
        <ele>1389.3699999999999</ele>
        <time>2022-10-20T06:29:45Z</time>
      </trkpt>
      <trkpt lat="46.25005692243576" lon="9.590918440371752">
        <ele>1387.4200000000001</ele>
        <time>2022-10-20T06:29:31Z</time>
      </trkpt>
      <trkpt lat="46.250049211084843" lon="9.591015670448542">
        <ele>1386.21</ele>
        <time>2022-10-20T06:29:17Z</time>
      </trkpt>
      <trkpt lat="46.250012582167983" lon="9.591135615482926">
        <ele>1384.49</ele>
        <time>2022-10-20T06:29:01Z</time>
      </trkpt>
      <trkpt lat="46.249985005706549" lon="9.591263439506292">
        <ele>1382.02</ele>
        <time>2022-10-20T06:28:42Z</time>
      </trkpt>
      <trkpt lat="46.249968074262142" lon="9.591309456154704">
        <ele>1379.77</ele>
        <time>2022-10-20T06:28:28Z</time>
      </trkpt>
      <trkpt lat="46.249894062057137" lon="9.591372068971396">
        <ele>1377.25</ele>
        <time>2022-10-20T06:28:15Z</time>
      </trkpt>
      <trkpt lat="46.249927170574665" lon="9.59139185026288">
        <ele>1372.8299999999999</ele>
        <time>2022-10-20T06:27:52Z</time>
      </trkpt>
      <trkpt lat="46.249866653233767" lon="9.591338289901614">
        <ele>1369.7</ele>
        <time>2022-10-20T06:27:35Z</time>
      </trkpt>
      <trkpt lat="46.24981451779604" lon="9.591257236897945">
        <ele>1368.55</ele>
        <time>2022-10-20T06:27:21Z</time>
      </trkpt>
      <trkpt lat="46.249749222770333" lon="9.591160928830504">
        <ele>1366.4200000000001</ele>
        <time>2022-10-20T06:27:04Z</time>
      </trkpt>
      <trkpt lat="46.249714186415076" lon="9.591208705678582">
        <ele>1363.8</ele>
        <time>2022-10-20T06:26:46Z</time>
      </trkpt>
      <trkpt lat="46.249629696831107" lon="9.591218261048198">
        <ele>1361.4300000000001</ele>
        <time>2022-10-20T06:26:28Z</time>
      </trkpt>
      <trkpt lat="46.249600360170007" lon="9.591174758970738">
        <ele>1360.28</ele>
        <time>2022-10-20T06:26:19Z</time>
      </trkpt>
      <trkpt lat="46.249570017680526" lon="9.590972336009145">
        <ele>1359.1800000000001</ele>
        <time>2022-10-20T06:26:03Z</time>
      </trkpt>
      <trkpt lat="46.249564234167337" lon="9.590812157839537">
        <ele>1357.9100000000001</ele>
        <time>2022-10-20T06:25:50Z</time>
      </trkpt>
      <trkpt lat="46.249509919434786" lon="9.590607723221183">
        <ele>1356.45</ele>
        <time>2022-10-20T06:25:33Z</time>
      </trkpt>
      <trkpt lat="46.249437835067511" lon="9.590457938611507">
        <ele>1353.8099999999999</ele>
        <time>2022-10-20T06:25:17Z</time>
      </trkpt>
      <trkpt lat="46.249365750700235" lon="9.590415190905333">
        <ele>1350.8699999999999</ele>
        <time>2022-10-20T06:25:00Z</time>
      </trkpt>
      <trkpt lat="46.249309089034796" lon="9.590402031317353">
        <ele>1349.79</ele>
        <time>2022-10-20T06:24:43Z</time>
      </trkpt>
      <trkpt lat="46.249263072386384" lon="9.590314775705338">
        <ele>1349.74</ele>
        <time>2022-10-20T06:24:28Z</time>
      </trkpt>
      <trkpt lat="46.249227616935968" lon="9.590280074626207">
        <ele>1348.3299999999999</ele>
        <time>2022-10-20T06:24:13Z</time>
      </trkpt>
      <trkpt lat="46.24918176792562" lon="9.590171445161104">
        <ele>1347.9000000000001</ele>
        <time>2022-10-20T06:24:00Z</time>
      </trkpt>
      <trkpt lat="46.249099373817444" lon="9.590107155963779">
        <ele>1346.8099999999999</ele>
        <time>2022-10-20T06:23:44Z</time>
      </trkpt>
      <trkpt lat="46.249047741293907" lon="9.590003890916705">
        <ele>1345.8099999999999</ele>
        <time>2022-10-20T06:23:29Z</time>
      </trkpt>
      <trkpt lat="46.248966436833143" lon="9.589966926723719">
        <ele>1343.3800000000001</ele>
        <time>2022-10-20T06:23:12Z</time>
      </trkpt>
      <trkpt lat="46.248945482075214" lon="9.589864164590836">
        <ele>1342.6500000000001</ele>
        <time>2022-10-20T06:22:58Z</time>
      </trkpt>
      <trkpt lat="46.248801397159696" lon="9.589790822938085">
        <ele>1343.53</ele>
        <time>2022-10-20T06:22:43Z</time>
      </trkpt>
      <trkpt lat="46.248787399381399" lon="9.589774729683995">
        <ele>1343.5999999999999</ele>
        <time>2022-10-20T06:22:41Z</time>
      </trkpt>
      <trkpt lat="46.248656641691923" lon="9.589687893167138">
        <ele>1343.79</ele>
        <time>2022-10-20T06:22:22Z</time>
      </trkpt>
      <trkpt lat="46.248584976419806" lon="9.589523859322071">
        <ele>1343.0999999999999</ele>
        <time>2022-10-20T06:22:06Z</time>
      </trkpt>
      <trkpt lat="46.248512556776404" lon="9.589393185451627">
        <ele>1342.8399999999999</ele>
        <time>2022-10-20T06:21:52Z</time>
      </trkpt>
      <trkpt lat="46.248433599248528" lon="9.589281035587192">
        <ele>1342.48</ele>
        <time>2022-10-20T06:21:37Z</time>
      </trkpt>
      <trkpt lat="46.248376602306962" lon="9.589194785803556">
        <ele>1342.0899999999999</ele>
        <time>2022-10-20T06:21:24Z</time>
      </trkpt>
      <trkpt lat="46.248350534588099" lon="9.589198306202889">
        <ele>1342.1099999999999</ele>
        <time>2022-10-20T06:21:22Z</time>
      </trkpt>
      <trkpt lat="46.248249700292945" lon="9.589110463857651">
        <ele>1339.75</ele>
        <time>2022-10-20T06:21:07Z</time>
      </trkpt>
      <trkpt lat="46.248222291469574" lon="9.589095460250974">
        <ele>1335.52</ele>
        <time>2022-10-20T06:20:50Z</time>
      </trkpt>
      <trkpt lat="46.248276522383094" lon="9.589142315089703">
        <ele>1332.4400000000001</ele>
        <time>2022-10-20T06:20:36Z</time>
      </trkpt>
      <trkpt lat="46.248253136873245" lon="9.589202748611569">
        <ele>1329.8599999999999</ele>
        <time>2022-10-20T06:20:21Z</time>
      </trkpt>
      <trkpt lat="46.248165043070912" lon="9.589245496317744">
        <ele>1324.6800000000001</ele>
        <time>2022-10-20T06:20:04Z</time>
      </trkpt>
      <trkpt lat="46.248087761923671" lon="9.589236192405224">
        <ele>1323.21</ele>
        <time>2022-10-20T06:19:48Z</time>
      </trkpt>
      <trkpt lat="46.248091366142035" lon="9.589284136891365">
        <ele>1322.26</ele>
        <time>2022-10-20T06:19:32Z</time>
      </trkpt>
      <trkpt lat="46.2480344530195" lon="9.589293440803886">
        <ele>1319.23</ele>
        <time>2022-10-20T06:19:17Z</time>
      </trkpt>
      <trkpt lat="46.248009642586112" lon="9.589279945939779">
        <ele>1315.77</ele>
        <time>2022-10-20T06:19:03Z</time>
      </trkpt>
      <trkpt lat="46.247966140508652" lon="9.589285980910063">
        <ele>1311.0799999999999</ele>
        <time>2022-10-20T06:18:50Z</time>
      </trkpt>
      <trkpt lat="46.247895481064916" lon="9.589288830757141">
        <ele>1305.74</ele>
        <time>2022-10-20T06:18:33Z</time>
      </trkpt>
      <trkpt lat="46.24777595512569" lon="9.589285310357809">
        <ele>1299.8399999999999</ele>
        <time>2022-10-20T06:18:15Z</time>
      </trkpt>
      <trkpt lat="46.247689034789801" lon="9.589293524622917">
        <ele>1297.27</ele>
        <time>2022-10-20T06:18:00Z</time>
      </trkpt>
      <trkpt lat="46.247634887695312" lon="9.589339541271329">
        <ele>1294.3099999999999</ele>
        <time>2022-10-20T06:17:43Z</time>
      </trkpt>
      <trkpt lat="46.247546039521694" lon="9.589321268722415">
        <ele>1289.3699999999999</ele>
        <time>2022-10-20T06:17:27Z</time>
      </trkpt>
      <trkpt lat="46.247442942112684" lon="9.58932495675981">
        <ele>1285.75</ele>
        <time>2022-10-20T06:17:10Z</time>
      </trkpt>
      <trkpt lat="46.247328445315361" lon="9.589322861284018">
        <ele>1281.3</ele>
        <time>2022-10-20T06:16:53Z</time>
      </trkpt>
      <trkpt lat="46.247311094775796" lon="9.589268630370498">
        <ele>1277.52</ele>
        <time>2022-10-20T06:16:35Z</time>
      </trkpt>
      <trkpt lat="46.247265245765448" lon="9.589300230145454">
        <ele>1276.8699999999999</ele>
        <time>2022-10-20T06:16:19Z</time>
      </trkpt>
      <trkpt lat="46.247267425060272" lon="9.589439621195197">
        <ele>1276.4400000000001</ele>
        <time>2022-10-20T06:16:03Z</time>
      </trkpt>
      <trkpt lat="46.247250577434897" lon="9.58949401974678">
        <ele>1275.4400000000001</ele>
        <time>2022-10-20T06:15:49Z</time>
      </trkpt>
      <trkpt lat="46.247310759499669" lon="9.589588819071651">
        <ele>1271.9200000000001</ele>
        <time>2022-10-20T06:15:32Z</time>
      </trkpt>
      <trkpt lat="46.24733230099082" lon="9.589649839326739">
        <ele>1268.79</ele>
        <time>2022-10-20T06:15:17Z</time>
      </trkpt>
      <trkpt lat="46.247250493615866" lon="9.589642966166139">
        <ele>1264.5799999999999</ele>
        <time>2022-10-20T06:15:03Z</time>
      </trkpt>
      <trkpt lat="46.247164746746421" lon="9.589665429666638">
        <ele>1261.3900000000001</ele>
        <time>2022-10-20T06:14:47Z</time>
      </trkpt>
      <trkpt lat="46.247215792536736" lon="9.589720834046602">
        <ele>1258.3599999999999</ele>
        <time>2022-10-20T06:14:34Z</time>
      </trkpt>
      <trkpt lat="46.247145887464285" lon="9.58973198197782">
        <ele>1255.21</ele>
        <time>2022-10-20T06:14:17Z</time>
      </trkpt>
      <trkpt lat="46.24706206843257" lon="9.589707087725401">
        <ele>1253.29</ele>
        <time>2022-10-20T06:14:02Z</time>
      </trkpt>
      <trkpt lat="46.247024685144424" lon="9.589686635881662">
        <ele>1251.6300000000001</ele>
        <time>2022-10-20T06:13:47Z</time>
      </trkpt>
      <trkpt lat="46.247037006542087" lon="9.589685713872314">
        <ele>1250.8199999999999</ele>
        <time>2022-10-20T06:13:29Z</time>
      </trkpt>
      <trkpt lat="46.247060559689999" lon="9.589703567326069">
        <ele>1248.6099999999999</ele>
        <time>2022-10-20T06:13:10Z</time>
      </trkpt>
      <trkpt lat="46.247025858610868" lon="9.589715972542763">
        <ele>1248.1300000000001</ele>
        <time>2022-10-20T06:12:57Z</time>
      </trkpt>
      <trkpt lat="46.247041700407863" lon="9.589728461578488">
        <ele>1247.04</ele>
        <time>2022-10-20T06:12:39Z</time>
      </trkpt>
      <trkpt lat="46.247054189443588" lon="9.5896967779845">
        <ele>1244.97</ele>
        <time>2022-10-20T06:12:17Z</time>
      </trkpt>
      <trkpt lat="46.247026193886995" lon="9.58969141356647">
        <ele>1243.45</ele>
        <time>2022-10-20T06:11:55Z</time>
      </trkpt>
      <trkpt lat="46.246992247179151" lon="9.589708847925067">
        <ele>1240.48</ele>
        <time>2022-10-20T06:11:39Z</time>
      </trkpt>
      <trkpt lat="46.246979255229235" lon="9.589762324467301">
        <ele>1239.45</ele>
        <time>2022-10-20T06:11:26Z</time>
      </trkpt>
      <trkpt lat="46.24691161327064" lon="9.589773891493678">
        <ele>1237.79</ele>
        <time>2022-10-20T06:11:12Z</time>
      </trkpt>
      <trkpt lat="46.246922174468637" lon="9.589873133227229">
        <ele>1235.75</ele>
        <time>2022-10-20T06:10:55Z</time>
      </trkpt>
      <trkpt lat="46.246942123398185" lon="9.589955527335405">
        <ele>1234.1099999999999</ele>
        <time>2022-10-20T06:10:43Z</time>
      </trkpt>
      <trkpt lat="46.246890239417553" lon="9.589935829862952">
        <ele>1229.8</ele>
        <time>2022-10-20T06:10:25Z</time>
      </trkpt>
      <trkpt lat="46.246844725683331" lon="9.589966088533402">
        <ele>1226.99</ele>
        <time>2022-10-20T06:10:11Z</time>
      </trkpt>
      <trkpt lat="46.24690281227231" lon="9.590039178729057">
        <ele>1224.01</ele>
        <time>2022-10-20T06:09:56Z</time>
      </trkpt>
      <trkpt lat="46.246921923011541" lon="9.590084357187152">
        <ele>1222.4300000000001</ele>
        <time>2022-10-20T06:09:41Z</time>
      </trkpt>
      <trkpt lat="46.24686224386096" lon="9.590151077136397">
        <ele>1220.25</ele>
        <time>2022-10-20T06:09:25Z</time>
      </trkpt>
      <trkpt lat="46.246803319081664" lon="9.590150322765112">
        <ele>1216.4000000000001</ele>
        <time>2022-10-20T06:09:08Z</time>
      </trkpt>
      <trkpt lat="46.246751686558127" lon="9.590153759345412">
        <ele>1216.6099999999999</ele>
        <time>2022-10-20T06:08:55Z</time>
      </trkpt>
      <trkpt lat="46.246766773983836" lon="9.590212935581803">
        <ele>1216</ele>
        <time>2022-10-20T06:08:38Z</time>
      </trkpt>
      <trkpt lat="46.246735844761133" lon="9.590256018564105">
        <ele>1214.4300000000001</ele>
        <time>2022-10-20T06:08:23Z</time>
      </trkpt>
      <trkpt lat="46.246734419837594" lon="9.590326091274619">
        <ele>1212.1600000000001</ele>
        <time>2022-10-20T06:08:09Z</time>
      </trkpt>
      <trkpt lat="46.246702317148447" lon="9.590411251410842">
        <ele>1209.6400000000001</ele>
        <time>2022-10-20T06:07:54Z</time>
      </trkpt>
      <trkpt lat="46.246755793690681" lon="9.590482246130705">
        <ele>1207.6700000000001</ele>
        <time>2022-10-20T06:07:39Z</time>
      </trkpt>
      <trkpt lat="46.246806085109711" lon="9.590552318841219">
        <ele>1206.47</ele>
        <time>2022-10-20T06:07:26Z</time>
      </trkpt>
      <trkpt lat="46.246713800355792" lon="9.590571597218514">
        <ele>1205.3699999999999</ele>
        <time>2022-10-20T06:07:11Z</time>
      </trkpt>
      <trkpt lat="46.246616318821907" lon="9.590538069605827">
        <ele>1204.05</ele>
        <time>2022-10-20T06:06:57Z</time>
      </trkpt>
      <trkpt lat="46.246588993817568" lon="9.59055483341217">
        <ele>1202.4200000000001</ele>
        <time>2022-10-20T06:06:43Z</time>
      </trkpt>
      <trkpt lat="46.246572397649288" lon="9.590581152588129">
        <ele>1200.28</ele>
        <time>2022-10-20T06:06:33Z</time>
      </trkpt>
      <trkpt lat="46.246580695733428" lon="9.590623481199145">
        <ele>1198.1600000000001</ele>
        <time>2022-10-20T06:06:21Z</time>
      </trkpt>
      <trkpt lat="46.246637692674994" lon="9.590706881135702">
        <ele>1196.21</ele>
        <time>2022-10-20T06:06:09Z</time>
      </trkpt>
      <trkpt lat="46.246653366833925" lon="9.590758178383112">
        <ele>1193.2</ele>
        <time>2022-10-20T06:05:59Z</time>
      </trkpt>
      <trkpt lat="46.246692761778831" lon="9.590823305770755">
        <ele>1188.6800000000001</ele>
        <time>2022-10-20T06:05:45Z</time>
      </trkpt>
      <trkpt lat="46.246737018227577" lon="9.590913159772754">
        <ele>1185</ele>
        <time>2022-10-20T06:05:31Z</time>
      </trkpt>
      <trkpt lat="46.246783453971148" lon="9.591021705418825">
        <ele>1181.78</ele>
        <time>2022-10-20T06:05:17Z</time>
      </trkpt>
      <trkpt lat="46.246784711256623" lon="9.591159000992775">
        <ele>1181.9300000000001</ele>
        <time>2022-10-20T06:05:05Z</time>
      </trkpt>
      <trkpt lat="46.246759397909045" lon="9.591326639056206">
        <ele>1184.26</ele>
        <time>2022-10-20T06:04:52Z</time>
      </trkpt>
      <trkpt lat="46.246751602739096" lon="9.591342564672232">
        <ele>1184.3099999999999</ele>
        <time>2022-10-20T06:04:51Z</time>
      </trkpt>
      <trkpt lat="46.246739448979497" lon="9.591358406469226">
        <ele>1184.4200000000001</ele>
        <time>2022-10-20T06:04:50Z</time>
      </trkpt>
      <trkpt lat="46.246729223057628" lon="9.591373912990093">
        <ele>1184.4000000000001</ele>
        <time>2022-10-20T06:04:49Z</time>
      </trkpt>
      <trkpt lat="46.246725786477327" lon="9.591391934081912">
        <ele>1184.3599999999999</ele>
        <time>2022-10-20T06:04:48Z</time>
      </trkpt>
      <trkpt lat="46.246708016842604" lon="9.591432586312294">
        <ele>1184.5599999999999</ele>
        <time>2022-10-20T06:04:44Z</time>
      </trkpt>
      <trkpt lat="46.246702987700701" lon="9.591458905488253">
        <ele>1184.6199999999999</ele>
        <time>2022-10-20T06:04:42Z</time>
      </trkpt>
      <trkpt lat="46.24668731354177" lon="9.591505844146013">
        <ele>1185.0899999999999</ele>
        <time>2022-10-20T06:04:38Z</time>
      </trkpt>
      <trkpt lat="46.246667448431253" lon="9.591581197455525">
        <ele>1184.8599999999999</ele>
        <time>2022-10-20T06:04:30Z</time>
      </trkpt>
      <trkpt lat="46.246664766222239" lon="9.591592010110617">
        <ele>1185.26</ele>
        <time>2022-10-20T06:04:29Z</time>
      </trkpt>
      <trkpt lat="46.246637022122741" lon="9.591635093092918">
        <ele>1185.8599999999999</ele>
        <time>2022-10-20T06:04:24Z</time>
      </trkpt>
      <trkpt lat="46.246617240831256" lon="9.591702483594418">
        <ele>1186.6300000000001</ele>
        <time>2022-10-20T06:04:18Z</time>
      </trkpt>
      <trkpt lat="46.246576085686684" lon="9.591794013977051">
        <ele>1187.24</ele>
        <time>2022-10-20T06:04:11Z</time>
      </trkpt>
      <trkpt lat="46.246559908613563" lon="9.591989144682884">
        <ele>1186.54</ele>
        <time>2022-10-20T06:03:58Z</time>
      </trkpt>
      <trkpt lat="46.246555298566818" lon="9.592004483565688">
        <ele>1186.49</ele>
        <time>2022-10-20T06:03:57Z</time>
      </trkpt>
      <trkpt lat="46.246550856158137" lon="9.59201873280108">
        <ele>1186.4100000000001</ele>
        <time>2022-10-20T06:03:56Z</time>
      </trkpt>
      <trkpt lat="46.246550772339106" lon="9.592060223221779">
        <ele>1186.1700000000001</ele>
        <time>2022-10-20T06:03:53Z</time>
      </trkpt>
      <trkpt lat="46.246555130928755" lon="9.592086039483547">
        <ele>1185.75</ele>
        <time>2022-10-20T06:03:51Z</time>
      </trkpt>
      <trkpt lat="46.246559740975499" lon="9.592173462733626">
        <ele>1184.47</ele>
        <time>2022-10-20T06:03:44Z</time>
      </trkpt>
      <trkpt lat="46.246566949412227" lon="9.592271614819765">
        <ele>1185.4200000000001</ele>
        <time>2022-10-20T06:03:36Z</time>
      </trkpt>
      <trkpt lat="46.246583210304379" lon="9.592313440516591">
        <ele>1185.8900000000001</ele>
        <time>2022-10-20T06:03:33Z</time>
      </trkpt>
      <trkpt lat="46.246585976332426" lon="9.592336155474186">
        <ele>1186.1800000000001</ele>
        <time>2022-10-20T06:03:31Z</time>
      </trkpt>
      <trkpt lat="46.246565105393529" lon="9.592440258711577">
        <ele>1185.5699999999999</ele>
        <time>2022-10-20T06:03:23Z</time>
      </trkpt>
      <trkpt lat="46.24650307931006" lon="9.592652823776007">
        <ele>1184.4200000000001</ele>
        <time>2022-10-20T06:03:09Z</time>
      </trkpt>
      <trkpt lat="46.246450776234269" lon="9.592856504023075">
        <ele>1182.8599999999999</ele>
        <time>2022-10-20T06:02:55Z</time>
      </trkpt>
      <trkpt lat="46.246447423473001" lon="9.592871004715562">
        <ele>1182.78</ele>
        <time>2022-10-20T06:02:54Z</time>
      </trkpt>
      <trkpt lat="46.246451362967491" lon="9.592889863997698">
        <ele>1182.51</ele>
        <time>2022-10-20T06:02:53Z</time>
      </trkpt>
      <trkpt lat="46.24644884839654" lon="9.592905538156629">
        <ele>1182.1099999999999</ele>
        <time>2022-10-20T06:02:52Z</time>
      </trkpt>
      <trkpt lat="46.246427223086357" lon="9.593032691627741">
        <ele>1180.3299999999999</ele>
        <time>2022-10-20T06:02:43Z</time>
      </trkpt>
      <trkpt lat="46.246381374076009" lon="9.593210304155946">
        <ele>1178.03</ele>
        <time>2022-10-20T06:02:30Z</time>
      </trkpt>
      <trkpt lat="46.246300656348467" lon="9.593400740996003">
        <ele>1174.24</ele>
        <time>2022-10-20T06:02:15Z</time>
      </trkpt>
      <trkpt lat="46.246213149279356" lon="9.593586148694158">
        <ele>1171.04</ele>
        <time>2022-10-20T06:02:01Z</time>
      </trkpt>
      <trkpt lat="46.246213987469673" lon="9.59360484033823">
        <ele>1170.4400000000001</ele>
        <time>2022-10-20T06:02:00Z</time>
      </trkpt>
      <trkpt lat="46.246207617223263" lon="9.593619173392654">
        <ele>1170.49</ele>
        <time>2022-10-20T06:01:59Z</time>
      </trkpt>
      <trkpt lat="46.246171742677689" lon="9.593706764280796">
        <ele>1169.9200000000001</ele>
        <time>2022-10-20T06:01:53Z</time>
      </trkpt>
      <trkpt lat="46.246183896437287" lon="9.593913294374943">
        <ele>1169.2</ele>
        <time>2022-10-20T06:01:39Z</time>
      </trkpt>
      <trkpt lat="46.246196553111076" lon="9.594007674604654">
        <ele>1168.3599999999999</ele>
        <time>2022-10-20T06:01:33Z</time>
      </trkpt>
      <trkpt lat="46.246254220604897" lon="9.594120662659407">
        <ele>1166.98</ele>
        <time>2022-10-20T06:01:26Z</time>
      </trkpt>
      <trkpt lat="46.246304428204894" lon="9.594200793653727">
        <ele>1165.8</ele>
        <time>2022-10-20T06:01:21Z</time>
      </trkpt>
      <trkpt lat="46.246322030201554" lon="9.594227615743876">
        <ele>1165.4300000000001</ele>
        <time>2022-10-20T06:01:18Z</time>
      </trkpt>
      <trkpt lat="46.246338877826929" lon="9.594372287392616">
        <ele>1164.53</ele>
        <time>2022-10-20T06:01:03Z</time>
      </trkpt>
      <trkpt lat="46.246276348829269" lon="9.594535566866398">
        <ele>1163.04</ele>
        <time>2022-10-20T06:00:49Z</time>
      </trkpt>
      <trkpt lat="46.246204599738121" lon="9.594710161909461">
        <ele>1161.1300000000001</ele>
        <time>2022-10-20T06:00:35Z</time>
      </trkpt>
      <trkpt lat="46.246170233935118" lon="9.594831867143512">
        <ele>1159.74</ele>
        <time>2022-10-20T06:00:26Z</time>
      </trkpt>
      <trkpt lat="46.246152464300394" lon="9.594960110262036">
        <ele>1158.3199999999999</ele>
        <time>2022-10-20T06:00:17Z</time>
      </trkpt>
      <trkpt lat="46.246150704100728" lon="9.595008473843336">
        <ele>1157.96</ele>
        <time>2022-10-20T06:00:14Z</time>
      </trkpt>
      <trkpt lat="46.246097898110747" lon="9.595107883214951">
        <ele>1158.5999999999999</ele>
        <time>2022-10-20T06:00:06Z</time>
      </trkpt>
      <trkpt lat="46.24599345959723" lon="9.595133196562529">
        <ele>1159.27</ele>
        <time>2022-10-20T06:00:00Z</time>
      </trkpt>
      <trkpt lat="46.245838981121778" lon="9.595174603164196">
        <ele>1159.54</ele>
        <time>2022-10-20T05:59:50Z</time>
      </trkpt>
      <trkpt lat="46.24577502720058" lon="9.595380881801248">
        <ele>1160.77</ele>
        <time>2022-10-20T05:59:35Z</time>
      </trkpt>
      <trkpt lat="46.245661620050669" lon="9.595507699996233">
        <ele>1163.04</ele>
        <time>2022-10-20T05:59:21Z</time>
      </trkpt>
      <trkpt lat="46.245561875402927" lon="9.595647174865007">
        <ele>1164.54</ele>
        <time>2022-10-20T05:59:10Z</time>
      </trkpt>
      <trkpt lat="46.245442517101765" lon="9.595839958637953">
        <ele>1166.76</ele>
        <time>2022-10-20T05:58:56Z</time>
      </trkpt>
      <trkpt lat="46.245337659493089" lon="9.596000304445624">
        <ele>1169.0699999999999</ele>
        <time>2022-10-20T05:58:42Z</time>
      </trkpt>
      <trkpt lat="46.245313351973891" lon="9.596124775707722">
        <ele>1170.0599999999999</ele>
        <time>2022-10-20T05:58:33Z</time>
      </trkpt>
      <trkpt lat="46.245259623974562" lon="9.596240781247616">
        <ele>1171.46</ele>
        <time>2022-10-20T05:58:23Z</time>
      </trkpt>
      <trkpt lat="46.245198855176568" lon="9.596356619149447">
        <ele>1171.8699999999999</ele>
        <time>2022-10-20T05:58:12Z</time>
      </trkpt>
      <trkpt lat="46.24513984657824" lon="9.596497351303697">
        <ele>1172.8800000000001</ele>
        <time>2022-10-20T05:58:03Z</time>
      </trkpt>
      <trkpt lat="46.245084190741181" lon="9.596624001860619">
        <ele>1173.6400000000001</ele>
        <time>2022-10-20T05:57:55Z</time>
      </trkpt>
      <trkpt lat="46.245077066123486" lon="9.596690302714706">
        <ele>1174.5999999999999</ele>
        <time>2022-10-20T05:57:51Z</time>
      </trkpt>
      <trkpt lat="46.245033647865057" lon="9.596747551113367">
        <ele>1176.3800000000001</ele>
        <time>2022-10-20T05:57:44Z</time>
      </trkpt>
      <trkpt lat="46.244977824389935" lon="9.596798764541745">
        <ele>1177.8699999999999</ele>
        <time>2022-10-20T05:57:38Z</time>
      </trkpt>
      <trkpt lat="46.244881683960557" lon="9.596911082044244">
        <ele>1180.21</ele>
        <time>2022-10-20T05:57:27Z</time>
      </trkpt>
      <trkpt lat="46.244833320379257" lon="9.596987022086978">
        <ele>1181.4300000000001</ele>
        <time>2022-10-20T05:57:21Z</time>
      </trkpt>
      <trkpt lat="46.244797864928842" lon="9.597079725936055">
        <ele>1182.6300000000001</ele>
        <time>2022-10-20T05:57:14Z</time>
      </trkpt>
      <trkpt lat="46.244727959856391" lon="9.597185086458921">
        <ele>1183.1900000000001</ele>
        <time>2022-10-20T05:57:05Z</time>
      </trkpt>
      <trkpt lat="46.244727792218328" lon="9.59719380363822">
        <ele>1182.23</ele>
        <time>2022-10-20T05:56:59Z</time>
      </trkpt>
      <trkpt lat="46.244738856330514" lon="9.597191708162427">
        <ele>1181.71</ele>
        <time>2022-10-20T05:56:41Z</time>
      </trkpt>
    </trkseg>
  </trk>

</gpx>